PWSweather.com
Personal Weather Stations
Station Observations
WITTFAMILY
Redmond Watershed, Redmond, WA 98053

Redmond WatershedRedmond, WA 98053

Lat: 47.7071, Lon: -122.0608

Elevation: 350

Station Type: DIY

http://wittfamily.com/weewx

High Low Average
Temperature 51.5°F10.8°C 41.3°F5.2°C 46.2°F7.9°C
Dew Point 43.9°F6.6°C 42.2°F5.7°C 43.1°F6.2°C
Winds 3.0 mph 4.8 kmh Calm Calm 1.0 mph SSE1.6 kmh SSE
Wind Gusts -- -- --
Humidity 56% 56% 56%
Pressure 29.55 in1000.7 mb 29.42 in996.3 mb -
Precipitation 3.81 in96.8 mm - -
Hour Temp Dew Point Humidity Winds Wind Gusts Pressure Precip Precip Rate Daily Precip Total
12:01 AM 49.1°F9.5°C 43.8°F6.6°C 56% 1.0 mph NNW1.6 kmh NNW -- 29.36 in994.2 mb 0.06 in1.5 mm 3.60 in91.4 mm 3.50 in88.9 mm
12:02 AM 49.4°F9.7°C 43.8°F6.6°C 56% 1.0 mph N1.6 kmh N -- 29.36 in994.2 mb 0.06 in1.5 mm 0.00 in0.0 mm 3.50 in88.9 mm
12:03 AM 49.6°F9.8°C 43.8°F6.6°C 56% 1.0 mph ENE1.6 kmh ENE -- 29.36 in994.2 mb 0.06 in1.5 mm 0.00 in0.0 mm 3.50 in88.9 mm
12:04 AM 49.3°F9.6°C 43.8°F6.6°C 56% 1.0 mph ENE1.6 kmh ENE -- 29.36 in994.2 mb 0.06 in1.5 mm 0.00 in0.0 mm 3.50 in88.9 mm
12:05 AM 49.1°F9.5°C 43.8°F6.6°C 56% 1.0 mph NE1.6 kmh NE -- 29.36 in994.2 mb 0.06 in1.5 mm 0.00 in0.0 mm 3.50 in88.9 mm
12:06 AM 48.9°F9.4°C 43.8°F6.6°C 56% 1.0 mph ENE1.6 kmh ENE -- 29.36 in994.2 mb 0.06 in1.5 mm 0.00 in0.0 mm 3.50 in88.9 mm
12:07 AM 48.9°F9.4°C 43.8°F6.6°C 56% 1.0 mph SE1.6 kmh SE -- 29.36 in994.2 mb 0.06 in1.5 mm 0.00 in0.0 mm 3.50 in88.9 mm
12:08 AM 48.9°F9.4°C 43.8°F6.6°C 56% 1.0 mph S1.6 kmh S -- 29.36 in994.2 mb 0.06 in1.5 mm 0.00 in0.0 mm 3.50 in88.9 mm
12:09 AM 49.1°F9.5°C 43.8°F6.6°C 56% 1.0 mph N1.6 kmh N -- 29.37 in994.6 mb 0.06 in1.5 mm 0.00 in0.0 mm 3.50 in88.9 mm
12:10 AM 48.9°F9.4°C 43.8°F6.6°C 56% 1.0 mph N1.6 kmh N -- 29.37 in994.6 mb 0.06 in1.5 mm 0.00 in0.0 mm 3.50 in88.9 mm
12:11 AM 49.1°F9.5°C 43.8°F6.6°C 56% 1.0 mph ENE1.6 kmh ENE -- 29.37 in994.6 mb 0.06 in1.5 mm 0.00 in0.0 mm 3.50 in88.9 mm
12:12 AM 49.1°F9.5°C 43.8°F6.6°C 56% 1.0 mph ENE1.6 kmh ENE -- 29.37 in994.6 mb 0.06 in1.5 mm 0.00 in0.0 mm 3.50 in88.9 mm
12:13 AM 49.0°F9.4°C 43.8°F6.6°C 56% 1.0 mph W1.6 kmh W -- 29.37 in994.6 mb 0.06 in1.5 mm 0.00 in0.0 mm 3.50 in88.9 mm
12:14 AM 49.0°F9.4°C 43.8°F6.6°C 56% 1.0 mph NE1.6 kmh NE -- 29.37 in994.6 mb 0.06 in1.5 mm 0.00 in0.0 mm 3.50 in88.9 mm
12:15 AM 48.8°F9.3°C 43.9°F6.6°C 56% 1.0 mph NW1.6 kmh NW -- 29.37 in994.6 mb 0.07 in1.8 mm 0.60 in15.2 mm 3.51 in89.2 mm
12:16 AM 49.0°F9.4°C 43.9°F6.6°C 56% 1.0 mph W1.6 kmh W -- 29.38 in994.9 mb 0.07 in1.8 mm 0.00 in0.0 mm 3.51 in89.2 mm
12:17 AM 49.1°F9.5°C 43.8°F6.6°C 56% 1.0 mph NNE1.6 kmh NNE -- 29.38 in994.9 mb 0.07 in1.8 mm 0.00 in0.0 mm 3.51 in89.2 mm
12:18 AM 49.1°F9.5°C 43.8°F6.6°C 56% 1.0 mph SSW1.6 kmh SSW -- 29.38 in994.9 mb 0.07 in1.8 mm 0.00 in0.0 mm 3.51 in89.2 mm
12:19 AM 48.9°F9.4°C 43.9°F6.6°C 56% 2.0 mph W3.2 kmh W -- 29.38 in994.9 mb 0.07 in1.8 mm 0.00 in0.0 mm 3.51 in89.2 mm
12:20 AM 48.4°F9.1°C 43.8°F6.6°C 56% 2.0 mph ESE3.2 kmh ESE -- 29.38 in994.9 mb 0.07 in1.8 mm 0.00 in0.0 mm 3.51 in89.2 mm
12:21 AM 48.2°F9.0°C 43.8°F6.6°C 56% 2.0 mph N3.2 kmh N -- 29.38 in994.9 mb 0.08 in2.0 mm 0.60 in15.2 mm 3.52 in89.4 mm
12:22 AM 48.3°F9.1°C 43.8°F6.6°C 56% 1.0 mph N1.6 kmh N -- 29.38 in994.9 mb 0.08 in2.0 mm 0.00 in0.0 mm 3.52 in89.4 mm
12:23 AM 48.3°F9.1°C 43.8°F6.6°C 56% 1.0 mph WSW1.6 kmh WSW -- 29.38 in994.9 mb 0.08 in2.0 mm 0.00 in0.0 mm 3.52 in89.4 mm
12:24 AM 48.2°F9.0°C 43.9°F6.6°C 56% 1.0 mph E1.6 kmh E -- 29.38 in994.9 mb 0.08 in2.0 mm 0.00 in0.0 mm 3.52 in89.4 mm
12:25 AM 48.2°F9.0°C 43.8°F6.6°C 56% 1.0 mph N1.6 kmh N -- 29.39 in995.3 mb 0.08 in2.0 mm 0.00 in0.0 mm 3.52 in89.4 mm
12:26 AM 48.1°F8.9°C 43.8°F6.6°C 56% 1.0 mph NNW1.6 kmh NNW -- 29.39 in995.3 mb 0.08 in2.0 mm 0.00 in0.0 mm 3.52 in89.4 mm
12:27 AM 48.0°F8.9°C 43.8°F6.6°C 56% 1.0 mph WNW1.6 kmh WNW -- 29.40 in995.6 mb 0.07 in1.8 mm 0.00 in0.0 mm 3.52 in89.4 mm
12:28 AM 48.2°F9.0°C 43.9°F6.6°C 56% 1.0 mph SE1.6 kmh SE -- 29.40 in995.6 mb 0.07 in1.8 mm 0.00 in0.0 mm 3.52 in89.4 mm
12:29 AM 48.2°F9.0°C 43.8°F6.6°C 56% 1.0 mph NNE1.6 kmh NNE -- 29.40 in995.6 mb 0.07 in1.8 mm 0.00 in0.0 mm 3.52 in89.4 mm
12:30 AM 48.2°F9.0°C 43.8°F6.6°C 56% 1.0 mph N1.6 kmh N -- 29.41 in995.9 mb 0.07 in1.8 mm 0.00 in0.0 mm 3.52 in89.4 mm
12:31 AM 48.0°F8.9°C 43.9°F6.6°C 56% 1.0 mph N1.6 kmh N -- 29.41 in995.9 mb 0.08 in2.0 mm 0.60 in15.2 mm 3.53 in89.7 mm
12:32 AM 47.5°F8.6°C 43.8°F6.6°C 56% 1.0 mph ENE1.6 kmh ENE -- 29.41 in995.9 mb 0.08 in2.0 mm 0.00 in0.0 mm 3.53 in89.7 mm
12:33 AM 47.4°F8.6°C 43.8°F6.6°C 56% 1.0 mph NW1.6 kmh NW -- 29.42 in996.3 mb 0.09 in2.3 mm 0.60 in15.2 mm 3.54 in89.9 mm
12:34 AM 47.4°F8.6°C 43.8°F6.6°C 56% 1.0 mph NW1.6 kmh NW -- 29.42 in996.3 mb 0.09 in2.3 mm 0.00 in0.0 mm 3.54 in89.9 mm
12:35 AM 47.3°F8.5°C 43.9°F6.6°C 56% 1.0 mph WNW1.6 kmh WNW -- 29.41 in995.9 mb 0.09 in2.3 mm 0.00 in0.0 mm 3.54 in89.9 mm
12:36 AM 47.3°F8.5°C 43.8°F6.6°C 56% 1.0 mph NNE1.6 kmh NNE -- 29.41 in995.9 mb 0.09 in2.3 mm 0.00 in0.0 mm 3.55 in90.2 mm
12:37 AM 47.3°F8.5°C 43.9°F6.6°C 56% 2.0 mph NNW3.2 kmh NNW -- 29.41 in995.9 mb 0.09 in2.3 mm 0.00 in0.0 mm 3.55 in90.2 mm
12:38 AM 47.3°F8.5°C 43.8°F6.6°C 56% 2.0 mph WNW3.2 kmh WNW -- 29.41 in995.9 mb 0.09 in2.3 mm 0.00 in0.0 mm 3.55 in90.2 mm
12:39 AM 47.4°F8.6°C 43.8°F6.6°C 56% 2.0 mph NW3.2 kmh NW -- 29.42 in996.3 mb 0.09 in2.3 mm 0.00 in0.0 mm 3.55 in90.2 mm
12:40 AM 47.3°F8.5°C 43.9°F6.6°C 56% 2.0 mph NNW3.2 kmh NNW -- 29.42 in996.3 mb 0.09 in2.3 mm 0.00 in0.0 mm 3.55 in90.2 mm
12:41 AM 47.3°F8.5°C 43.9°F6.6°C 56% 2.0 mph NNW3.2 kmh NNW -- 29.42 in996.3 mb 0.09 in2.3 mm 0.00 in0.0 mm 3.55 in90.2 mm
12:42 AM 47.3°F8.5°C 43.9°F6.6°C 56% 2.0 mph NNW3.2 kmh NNW -- 29.42 in996.3 mb 0.08 in2.0 mm 0.00 in0.0 mm 3.55 in90.2 mm
12:43 AM 47.3°F8.5°C 43.9°F6.6°C 56% 1.0 mph NE1.6 kmh NE -- 29.42 in996.3 mb 0.07 in1.8 mm 0.00 in0.0 mm 3.55 in90.2 mm
12:44 AM 47.2°F8.4°C 43.9°F6.6°C 56% 1.0 mph NE1.6 kmh NE -- 29.42 in996.3 mb 0.06 in1.5 mm 0.00 in0.0 mm 3.55 in90.2 mm
12:45 AM 47.2°F8.4°C 43.9°F6.6°C 56% 2.0 mph NE3.2 kmh NE -- 29.42 in996.3 mb 0.06 in1.5 mm 0.00 in0.0 mm 3.55 in90.2 mm
12:46 AM 47.3°F8.5°C 43.8°F6.6°C 56% 2.0 mph NE3.2 kmh NE -- 29.43 in996.6 mb 0.06 in1.5 mm 0.00 in0.0 mm 3.55 in90.2 mm
12:47 AM 47.3°F8.5°C 43.9°F6.6°C 56% 2.0 mph NW3.2 kmh NW -- 29.42 in996.3 mb 0.06 in1.5 mm 0.00 in0.0 mm 3.55 in90.2 mm
12:48 AM 47.3°F8.5°C 43.8°F6.6°C 56% 2.0 mph N3.2 kmh N -- 29.42 in996.3 mb 0.07 in1.8 mm 0.60 in15.2 mm 3.56 in90.4 mm
12:49 AM 47.3°F8.5°C 43.9°F6.6°C 56% 2.0 mph NE3.2 kmh NE -- 29.43 in996.6 mb 0.07 in1.8 mm 0.00 in0.0 mm 3.56 in90.4 mm
12:50 AM 47.3°F8.5°C 43.9°F6.6°C 56% 2.0 mph SE3.2 kmh SE -- 29.43 in996.6 mb 0.07 in1.8 mm 0.00 in0.0 mm 3.56 in90.4 mm
12:51 AM 47.3°F8.5°C 43.8°F6.6°C 56% 2.0 mph NE3.2 kmh NE -- 29.43 in996.6 mb 0.07 in1.8 mm 0.00 in0.0 mm 3.56 in90.4 mm
12:52 AM 47.2°F8.4°C 43.9°F6.6°C 56% 2.0 mph E3.2 kmh E -- 29.43 in996.6 mb 0.07 in1.8 mm 0.00 in0.0 mm 3.56 in90.4 mm
12:53 AM 47.2°F8.4°C 43.9°F6.6°C 56% 3.0 mph W4.8 kmh W -- 29.43 in996.6 mb 0.07 in1.8 mm 0.00 in0.0 mm 3.56 in90.4 mm
12:54 AM 47.2°F8.4°C 43.8°F6.6°C 56% 3.0 mph WSW4.8 kmh WSW -- 29.43 in996.6 mb 0.07 in1.8 mm 0.00 in0.0 mm 3.56 in90.4 mm
12:55 AM 47.1°F8.4°C 43.8°F6.6°C 56% 3.0 mph NE4.8 kmh NE -- 29.43 in996.6 mb 0.07 in1.8 mm 0.00 in0.0 mm 3.56 in90.4 mm
12:56 AM 47.2°F8.4°C 43.9°F6.6°C 56% 3.0 mph S4.8 kmh S -- 29.43 in996.6 mb 0.06 in1.5 mm 0.00 in0.0 mm 3.56 in90.4 mm
12:57 AM 47.1°F8.4°C 43.9°F6.6°C 56% 2.0 mph WSW3.2 kmh WSW -- 29.43 in996.6 mb 0.06 in1.5 mm 0.00 in0.0 mm 3.56 in90.4 mm
12:58 AM 47.1°F8.4°C 43.9°F6.6°C 56% 2.0 mph NE3.2 kmh NE -- 29.44 in997.0 mb 0.07 in1.8 mm 0.60 in15.2 mm 3.57 in90.7 mm
12:59 AM 47.0°F8.3°C 43.9°F6.6°C 56% 2.0 mph N3.2 kmh N -- 29.44 in997.0 mb 0.07 in1.8 mm 0.00 in0.0 mm 3.57 in90.7 mm
01:01 AM 46.9°F8.3°C 43.9°F6.6°C 56% 2.0 mph NW3.2 kmh NW -- 29.44 in997.0 mb 0.07 in1.8 mm 0.00 in0.0 mm 3.57 in90.7 mm
01:02 AM 46.9°F8.3°C 43.8°F6.6°C 56% 2.0 mph WSW3.2 kmh WSW -- 29.44 in997.0 mb 0.08 in2.0 mm 0.60 in15.2 mm 3.58 in90.9 mm
01:03 AM 46.7°F8.2°C 43.9°F6.6°C 56% 2.0 mph NW3.2 kmh NW -- 29.44 in997.0 mb 0.08 in2.0 mm 0.00 in0.0 mm 3.58 in90.9 mm
01:04 AM 46.7°F8.2°C 43.9°F6.6°C 56% 2.0 mph ESE3.2 kmh ESE -- 29.43 in996.6 mb 0.08 in2.0 mm 0.00 in0.0 mm 3.58 in90.9 mm
01:05 AM 46.6°F8.1°C 43.9°F6.6°C 56% 2.0 mph N3.2 kmh N -- 29.44 in997.0 mb 0.08 in2.0 mm 0.00 in0.0 mm 3.58 in90.9 mm
01:06 AM 46.6°F8.1°C 43.9°F6.6°C 56% 2.0 mph NW3.2 kmh NW -- 29.44 in997.0 mb 0.08 in2.0 mm 0.00 in0.0 mm 3.58 in90.9 mm
01:07 AM 46.6°F8.1°C 43.9°F6.6°C 56% 2.0 mph WNW3.2 kmh WNW -- 29.44 in997.0 mb 0.08 in2.0 mm 0.00 in0.0 mm 3.58 in90.9 mm
01:08 AM 46.6°F8.1°C 43.9°F6.6°C 56% 2.0 mph ENE3.2 kmh ENE -- 29.43 in996.6 mb 0.08 in2.0 mm 0.00 in0.0 mm 3.58 in90.9 mm
01:09 AM 46.5°F8.1°C 43.9°F6.6°C 56% 2.0 mph N3.2 kmh N -- 29.43 in996.6 mb 0.08 in2.0 mm 0.00 in0.0 mm 3.58 in90.9 mm
01:10 AM 46.5°F8.1°C 43.9°F6.6°C 56% 2.0 mph WNW3.2 kmh WNW -- 29.43 in996.6 mb 0.09 in2.3 mm 0.60 in15.2 mm 3.59 in91.2 mm
01:11 AM 46.5°F8.1°C 43.9°F6.6°C 56% 2.0 mph WNW3.2 kmh WNW -- 29.44 in997.0 mb 0.09 in2.3 mm 0.00 in0.0 mm 3.59 in91.2 mm
01:12 AM 46.5°F8.1°C 43.9°F6.6°C 56% 2.0 mph NE3.2 kmh NE -- 29.44 in997.0 mb 0.09 in2.3 mm 0.00 in0.0 mm 3.59 in91.2 mm
01:13 AM 46.4°F8.0°C 43.9°F6.6°C 56% 2.0 mph NE3.2 kmh NE -- 29.44 in997.0 mb 0.09 in2.3 mm 0.00 in0.0 mm 3.59 in91.2 mm
01:14 AM 46.5°F8.1°C 43.9°F6.6°C 56% 2.0 mph E3.2 kmh E -- 29.44 in997.0 mb 0.09 in2.3 mm 0.00 in0.0 mm 3.59 in91.2 mm
01:15 AM 46.4°F8.0°C 43.9°F6.6°C 56% 2.0 mph WSW3.2 kmh WSW -- 29.44 in997.0 mb 0.08 in2.0 mm 0.00 in0.0 mm 3.59 in91.2 mm
01:16 AM 46.5°F8.1°C 43.9°F6.6°C 56% 2.0 mph E3.2 kmh E -- 29.44 in997.0 mb 0.08 in2.0 mm 0.00 in0.0 mm 3.59 in91.2 mm
01:17 AM 46.5°F8.1°C 43.9°F6.6°C 56% 2.0 mph NW3.2 kmh NW -- 29.43 in996.6 mb 0.08 in2.0 mm 0.00 in0.0 mm 3.59 in91.2 mm
01:18 AM 46.5°F8.1°C 43.9°F6.6°C 56% 2.0 mph NNE3.2 kmh NNE -- 29.44 in997.0 mb 0.08 in2.0 mm 0.00 in0.0 mm 3.59 in91.2 mm
01:19 AM 46.5°F8.1°C 43.9°F6.6°C 56% 2.0 mph SE3.2 kmh SE -- 29.43 in996.6 mb 0.08 in2.0 mm 0.00 in0.0 mm 3.59 in91.2 mm
01:20 AM 46.5°F8.1°C 43.9°F6.6°C 56% 2.0 mph SE3.2 kmh SE -- 29.44 in997.0 mb 0.08 in2.0 mm 0.00 in0.0 mm 3.59 in91.2 mm
01:21 AM 46.5°F8.1°C 43.9°F6.6°C 56% 2.0 mph NNE3.2 kmh NNE -- 29.43 in996.6 mb 0.07 in1.8 mm 0.00 in0.0 mm 3.59 in91.2 mm
01:22 AM 46.4°F8.0°C 43.8°F6.6°C 56% 2.0 mph ENE3.2 kmh ENE -- 29.43 in996.6 mb 0.07 in1.8 mm 0.00 in0.0 mm 3.59 in91.2 mm
01:23 AM 46.4°F8.0°C 43.8°F6.6°C 56% 2.0 mph N3.2 kmh N -- 29.43 in996.6 mb 0.07 in1.8 mm 0.00 in0.0 mm 3.59 in91.2 mm
01:24 AM 46.5°F8.1°C 43.9°F6.6°C 56% 2.0 mph NNE3.2 kmh NNE -- 29.43 in996.6 mb 0.07 in1.8 mm 0.00 in0.0 mm 3.59 in91.2 mm
01:25 AM 46.4°F8.0°C 43.8°F6.6°C 56% 2.0 mph WSW3.2 kmh WSW -- 29.43 in996.6 mb 0.07 in1.8 mm 0.00 in0.0 mm 3.59 in91.2 mm
01:26 AM 46.4°F8.0°C 43.8°F6.6°C 56% 2.0 mph S3.2 kmh S -- 29.43 in996.6 mb 0.07 in1.8 mm 0.00 in0.0 mm 3.59 in91.2 mm
01:27 AM 46.3°F7.9°C 43.8°F6.6°C 56% 2.0 mph NNW3.2 kmh NNW -- 29.43 in996.6 mb 0.07 in1.8 mm 0.00 in0.0 mm 3.59 in91.2 mm
01:28 AM 46.4°F8.0°C 43.9°F6.6°C 56% 2.0 mph N3.2 kmh N -- 29.43 in996.6 mb 0.07 in1.8 mm 0.00 in0.0 mm 3.59 in91.2 mm
01:29 AM 46.5°F8.1°C 43.8°F6.6°C 56% 2.0 mph SSW3.2 kmh SSW -- 29.43 in996.6 mb 0.07 in1.8 mm 0.00 in0.0 mm 3.59 in91.2 mm
01:30 AM 46.4°F8.0°C 43.9°F6.6°C 56% 2.0 mph NE3.2 kmh NE -- 29.43 in996.6 mb 0.07 in1.8 mm 0.00 in0.0 mm 3.59 in91.2 mm
01:31 AM 46.4°F8.0°C 43.8°F6.6°C 56% 2.0 mph WSW3.2 kmh WSW -- 29.43 in996.6 mb 0.06 in1.5 mm 0.00 in0.0 mm 3.59 in91.2 mm
01:32 AM 46.5°F8.1°C 43.8°F6.6°C 56% 3.0 mph WNW4.8 kmh WNW -- 29.43 in996.6 mb 0.06 in1.5 mm 0.00 in0.0 mm 3.59 in91.2 mm
01:33 AM 46.4°F8.0°C 43.8°F6.6°C 56% 2.0 mph NNE3.2 kmh NNE -- 29.43 in996.6 mb 0.05 in1.3 mm 0.00 in0.0 mm 3.59 in91.2 mm
01:34 AM 46.4°F8.0°C 43.8°F6.6°C 56% 2.0 mph N3.2 kmh N -- 29.43 in996.6 mb 0.05 in1.3 mm 0.00 in0.0 mm 3.59 in91.2 mm
01:35 AM 46.3°F7.9°C 43.8°F6.6°C 56% 2.0 mph ENE3.2 kmh ENE -- 29.43 in996.6 mb 0.05 in1.3 mm 0.00 in0.0 mm 3.59 in91.2 mm
01:36 AM 46.5°F8.1°C 43.8°F6.6°C 56% 2.0 mph NE3.2 kmh NE -- 29.42 in996.3 mb 0.04 in1.0 mm 0.00 in0.0 mm 3.59 in91.2 mm
01:37 AM 46.4°F8.0°C 43.8°F6.6°C 56% 2.0 mph N3.2 kmh N -- 29.42 in996.3 mb 0.04 in1.0 mm 0.00 in0.0 mm 3.59 in91.2 mm
01:38 AM 46.5°F8.1°C 43.8°F6.6°C 56% 2.0 mph E3.2 kmh E -- 29.43 in996.6 mb 0.04 in1.0 mm 0.00 in0.0 mm 3.59 in91.2 mm
01:39 AM 46.5°F8.1°C 43.8°F6.6°C 56% 2.0 mph SE3.2 kmh SE -- 29.42 in996.3 mb 0.04 in1.0 mm 0.00 in0.0 mm 3.59 in91.2 mm
01:40 AM 46.5°F8.1°C 43.8°F6.6°C 56% 2.0 mph ESE3.2 kmh ESE -- 29.43 in996.6 mb 0.04 in1.0 mm 0.00 in0.0 mm 3.59 in91.2 mm
01:41 AM 46.4°F8.0°C 43.8°F6.6°C 56% 2.0 mph WSW3.2 kmh WSW -- 29.43 in996.6 mb 0.04 in1.0 mm 0.00 in0.0 mm 3.59 in91.2 mm
01:42 AM 46.3°F7.9°C 43.8°F6.6°C 56% 2.0 mph NW3.2 kmh NW -- 29.43 in996.6 mb 0.04 in1.0 mm 0.00 in0.0 mm 3.59 in91.2 mm
01:43 AM 46.3°F7.9°C 43.8°F6.6°C 56% 2.0 mph SW3.2 kmh SW -- 29.43 in996.6 mb 0.04 in1.0 mm 0.00 in0.0 mm 3.59 in91.2 mm
01:44 AM 46.4°F8.0°C 43.8°F6.6°C 56% 2.0 mph ESE3.2 kmh ESE -- 29.42 in996.3 mb 0.04 in1.0 mm 0.00 in0.0 mm 3.59 in91.2 mm
01:45 AM 46.4°F8.0°C 43.8°F6.6°C 56% 2.0 mph ESE3.2 kmh ESE -- 29.43 in996.6 mb 0.04 in1.0 mm 0.00 in0.0 mm 3.59 in91.2 mm
01:46 AM 46.5°F8.1°C 43.8°F6.6°C 56% 2.0 mph SE3.2 kmh SE -- 29.43 in996.6 mb 0.04 in1.0 mm 0.00 in0.0 mm 3.59 in91.2 mm
01:47 AM 46.4°F8.0°C 43.8°F6.6°C 56% 2.0 mph NW3.2 kmh NW -- 29.43 in996.6 mb 0.04 in1.0 mm 0.00 in0.0 mm 3.59 in91.2 mm
01:48 AM 46.5°F8.1°C 43.8°F6.6°C 56% 2.0 mph E3.2 kmh E -- 29.43 in996.6 mb 0.03 in0.8 mm 0.00 in0.0 mm 3.59 in91.2 mm
01:49 AM 46.5°F8.1°C 43.8°F6.6°C 56% 2.0 mph E3.2 kmh E -- 29.43 in996.6 mb 0.03 in0.8 mm 0.00 in0.0 mm 3.59 in91.2 mm
01:50 AM 46.4°F8.0°C 43.8°F6.6°C 56% 2.0 mph ESE3.2 kmh ESE -- 29.43 in996.6 mb 0.03 in0.8 mm 0.00 in0.0 mm 3.59 in91.2 mm
01:51 AM 46.4°F8.0°C 43.8°F6.6°C 56% 2.0 mph ESE3.2 kmh ESE -- 29.43 in996.6 mb 0.03 in0.8 mm 0.00 in0.0 mm 3.59 in91.2 mm
01:52 AM 46.4°F8.0°C 43.8°F6.6°C 56% 2.0 mph WSW3.2 kmh WSW -- 29.43 in996.6 mb 0.03 in0.8 mm 0.00 in0.0 mm 3.59 in91.2 mm
01:53 AM 46.3°F7.9°C 43.8°F6.6°C 56% 2.0 mph NW3.2 kmh NW -- 29.43 in996.6 mb 0.03 in0.8 mm 0.00 in0.0 mm 3.59 in91.2 mm
01:54 AM 46.4°F8.0°C 43.8°F6.6°C 56% 2.0 mph ENE3.2 kmh ENE -- 29.43 in996.6 mb 0.03 in0.8 mm 0.00 in0.0 mm 3.59 in91.2 mm
01:55 AM 46.3°F7.9°C 43.8°F6.6°C 56% 1.0 mph N1.6 kmh N -- 29.43 in996.6 mb 0.03 in0.8 mm 0.00 in0.0 mm 3.59 in91.2 mm
01:56 AM 46.3°F7.9°C 43.8°F6.6°C 56% 1.0 mph S1.6 kmh S -- 29.44 in997.0 mb 0.03 in0.8 mm 0.00 in0.0 mm 3.59 in91.2 mm
01:57 AM 46.4°F8.0°C 43.8°F6.6°C 56% 1.0 mph W1.6 kmh W -- 29.44 in997.0 mb 0.03 in0.8 mm 0.00 in0.0 mm 3.59 in91.2 mm
01:58 AM 46.4°F8.0°C 43.8°F6.6°C 56% 1.0 mph ESE1.6 kmh ESE -- 29.43 in996.6 mb 0.02 in0.5 mm 0.00 in0.0 mm 3.59 in91.2 mm
01:59 AM 46.4°F8.0°C 43.8°F6.6°C 56% 1.0 mph SSW1.6 kmh SSW -- 29.43 in996.6 mb 0.02 in0.5 mm 0.00 in0.0 mm 3.59 in91.2 mm
02:01 AM 46.4°F8.0°C 43.8°F6.6°C 56% 1.0 mph SE1.6 kmh SE -- 29.43 in996.6 mb 0.02 in0.5 mm 0.00 in0.0 mm 3.59 in91.2 mm
02:02 AM 46.4°F8.0°C 43.8°F6.6°C 56% 2.0 mph SE3.2 kmh SE -- 29.43 in996.6 mb 0.01 in0.3 mm 0.00 in0.0 mm 3.59 in91.2 mm
02:03 AM 46.3°F7.9°C 43.8°F6.6°C 56% 2.0 mph S3.2 kmh S -- 29.43 in996.6 mb 0.01 in0.3 mm 0.00 in0.0 mm 3.59 in91.2 mm
02:04 AM 46.3°F7.9°C 43.8°F6.6°C 56% 1.0 mph SSE1.6 kmh SSE -- 29.43 in996.6 mb 0.01 in0.3 mm 0.00 in0.0 mm 3.59 in91.2 mm
02:05 AM 46.3°F7.9°C 43.8°F6.6°C 56% 1.0 mph SSE1.6 kmh SSE -- 29.43 in996.6 mb 0.01 in0.3 mm 0.00 in0.0 mm 3.59 in91.2 mm
02:06 AM 46.2°F7.9°C 43.8°F6.6°C 56% 2.0 mph E3.2 kmh E -- 29.43 in996.6 mb 0.01 in0.3 mm 0.00 in0.0 mm 3.59 in91.2 mm
02:07 AM 46.2°F7.9°C 43.8°F6.6°C 56% 2.0 mph SE3.2 kmh SE -- 29.44 in997.0 mb 0.01 in0.3 mm 0.00 in0.0 mm 3.59 in91.2 mm
02:08 AM 46.2°F7.9°C 43.8°F6.6°C 56% 2.0 mph ESE3.2 kmh ESE -- 29.43 in996.6 mb 0.01 in0.3 mm 0.00 in0.0 mm 3.59 in91.2 mm
02:09 AM 46.2°F7.9°C 43.8°F6.6°C 56% 2.0 mph SW3.2 kmh SW -- 29.43 in996.6 mb 0.01 in0.3 mm 0.00 in0.0 mm 3.59 in91.2 mm
02:10 AM 46.2°F7.9°C 43.8°F6.6°C 56% 1.0 mph SE1.6 kmh SE -- 29.43 in996.6 mb 0.00 in0.0 mm 0.00 in0.0 mm 3.59 in91.2 mm
02:11 AM 46.2°F7.9°C 43.8°F6.6°C 56% 2.0 mph ENE3.2 kmh ENE -- 29.43 in996.6 mb 0.00 in0.0 mm 0.00 in0.0 mm 3.59 in91.2 mm
02:12 AM 46.1°F7.8°C 43.8°F6.6°C 56% 2.0 mph NNW3.2 kmh NNW -- 29.43 in996.6 mb 0.00 in0.0 mm 0.00 in0.0 mm 3.59 in91.2 mm
02:13 AM 46.2°F7.9°C 43.8°F6.6°C 56% 2.0 mph E3.2 kmh E -- 29.43 in996.6 mb 0.00 in0.0 mm 0.00 in0.0 mm 3.59 in91.2 mm
02:14 AM 46.2°F7.9°C 43.8°F6.6°C 56% 2.0 mph ESE3.2 kmh ESE -- 29.43 in996.6 mb 0.00 in0.0 mm 0.00 in0.0 mm 3.59 in91.2 mm
02:15 AM 46.2°F7.9°C 43.8°F6.6°C 56% 2.0 mph SE3.2 kmh SE -- 29.42 in996.3 mb 0.00 in0.0 mm 0.00 in0.0 mm 3.59 in91.2 mm
02:16 AM 46.3°F7.9°C 43.8°F6.6°C 56% 2.0 mph SE3.2 kmh SE -- 29.43 in996.6 mb 0.00 in0.0 mm 0.00 in0.0 mm 3.59 in91.2 mm
02:17 AM 46.2°F7.9°C 43.8°F6.6°C 56% 2.0 mph E3.2 kmh E -- 29.43 in996.6 mb 0.00 in0.0 mm 0.00 in0.0 mm 3.59 in91.2 mm
02:18 AM 46.2°F7.9°C 43.8°F6.6°C 56% 2.0 mph SW3.2 kmh SW -- 29.43 in996.6 mb 0.00 in0.0 mm 0.00 in0.0 mm 3.59 in91.2 mm
02:19 AM 46.3°F7.9°C 43.7°F6.5°C 56% 2.0 mph S3.2 kmh S -- 29.43 in996.6 mb 0.00 in0.0 mm 0.00 in0.0 mm 3.59 in91.2 mm
02:20 AM 46.3°F7.9°C 43.7°F6.5°C 56% 2.0 mph SSE3.2 kmh SSE -- 29.43 in996.6 mb 0.00 in0.0 mm 0.00 in0.0 mm 3.59 in91.2 mm
02:21 AM 46.3°F7.9°C 43.8°F6.6°C 56% 2.0 mph SW3.2 kmh SW -- 29.43 in996.6 mb 0.00 in0.0 mm 0.00 in0.0 mm 3.59 in91.2 mm
02:22 AM 46.3°F7.9°C 43.8°F6.6°C 56% 2.0 mph E3.2 kmh E -- 29.42 in996.3 mb 0.00 in0.0 mm 0.00 in0.0 mm 3.59 in91.2 mm
02:23 AM 46.3°F7.9°C 43.7°F6.5°C 56% 2.0 mph E3.2 kmh E -- 29.42 in996.3 mb 0.00 in0.0 mm 0.00 in0.0 mm 3.59 in91.2 mm
02:24 AM 46.3°F7.9°C 43.8°F6.6°C 56% 2.0 mph S3.2 kmh S -- 29.43 in996.6 mb 0.00 in0.0 mm 0.00 in0.0 mm 3.59 in91.2 mm
02:25 AM 46.3°F7.9°C 43.7°F6.5°C 56% 2.0 mph E3.2 kmh E -- 29.43 in996.6 mb 0.00 in0.0 mm 0.00 in0.0 mm 3.59 in91.2 mm
02:26 AM 46.3°F7.9°C 43.7°F6.5°C 56% 2.0 mph ESE3.2 kmh ESE -- 29.43 in996.6 mb 0.00 in0.0 mm 0.00 in0.0 mm 3.59 in91.2 mm
02:27 AM 46.4°F8.0°C 43.7°F6.5°C 56% 2.0 mph ESE3.2 kmh ESE -- 29.43 in996.6 mb 0.00 in0.0 mm 0.00 in0.0 mm 3.59 in91.2 mm
02:28 AM 46.3°F7.9°C 43.7°F6.5°C 56% 2.0 mph ESE3.2 kmh ESE -- 29.43 in996.6 mb 0.00 in0.0 mm 0.00 in0.0 mm 3.59 in91.2 mm
02:29 AM 46.3°F7.9°C 43.8°F6.6°C 56% 2.0 mph SSE3.2 kmh SSE -- 29.43 in996.6 mb 0.00 in0.0 mm 0.00 in0.0 mm 3.59 in91.2 mm
02:30 AM 46.2°F7.9°C 43.7°F6.5°C 56% 2.0 mph WSW3.2 kmh WSW -- 29.43 in996.6 mb 0.00 in0.0 mm 0.00 in0.0 mm 3.59 in91.2 mm
02:31 AM 46.2°F7.9°C 43.7°F6.5°C 56% 1.0 mph SSE1.6 kmh SSE -- 29.43 in996.6 mb 0.00 in0.0 mm 0.00 in0.0 mm 3.59 in91.2 mm
02:32 AM 46.3°F7.9°C 43.7°F6.5°C 56% 1.0 mph NNW1.6 kmh NNW -- 29.43 in996.6 mb 0.00 in0.0 mm 0.00 in0.0 mm 3.59 in91.2 mm
02:33 AM 46.3°F7.9°C 43.7°F6.5°C 56% 1.0 mph N1.6 kmh N -- 29.43 in996.6 mb 0.00 in0.0 mm 0.00 in0.0 mm 3.59 in91.2 mm
02:34 AM 46.5°F8.1°C 43.7°F6.5°C 56% 2.0 mph NE3.2 kmh NE -- 29.43 in996.6 mb 0.00 in0.0 mm 0.00 in0.0 mm 3.59 in91.2 mm
02:35 AM 46.5°F8.1°C 43.7°F6.5°C 56% 2.0 mph NW3.2 kmh NW -- 29.43 in996.6 mb 0.00 in0.0 mm 0.00 in0.0 mm 3.59 in91.2 mm
02:36 AM 46.7°F8.2°C 43.7°F6.5°C 56% 2.0 mph WSW3.2 kmh WSW -- 29.43 in996.6 mb 0.00 in0.0 mm 0.00 in0.0 mm 3.59 in91.2 mm
02:37 AM 46.7°F8.2°C 43.7°F6.5°C 56% 2.0 mph ESE3.2 kmh ESE -- 29.43 in996.6 mb 0.00 in0.0 mm 0.00 in0.0 mm 3.59 in91.2 mm
02:38 AM 46.6°F8.1°C 43.7°F6.5°C 56% 2.0 mph ESE3.2 kmh ESE -- 29.43 in996.6 mb 0.00 in0.0 mm 0.00 in0.0 mm 3.59 in91.2 mm
02:39 AM 46.5°F8.1°C 43.7°F6.5°C 56% 2.0 mph ENE3.2 kmh ENE -- 29.43 in996.6 mb 0.00 in0.0 mm 0.00 in0.0 mm 3.59 in91.2 mm
02:40 AM 46.5°F8.1°C 43.7°F6.5°C 56% 2.0 mph SSW3.2 kmh SSW -- 29.43 in996.6 mb 0.00 in0.0 mm 0.00 in0.0 mm 3.59 in91.2 mm
02:41 AM 46.5°F8.1°C 43.7°F6.5°C 56% 2.0 mph NW3.2 kmh NW -- 29.43 in996.6 mb 0.00 in0.0 mm 0.00 in0.0 mm 3.59 in91.2 mm
02:42 AM 46.4°F8.0°C 43.7°F6.5°C 56% 2.0 mph E3.2 kmh E -- 29.43 in996.6 mb 0.00 in0.0 mm 0.00 in0.0 mm 3.59 in91.2 mm
02:43 AM 46.6°F8.1°C 43.7°F6.5°C 56% 2.0 mph ENE3.2 kmh ENE -- 29.43 in996.6 mb 0.00 in0.0 mm 0.00 in0.0 mm 3.59 in91.2 mm
02:44 AM 46.6°F8.1°C 43.7°F6.5°C 56% 2.0 mph ESE3.2 kmh ESE -- 29.43 in996.6 mb 0.00 in0.0 mm 0.00 in0.0 mm 3.59 in91.2 mm
02:45 AM 46.6°F8.1°C 43.7°F6.5°C 56% 1.0 mph E1.6 kmh E -- 29.43 in996.6 mb 0.00 in0.0 mm 0.00 in0.0 mm 3.59 in91.2 mm
02:46 AM 46.6°F8.1°C 43.7°F6.5°C 56% 1.0 mph ENE1.6 kmh ENE -- 29.43 in996.6 mb 0.00 in0.0 mm 0.00 in0.0 mm 3.59 in91.2 mm
02:47 AM 46.5°F8.1°C 43.7°F6.5°C 56% 1.0 mph ENE1.6 kmh ENE -- 29.44 in997.0 mb 0.00 in0.0 mm 0.00 in0.0 mm 3.59 in91.2 mm
02:48 AM 46.6°F8.1°C 43.7°F6.5°C 56% 1.0 mph SE1.6 kmh SE -- 29.44 in997.0 mb 0.00 in0.0 mm 0.00 in0.0 mm 3.59 in91.2 mm
02:49 AM 46.4°F8.0°C 43.7°F6.5°C 56% 1.0 mph NW1.6 kmh NW -- 29.44 in997.0 mb 0.00 in0.0 mm 0.00 in0.0 mm 3.59 in91.2 mm
02:50 AM 46.6°F8.1°C 43.7°F6.5°C 56% 1.0 mph E1.6 kmh E -- 29.44 in997.0 mb 0.00 in0.0 mm 0.00 in0.0 mm 3.59 in91.2 mm
02:51 AM 46.5°F8.1°C 43.7°F6.5°C 56% 1.0 mph NW1.6 kmh NW -- 29.44 in997.0 mb 0.00 in0.0 mm 0.00 in0.0 mm 3.59 in91.2 mm
02:52 AM 46.6°F8.1°C 43.7°F6.5°C 56% 1.0 mph N1.6 kmh N -- 29.44 in997.0 mb 0.00 in0.0 mm 0.00 in0.0 mm 3.59 in91.2 mm
02:53 AM 46.7°F8.2°C 43.7°F6.5°C 56% 1.0 mph SW1.6 kmh SW -- 29.44 in997.0 mb 0.00 in0.0 mm 0.00 in0.0 mm 3.59 in91.2 mm
02:54 AM 46.7°F8.2°C 43.7°F6.5°C 56% 1.0 mph ESE1.6 kmh ESE -- 29.44 in997.0 mb 0.00 in0.0 mm 0.00 in0.0 mm 3.59 in91.2 mm
02:55 AM 46.7°F8.2°C 43.7°F6.5°C 56% 1.0 mph SE1.6 kmh SE -- 29.44 in997.0 mb 0.00 in0.0 mm 0.00 in0.0 mm 3.59 in91.2 mm
02:56 AM 46.7°F8.2°C 43.7°F6.5°C 56% 1.0 mph E1.6 kmh E -- 29.44 in997.0 mb 0.00 in0.0 mm 0.00 in0.0 mm 3.59 in91.2 mm
02:57 AM 46.7°F8.2°C 43.7°F6.5°C 56% 1.0 mph N1.6 kmh N -- 29.44 in997.0 mb 0.00 in0.0 mm 0.00 in0.0 mm 3.59 in91.2 mm
02:58 AM 46.7°F8.2°C 43.7°F6.5°C 56% 1.0 mph ESE1.6 kmh ESE -- 29.44 in997.0 mb 0.00 in0.0 mm 0.00 in0.0 mm 3.59 in91.2 mm
02:59 AM 46.7°F8.2°C 43.7°F6.5°C 56% 1.0 mph ESE1.6 kmh ESE -- 29.44 in997.0 mb 0.00 in0.0 mm 0.00 in0.0 mm 3.59 in91.2 mm
03:01 AM 46.7°F8.2°C 43.7°F6.5°C 56% 1.0 mph NE1.6 kmh NE -- 29.45 in997.3 mb 0.00 in0.0 mm 0.00 in0.0 mm 3.59 in91.2 mm
03:02 AM 46.7°F8.2°C 43.6°F6.4°C 56% 1.0 mph NW1.6 kmh NW -- 29.44 in997.0 mb 0.00 in0.0 mm 0.00 in0.0 mm 3.59 in91.2 mm
03:03 AM 46.7°F8.2°C 43.6°F6.4°C 56% 1.0 mph S1.6 kmh S -- 29.45 in997.3 mb 0.00 in0.0 mm 0.00 in0.0 mm 3.59 in91.2 mm
03:04 AM 46.9°F8.3°C 43.6°F6.4°C 56% 2.0 mph NW3.2 kmh NW -- 29.44 in997.0 mb 0.00 in0.0 mm 0.00 in0.0 mm 3.59 in91.2 mm
03:05 AM 47.1°F8.4°C 43.6°F6.4°C 56% 2.0 mph S3.2 kmh S -- 29.45 in997.3 mb 0.00 in0.0 mm 0.00 in0.0 mm 3.59 in91.2 mm
03:06 AM 47.0°F8.3°C 43.6°F6.4°C 56% 2.0 mph E3.2 kmh E -- 29.45 in997.3 mb 0.00 in0.0 mm 0.00 in0.0 mm 3.59 in91.2 mm
03:07 AM 46.9°F8.3°C 43.7°F6.5°C 56% 2.0 mph ENE3.2 kmh ENE -- 29.45 in997.3 mb 0.00 in0.0 mm 0.00 in0.0 mm 3.59 in91.2 mm
03:08 AM 46.7°F8.2°C 43.6°F6.4°C 56% 2.0 mph E3.2 kmh E -- 29.44 in997.0 mb 0.00 in0.0 mm 0.00 in0.0 mm 3.59 in91.2 mm
03:09 AM 46.7°F8.2°C 43.6°F6.4°C 56% 2.0 mph NNW3.2 kmh NNW -- 29.45 in997.3 mb 0.00 in0.0 mm 0.00 in0.0 mm 3.59 in91.2 mm
03:10 AM 46.7°F8.2°C 43.6°F6.4°C 56% 2.0 mph E3.2 kmh E -- 29.45 in997.3 mb 0.00 in0.0 mm 0.00 in0.0 mm 3.59 in91.2 mm
03:11 AM 46.9°F8.3°C 43.6°F6.4°C 56% 2.0 mph NW3.2 kmh NW -- 29.45 in997.3 mb 0.00 in0.0 mm 0.00 in0.0 mm 3.59 in91.2 mm
03:12 AM 46.9°F8.3°C 43.6°F6.4°C 56% 2.0 mph ENE3.2 kmh ENE -- 29.45 in997.3 mb 0.00 in0.0 mm 0.00 in0.0 mm 3.59 in91.2 mm
03:13 AM 47.0°F8.3°C 43.6°F6.4°C 56% 2.0 mph NNW3.2 kmh NNW -- 29.45 in997.3 mb 0.00 in0.0 mm 0.00 in0.0 mm 3.59 in91.2 mm
03:14 AM 47.2°F8.4°C 43.6°F6.4°C 56% 2.0 mph SSE3.2 kmh SSE -- 29.45 in997.3 mb 0.00 in0.0 mm 0.00 in0.0 mm 3.59 in91.2 mm
03:15 AM 47.1°F8.4°C 43.6°F6.4°C 56% 2.0 mph ESE3.2 kmh ESE -- 29.45 in997.3 mb 0.00 in0.0 mm 0.00 in0.0 mm 3.59 in91.2 mm
03:16 AM 46.9°F8.3°C 43.6°F6.4°C 56% 2.0 mph W3.2 kmh W -- 29.45 in997.3 mb 0.00 in0.0 mm 0.00 in0.0 mm 3.59 in91.2 mm
03:17 AM 47.0°F8.3°C 43.6°F6.4°C 56% 2.0 mph NNE3.2 kmh NNE -- 29.45 in997.3 mb 0.00 in0.0 mm 0.00 in0.0 mm 3.59 in91.2 mm
03:18 AM 46.9°F8.3°C 43.6°F6.4°C 56% 2.0 mph S3.2 kmh S -- 29.45 in997.3 mb 0.00 in0.0 mm 0.00 in0.0 mm 3.59 in91.2 mm
03:19 AM 46.7°F8.2°C 43.6°F6.4°C 56% 2.0 mph N3.2 kmh N -- 29.45 in997.3 mb 0.00 in0.0 mm 0.00 in0.0 mm 3.59 in91.2 mm
03:20 AM 46.7°F8.2°C 43.6°F6.4°C 56% 2.0 mph NW3.2 kmh NW -- 29.45 in997.3 mb 0.00 in0.0 mm 0.00 in0.0 mm 3.59 in91.2 mm
03:21 AM 46.9°F8.3°C 43.6°F6.4°C 56% 2.0 mph NW3.2 kmh NW -- 29.45 in997.3 mb 0.00 in0.0 mm 0.00 in0.0 mm 3.59 in91.2 mm
03:22 AM 47.0°F8.3°C 43.6°F6.4°C 56% 1.0 mph NW1.6 kmh NW -- 29.45 in997.3 mb 0.01 in0.3 mm 0.60 in15.2 mm 3.60 in91.4 mm
03:23 AM 46.9°F8.3°C 43.6°F6.4°C 56% 1.0 mph NW1.6 kmh NW -- 29.45 in997.3 mb 0.01 in0.3 mm 0.00 in0.0 mm 3.60 in91.4 mm
03:24 AM 47.1°F8.4°C 43.6°F6.4°C 56% 1.0 mph SSE1.6 kmh SSE -- 29.45 in997.3 mb 0.01 in0.3 mm 0.00 in0.0 mm 3.60 in91.4 mm
03:25 AM 47.0°F8.3°C 43.6°F6.4°C 56% 1.0 mph WNW1.6 kmh WNW -- 29.45 in997.3 mb 0.01 in0.3 mm 0.00 in0.0 mm 3.60 in91.4 mm
03:26 AM 47.0°F8.3°C 43.6°F6.4°C 56% 1.0 mph WNW1.6 kmh WNW -- 29.45 in997.3 mb 0.01 in0.3 mm 0.00 in0.0 mm 3.60 in91.4 mm
03:27 AM 47.0°F8.3°C 43.6°F6.4°C 56% 1.0 mph NE1.6 kmh NE -- 29.45 in997.3 mb 0.01 in0.3 mm 0.00 in0.0 mm 3.60 in91.4 mm
03:28 AM 47.0°F8.3°C 43.6°F6.4°C 56% 1.0 mph ENE1.6 kmh ENE -- 29.45 in997.3 mb 0.01 in0.3 mm 0.00 in0.0 mm 3.60 in91.4 mm
03:29 AM 46.9°F8.3°C 43.6°F6.4°C 56% 1.0 mph ESE1.6 kmh ESE -- 29.45 in997.3 mb 0.01 in0.3 mm 0.00 in0.0 mm 3.60 in91.4 mm
03:30 AM 46.7°F8.2°C 43.6°F6.4°C 56% 1.0 mph N1.6 kmh N -- 29.45 in997.3 mb 0.01 in0.3 mm 0.00 in0.0 mm 3.60 in91.4 mm
03:31 AM 47.0°F8.3°C 43.6°F6.4°C 56% 1.0 mph SE1.6 kmh SE -- 29.45 in997.3 mb 0.01 in0.3 mm 0.00 in0.0 mm 3.60 in91.4 mm
03:32 AM 47.0°F8.3°C 43.6°F6.4°C 56% 1.0 mph SE1.6 kmh SE -- 29.45 in997.3 mb 0.01 in0.3 mm 0.00 in0.0 mm 3.60 in91.4 mm
03:33 AM 46.9°F8.3°C 43.6°F6.4°C 56% 2.0 mph NNE3.2 kmh NNE -- 29.45 in997.3 mb 0.01 in0.3 mm 0.00 in0.0 mm 3.60 in91.4 mm
03:34 AM 46.7°F8.2°C 43.5°F6.4°C 56% 2.0 mph SE3.2 kmh SE -- 29.45 in997.3 mb 0.01 in0.3 mm 0.00 in0.0 mm 3.60 in91.4 mm
03:35 AM 46.6°F8.1°C 43.5°F6.4°C 56% 2.0 mph N3.2 kmh N -- 29.45 in997.3 mb 0.01 in0.3 mm 0.00 in0.0 mm 3.60 in91.4 mm
03:36 AM 46.5°F8.1°C 43.6°F6.4°C 56% 2.0 mph S3.2 kmh S -- 29.44 in997.0 mb 0.01 in0.3 mm 0.00 in0.0 mm 3.60 in91.4 mm
03:37 AM 46.4°F8.0°C 43.5°F6.4°C 56% 2.0 mph ESE3.2 kmh ESE -- 29.45 in997.3 mb 0.01 in0.3 mm 0.00 in0.0 mm 3.60 in91.4 mm
03:38 AM 46.3°F7.9°C 43.6°F6.4°C 56% 2.0 mph SSE3.2 kmh SSE -- 29.44 in997.0 mb 0.01 in0.3 mm 0.00 in0.0 mm 3.60 in91.4 mm
03:39 AM 46.3°F7.9°C 43.5°F6.4°C 56% 2.0 mph ENE3.2 kmh ENE -- 29.45 in997.3 mb 0.01 in0.3 mm 0.00 in0.0 mm 3.60 in91.4 mm
03:40 AM 46.3°F7.9°C 43.5°F6.4°C 56% 2.0 mph E3.2 kmh E -- 29.44 in997.0 mb 0.01 in0.3 mm 0.00 in0.0 mm 3.60 in91.4 mm
03:41 AM 46.3°F7.9°C 43.5°F6.4°C 56% 2.0 mph W3.2 kmh W -- 29.44 in997.0 mb 0.01 in0.3 mm 0.00 in0.0 mm 3.60 in91.4 mm
03:42 AM 46.3°F7.9°C 43.5°F6.4°C 56% 2.0 mph W3.2 kmh W -- 29.44 in997.0 mb 0.01 in0.3 mm 0.00 in0.0 mm 3.60 in91.4 mm
03:43 AM 46.3°F7.9°C 43.5°F6.4°C 56% 2.0 mph SE3.2 kmh SE -- 29.44 in997.0 mb 0.01 in0.3 mm 0.00 in0.0 mm 3.60 in91.4 mm
03:44 AM 46.2°F7.9°C 43.5°F6.4°C 56% 2.0 mph ENE3.2 kmh ENE -- 29.44 in997.0 mb 0.01 in0.3 mm 0.00 in0.0 mm 3.60 in91.4 mm
03:45 AM 46.1°F7.8°C 43.6°F6.4°C 56% 1.0 mph NNE1.6 kmh NNE -- 29.44 in997.0 mb 0.01 in0.3 mm 0.00 in0.0 mm 3.60 in91.4 mm
03:46 AM 46.2°F7.9°C 43.5°F6.4°C 56% 1.0 mph NNW1.6 kmh NNW -- 29.44 in997.0 mb 0.01 in0.3 mm 0.00 in0.0 mm 3.60 in91.4 mm
03:47 AM 46.4°F8.0°C 43.5°F6.4°C 56% 1.0 mph NE1.6 kmh NE -- 29.44 in997.0 mb 0.01 in0.3 mm 0.00 in0.0 mm 3.60 in91.4 mm
03:48 AM 46.3°F7.9°C 43.5°F6.4°C 56% 2.0 mph E3.2 kmh E -- 29.44 in997.0 mb 0.01 in0.3 mm 0.00 in0.0 mm 3.60 in91.4 mm
03:49 AM 46.3°F7.9°C 43.5°F6.4°C 56% 2.0 mph E3.2 kmh E -- 29.44 in997.0 mb 0.01 in0.3 mm 0.00 in0.0 mm 3.60 in91.4 mm
03:50 AM 46.2°F7.9°C 43.5°F6.4°C 56% 1.0 mph E1.6 kmh E -- 29.44 in997.0 mb 0.01 in0.3 mm 0.00 in0.0 mm 3.60 in91.4 mm
03:51 AM 46.2°F7.9°C 43.5°F6.4°C 56% 1.0 mph NW1.6 kmh NW -- 29.44 in997.0 mb 0.01 in0.3 mm 0.00 in0.0 mm 3.60 in91.4 mm
03:52 AM 46.0°F7.8°C 43.5°F6.4°C 56% 1.0 mph WNW1.6 kmh WNW -- 29.44 in997.0 mb 0.01 in0.3 mm 0.00 in0.0 mm 3.60 in91.4 mm
03:53 AM 46.1°F7.8°C 43.5°F6.4°C 56% 1.0 mph NE1.6 kmh NE -- 29.44 in997.0 mb 0.01 in0.3 mm 0.00 in0.0 mm 3.60 in91.4 mm
03:54 AM 46.0°F7.8°C 43.5°F6.4°C 56% 1.0 mph WSW1.6 kmh WSW -- 29.44 in997.0 mb 0.01 in0.3 mm 0.00 in0.0 mm 3.60 in91.4 mm
03:55 AM 45.7°F7.6°C 43.5°F6.4°C 56% 1.0 mph NE1.6 kmh NE -- 29.44 in997.0 mb 0.01 in0.3 mm 0.00 in0.0 mm 3.60 in91.4 mm
03:56 AM 46.0°F7.8°C 43.5°F6.4°C 56% 1.0 mph NE1.6 kmh NE -- 29.44 in997.0 mb 0.01 in0.3 mm 0.00 in0.0 mm 3.60 in91.4 mm
03:57 AM 46.1°F7.8°C 43.5°F6.4°C 56% 1.0 mph N1.6 kmh N -- 29.44 in997.0 mb 0.01 in0.3 mm 0.00 in0.0 mm 3.60 in91.4 mm
03:58 AM 46.3°F7.9°C 43.5°F6.4°C 56% 1.0 mph E1.6 kmh E -- 29.44 in997.0 mb 0.01 in0.3 mm 0.00 in0.0 mm 3.60 in91.4 mm
03:59 AM 46.2°F7.9°C 43.5°F6.4°C 56% 1.0 mph N1.6 kmh N -- 29.44 in997.0 mb 0.01 in0.3 mm 0.00 in0.0 mm 3.60 in91.4 mm
04:01 AM 46.2°F7.9°C 43.5°F6.4°C 56% 1.0 mph SE1.6 kmh SE -- 29.44 in997.0 mb 0.01 in0.3 mm 0.00 in0.0 mm 3.60 in91.4 mm
04:02 AM 46.3°F7.9°C 43.5°F6.4°C 56% 1.0 mph ESE1.6 kmh ESE -- 29.44 in997.0 mb 0.01 in0.3 mm 0.00 in0.0 mm 3.60 in91.4 mm
04:03 AM 46.3°F7.9°C 43.5°F6.4°C 56% 1.0 mph W1.6 kmh W -- 29.44 in997.0 mb 0.01 in0.3 mm 0.00 in0.0 mm 3.60 in91.4 mm
04:04 AM 46.4°F8.0°C 43.5°F6.4°C 56% 2.0 mph E3.2 kmh E -- 29.44 in997.0 mb 0.01 in0.3 mm 0.00 in0.0 mm 3.60 in91.4 mm
04:05 AM 46.5°F8.1°C 43.5°F6.4°C 56% 2.0 mph N3.2 kmh N -- 29.44 in997.0 mb 0.01 in0.3 mm 0.00 in0.0 mm 3.60 in91.4 mm
04:06 AM 46.4°F8.0°C 43.5°F6.4°C 56% 2.0 mph NE3.2 kmh NE -- 29.44 in997.0 mb 0.01 in0.3 mm 0.00 in0.0 mm 3.60 in91.4 mm
04:07 AM 47.0°F8.3°C 43.5°F6.4°C 56% 2.0 mph SSE3.2 kmh SSE -- 29.45 in997.3 mb 0.01 in0.3 mm 0.00 in0.0 mm 3.60 in91.4 mm
04:08 AM 46.9°F8.3°C 43.5°F6.4°C 56% 2.0 mph N3.2 kmh N -- 29.45 in997.3 mb 0.01 in0.3 mm 0.00 in0.0 mm 3.60 in91.4 mm
04:09 AM 46.7°F8.2°C 43.5°F6.4°C 56% 2.0 mph N3.2 kmh N -- 29.45 in997.3 mb 0.01 in0.3 mm 0.00 in0.0 mm 3.60 in91.4 mm
04:10 AM 46.7°F8.2°C 43.5°F6.4°C 56% 2.0 mph NE3.2 kmh NE -- 29.45 in997.3 mb 0.01 in0.3 mm 0.00 in0.0 mm 3.60 in91.4 mm
04:11 AM 46.5°F8.1°C 43.5°F6.4°C 56% 2.0 mph SW3.2 kmh SW -- 29.45 in997.3 mb 0.01 in0.3 mm 0.00 in0.0 mm 3.60 in91.4 mm
04:12 AM 46.5°F8.1°C 43.5°F6.4°C 56% 2.0 mph SE3.2 kmh SE -- 29.45 in997.3 mb 0.01 in0.3 mm 0.00 in0.0 mm 3.60 in91.4 mm
04:13 AM 46.6°F8.1°C 43.4°F6.3°C 56% 2.0 mph N3.2 kmh N -- 29.45 in997.3 mb 0.01 in0.3 mm 0.00 in0.0 mm 3.60 in91.4 mm
04:14 AM 46.9°F8.3°C 43.5°F6.4°C 56% 2.0 mph NE3.2 kmh NE -- 29.45 in997.3 mb 0.01 in0.3 mm 0.00 in0.0 mm 3.60 in91.4 mm
04:15 AM 47.0°F8.3°C 43.5°F6.4°C 56% 2.0 mph SW3.2 kmh SW -- 29.45 in997.3 mb 0.01 in0.3 mm 0.00 in0.0 mm 3.60 in91.4 mm
04:16 AM 47.1°F8.4°C 43.4°F6.3°C 56% 1.0 mph SE1.6 kmh SE -- 29.45 in997.3 mb 0.01 in0.3 mm 0.00 in0.0 mm 3.60 in91.4 mm
04:17 AM 47.1°F8.4°C 43.4°F6.3°C 56% 1.0 mph WSW1.6 kmh WSW -- 29.45 in997.3 mb 0.01 in0.3 mm 0.00 in0.0 mm 3.60 in91.4 mm
04:18 AM 47.2°F8.4°C 43.4°F6.3°C 56% 1.0 mph NE1.6 kmh NE -- 29.45 in997.3 mb 0.01 in0.3 mm 0.00 in0.0 mm 3.60 in91.4 mm
04:19 AM 47.0°F8.3°C 43.4°F6.3°C 56% 2.0 mph E3.2 kmh E -- 29.45 in997.3 mb 0.01 in0.3 mm 0.00 in0.0 mm 3.60 in91.4 mm
04:20 AM 46.9°F8.3°C 43.4°F6.3°C 56% 2.0 mph SE3.2 kmh SE -- 29.45 in997.3 mb 0.01 in0.3 mm 0.00 in0.0 mm 3.60 in91.4 mm
04:21 AM 46.7°F8.2°C 43.4°F6.3°C 56% 2.0 mph ESE3.2 kmh ESE -- 29.45 in997.3 mb 0.01 in0.3 mm 0.00 in0.0 mm 3.60 in91.4 mm
04:22 AM 46.9°F8.3°C 43.4°F6.3°C 56% 2.0 mph ENE3.2 kmh ENE -- 29.45 in997.3 mb 0.00 in0.0 mm 0.00 in0.0 mm 3.60 in91.4 mm
04:23 AM 46.7°F8.2°C 43.4°F6.3°C 56% 2.0 mph WSW3.2 kmh WSW -- 29.45 in997.3 mb 0.00 in0.0 mm 0.00 in0.0 mm 3.60 in91.4 mm
04:24 AM 47.0°F8.3°C 43.4°F6.3°C 56% 2.0 mph NE3.2 kmh NE -- 29.45 in997.3 mb 0.00 in0.0 mm 0.00 in0.0 mm 3.60 in91.4 mm
04:25 AM 46.9°F8.3°C 43.4°F6.3°C 56% 2.0 mph NE3.2 kmh NE -- 29.45 in997.3 mb 0.00 in0.0 mm 0.00 in0.0 mm 3.60 in91.4 mm
04:26 AM 46.9°F8.3°C 43.4°F6.3°C 56% 2.0 mph S3.2 kmh S -- 29.45 in997.3 mb 0.00 in0.0 mm 0.00 in0.0 mm 3.60 in91.4 mm
04:27 AM 46.6°F8.1°C 43.4°F6.3°C 56% 2.0 mph S3.2 kmh S -- 29.45 in997.3 mb 0.00 in0.0 mm 0.00 in0.0 mm 3.60 in91.4 mm
04:28 AM 46.6°F8.1°C 43.4°F6.3°C 56% 2.0 mph E3.2 kmh E -- 29.45 in997.3 mb 0.00 in0.0 mm 0.00 in0.0 mm 3.60 in91.4 mm
04:29 AM 46.7°F8.2°C 43.4°F6.3°C 56% 2.0 mph SE3.2 kmh SE -- 29.45 in997.3 mb 0.00 in0.0 mm 0.00 in0.0 mm 3.60 in91.4 mm
04:30 AM 46.7°F8.2°C 43.4°F6.3°C 56% 2.0 mph SSW3.2 kmh SSW -- 29.45 in997.3 mb 0.00 in0.0 mm 0.00 in0.0 mm 3.60 in91.4 mm
04:31 AM 46.7°F8.2°C 43.4°F6.3°C 56% 2.0 mph NW3.2 kmh NW -- 29.45 in997.3 mb 0.00 in0.0 mm 0.00 in0.0 mm 3.60 in91.4 mm
04:32 AM 46.7°F8.2°C 43.4°F6.3°C 56% 2.0 mph SE3.2 kmh SE -- 29.45 in997.3 mb 0.00 in0.0 mm 0.00 in0.0 mm 3.60 in91.4 mm
04:33 AM 46.3°F7.9°C 43.4°F6.3°C 56% 2.0 mph SE3.2 kmh SE -- 29.45 in997.3 mb 0.00 in0.0 mm 0.00 in0.0 mm 3.60 in91.4 mm
04:34 AM 46.2°F7.9°C 43.4°F6.3°C 56% 2.0 mph S3.2 kmh S -- 29.45 in997.3 mb 0.00 in0.0 mm 0.00 in0.0 mm 3.60 in91.4 mm
04:35 AM 46.1°F7.8°C 43.4°F6.3°C 56% 2.0 mph ENE3.2 kmh ENE -- 29.45 in997.3 mb 0.00 in0.0 mm 0.00 in0.0 mm 3.60 in91.4 mm
04:36 AM 46.2°F7.9°C 43.4°F6.3°C 56% 2.0 mph ESE3.2 kmh ESE -- 29.45 in997.3 mb 0.00 in0.0 mm 0.00 in0.0 mm 3.60 in91.4 mm
04:37 AM 46.1°F7.8°C 43.4°F6.3°C 56% 2.0 mph ESE3.2 kmh ESE -- 29.45 in997.3 mb 0.00 in0.0 mm 0.00 in0.0 mm 3.60 in91.4 mm
04:38 AM 46.0°F7.8°C 43.4°F6.3°C 56% 2.0 mph SE3.2 kmh SE -- 29.45 in997.3 mb 0.00 in0.0 mm 0.00 in0.0 mm 3.60 in91.4 mm
04:39 AM 46.1°F7.8°C 43.4°F6.3°C 56% 2.0 mph NW3.2 kmh NW -- 29.45 in997.3 mb 0.00 in0.0 mm 0.00 in0.0 mm 3.60 in91.4 mm
04:40 AM 45.8°F7.7°C 43.4°F6.3°C 56% 2.0 mph W3.2 kmh W -- 29.45 in997.3 mb 0.00 in0.0 mm 0.00 in0.0 mm 3.60 in91.4 mm
04:41 AM 45.8°F7.7°C 43.4°F6.3°C 56% 2.0 mph SSE3.2 kmh SSE -- 29.45 in997.3 mb 0.00 in0.0 mm 0.00 in0.0 mm 3.60 in91.4 mm
04:42 AM 45.8°F7.7°C 43.4°F6.3°C 56% 2.0 mph ENE3.2 kmh ENE -- 29.45 in997.3 mb 0.00 in0.0 mm 0.00 in0.0 mm 3.60 in91.4 mm
04:43 AM 46.0°F7.8°C 43.4°F6.3°C 56% 2.0 mph N3.2 kmh N -- 29.45 in997.3 mb 0.00 in0.0 mm 0.00 in0.0 mm 3.60 in91.4 mm
04:44 AM 45.8°F7.7°C 43.4°F6.3°C 56% 2.0 mph WSW3.2 kmh WSW -- 29.45 in997.3 mb 0.00 in0.0 mm 0.00 in0.0 mm 3.60 in91.4 mm
04:45 AM 45.7°F7.6°C 43.4°F6.3°C 56% 2.0 mph NE3.2 kmh NE -- 29.45 in997.3 mb 0.00 in0.0 mm 0.00 in0.0 mm 3.60 in91.4 mm
04:46 AM 45.7°F7.6°C 43.3°F6.3°C 56% 1.0 mph ENE1.6 kmh ENE -- 29.45 in997.3 mb 0.00 in0.0 mm 0.00 in0.0 mm 3.60 in91.4 mm
04:47 AM 45.7°F7.6°C 43.3°F6.3°C 56% 1.0 mph NE1.6 kmh NE -- 29.45 in997.3 mb 0.00 in0.0 mm 0.00 in0.0 mm 3.60 in91.4 mm
04:48 AM 45.7°F7.6°C 43.3°F6.3°C 56% 1.0 mph NE1.6 kmh NE -- 29.45 in997.3 mb 0.00 in0.0 mm 0.00 in0.0 mm 3.60 in91.4 mm
04:49 AM 45.6°F7.6°C 43.3°F6.3°C 56% 2.0 mph S3.2 kmh S -- 29.45 in997.3 mb 0.00 in0.0 mm 0.00 in0.0 mm 3.60 in91.4 mm
04:50 AM 45.6°F7.6°C 43.3°F6.3°C 56% 1.0 mph SE1.6 kmh SE -- 29.45 in997.3 mb 0.00 in0.0 mm 0.00 in0.0 mm 3.60 in91.4 mm
04:51 AM 45.8°F7.7°C 43.3°F6.3°C 56% 1.0 mph ENE1.6 kmh ENE -- 29.45 in997.3 mb 0.00 in0.0 mm 0.00 in0.0 mm 3.60 in91.4 mm
04:52 AM 45.8°F7.7°C 43.3°F6.3°C 56% 2.0 mph E3.2 kmh E -- 29.45 in997.3 mb 0.00 in0.0 mm 0.00 in0.0 mm 3.60 in91.4 mm
04:53 AM 46.0°F7.8°C 43.3°F6.3°C 56% 2.0 mph NNW3.2 kmh NNW -- 29.45 in997.3 mb 0.00 in0.0 mm 0.00 in0.0 mm 3.60 in91.4 mm
04:54 AM 45.8°F7.7°C 43.3°F6.3°C 56% 1.0 mph ENE1.6 kmh ENE -- 29.45 in997.3 mb 0.00 in0.0 mm 0.00 in0.0 mm 3.60 in91.4 mm
04:55 AM 45.8°F7.7°C 43.3°F6.3°C 56% 1.0 mph ESE1.6 kmh ESE -- 29.45 in997.3 mb 0.00 in0.0 mm 0.00 in0.0 mm 3.60 in91.4 mm
04:56 AM 45.7°F7.6°C 43.3°F6.3°C 56% 2.0 mph SE3.2 kmh SE -- 29.45 in997.3 mb 0.00 in0.0 mm 0.00 in0.0 mm 3.60 in91.4 mm
04:57 AM 45.7°F7.6°C 43.3°F6.3°C 56% 1.0 mph N1.6 kmh N -- 29.45 in997.3 mb 0.00 in0.0 mm 0.00 in0.0 mm 3.60 in91.4 mm
04:58 AM 45.7°F7.6°C 43.3°F6.3°C 56% 2.0 mph SW3.2 kmh SW -- 29.45 in997.3 mb 0.00 in0.0 mm 0.00 in0.0 mm 3.60 in91.4 mm
04:59 AM 45.8°F7.7°C 43.3°F6.3°C 56% 1.0 mph WSW1.6 kmh WSW -- 29.45 in997.3 mb 0.00 in0.0 mm 0.00 in0.0 mm 3.60 in91.4 mm
05:01 AM 45.8°F7.7°C 43.3°F6.3°C 56% 2.0 mph WSW3.2 kmh WSW -- 29.45 in997.3 mb 0.00 in0.0 mm 0.00 in0.0 mm 3.60 in91.4 mm
05:02 AM 45.8°F7.7°C 43.3°F6.3°C 56% 2.0 mph ENE3.2 kmh ENE -- 29.45 in997.3 mb 0.00 in0.0 mm 0.00 in0.0 mm 3.60 in91.4 mm
05:03 AM 46.0°F7.8°C 43.3°F6.3°C 56% 2.0 mph SE3.2 kmh SE -- 29.45 in997.3 mb 0.00 in0.0 mm 0.00 in0.0 mm 3.60 in91.4 mm
05:04 AM 46.0°F7.8°C 43.3°F6.3°C 56% 2.0 mph ESE3.2 kmh ESE -- 29.45 in997.3 mb 0.00 in0.0 mm 0.00 in0.0 mm 3.60 in91.4 mm
05:05 AM 46.0°F7.8°C 43.3°F6.3°C 56% 2.0 mph ESE3.2 kmh ESE -- 29.45 in997.3 mb 0.00 in0.0 mm 0.00 in0.0 mm 3.60 in91.4 mm
05:06 AM 45.8°F7.7°C 43.3°F6.3°C 56% 2.0 mph NW3.2 kmh NW -- 29.45 in997.3 mb 0.00 in0.0 mm 0.00 in0.0 mm 3.60 in91.4 mm
05:07 AM 46.0°F7.8°C 43.3°F6.3°C 56% 2.0 mph N3.2 kmh N -- 29.45 in997.3 mb 0.00 in0.0 mm 0.00 in0.0 mm 3.60 in91.4 mm
05:08 AM 46.1°F7.8°C 43.3°F6.3°C 56% 2.0 mph NNE3.2 kmh NNE -- 29.45 in997.3 mb 0.00 in0.0 mm 0.00 in0.0 mm 3.60 in91.4 mm
05:09 AM 46.1°F7.8°C 43.3°F6.3°C 56% 2.0 mph SE3.2 kmh SE -- 29.45 in997.3 mb 0.00 in0.0 mm 0.00 in0.0 mm 3.60 in91.4 mm
05:10 AM 46.3°F7.9°C 43.3°F6.3°C 56% 2.0 mph ESE3.2 kmh ESE -- 29.45 in997.3 mb 0.00 in0.0 mm 0.00 in0.0 mm 3.60 in91.4 mm
05:11 AM 46.3°F7.9°C 43.3°F6.3°C 56% 2.0 mph W3.2 kmh W -- 29.45 in997.3 mb 0.00 in0.0 mm 0.00 in0.0 mm 3.60 in91.4 mm
05:12 AM 46.3°F7.9°C 43.3°F6.3°C 56% 2.0 mph N3.2 kmh N -- 29.45 in997.3 mb 0.00 in0.0 mm 0.00 in0.0 mm 3.60 in91.4 mm
05:13 AM 46.4°F8.0°C 43.3°F6.3°C 56% 2.0 mph NE3.2 kmh NE -- 29.45 in997.3 mb 0.00 in0.0 mm 0.00 in0.0 mm 3.60 in91.4 mm
05:14 AM 46.3°F7.9°C 43.2°F6.2°C 56% 2.0 mph ENE3.2 kmh ENE -- 29.45 in997.3 mb 0.00 in0.0 mm 0.00 in0.0 mm 3.60 in91.4 mm
05:15 AM 46.4°F8.0°C 43.3°F6.3°C 56% 2.0 mph SSE3.2 kmh SSE -- 29.45 in997.3 mb 0.00 in0.0 mm 0.00 in0.0 mm 3.60 in91.4 mm
05:16 AM 46.4°F8.0°C 43.2°F6.2°C 56% 2.0 mph S3.2 kmh S -- 29.45 in997.3 mb 0.00 in0.0 mm 0.00 in0.0 mm 3.60 in91.4 mm
05:17 AM 46.5°F8.1°C 43.3°F6.3°C 56% 2.0 mph N3.2 kmh N -- 29.45 in997.3 mb 0.00 in0.0 mm 0.00 in0.0 mm 3.60 in91.4 mm
05:18 AM 46.5°F8.1°C 43.3°F6.3°C 56% 2.0 mph WNW3.2 kmh WNW -- 29.45 in997.3 mb 0.00 in0.0 mm 0.00 in0.0 mm 3.60 in91.4 mm
05:19 AM 46.6°F8.1°C 43.2°F6.2°C 56% 2.0 mph SE3.2 kmh SE -- 29.45 in997.3 mb 0.00 in0.0 mm 0.00 in0.0 mm 3.60 in91.4 mm
05:20 AM 46.4°F8.0°C 43.2°F6.2°C 56% 2.0 mph NNE3.2 kmh NNE -- 29.45 in997.3 mb 0.00 in0.0 mm 0.00 in0.0 mm 3.60 in91.4 mm
05:21 AM 46.3°F7.9°C 43.2°F6.2°C 56% 2.0 mph ESE3.2 kmh ESE -- 29.45 in997.3 mb 0.00 in0.0 mm 0.00 in0.0 mm 3.60 in91.4 mm
05:22 AM 46.3°F7.9°C 43.2°F6.2°C 56% 2.0 mph ENE3.2 kmh ENE -- 29.45 in997.3 mb 0.00 in0.0 mm 0.00 in0.0 mm 3.60 in91.4 mm
05:23 AM 46.3°F7.9°C 43.2°F6.2°C 56% 2.0 mph N3.2 kmh N -- 29.45 in997.3 mb 0.00 in0.0 mm 0.00 in0.0 mm 3.60 in91.4 mm
05:24 AM 46.3°F7.9°C 43.3°F6.3°C 56% 2.0 mph SW3.2 kmh SW -- 29.45 in997.3 mb 0.00 in0.0 mm 0.00 in0.0 mm 3.60 in91.4 mm
05:25 AM 46.3°F7.9°C 43.2°F6.2°C 56% 2.0 mph E3.2 kmh E -- 29.44 in997.0 mb 0.00 in0.0 mm 0.00 in0.0 mm 3.60 in91.4 mm
05:26 AM 46.2°F7.9°C 43.2°F6.2°C 56% 2.0 mph E3.2 kmh E -- 29.44 in997.0 mb 0.00 in0.0 mm 0.00 in0.0 mm 3.60 in91.4 mm
05:27 AM 46.3°F7.9°C 43.2°F6.2°C 56% 2.0 mph E3.2 kmh E -- 29.44 in997.0 mb 0.00 in0.0 mm 0.00 in0.0 mm 3.60 in91.4 mm
05:28 AM 46.2°F7.9°C 43.2°F6.2°C 56% 2.0 mph W3.2 kmh W -- 29.44 in997.0 mb 0.00 in0.0 mm 0.00 in0.0 mm 3.60 in91.4 mm
05:29 AM 46.1°F7.8°C 43.2°F6.2°C 56% 2.0 mph E3.2 kmh E -- 29.44 in997.0 mb 0.00 in0.0 mm 0.00 in0.0 mm 3.60 in91.4 mm
05:30 AM 46.1°F7.8°C 43.2°F6.2°C 56% 2.0 mph ENE3.2 kmh ENE -- 29.44 in997.0 mb 0.01 in0.3 mm 0.60 in15.2 mm 3.61 in91.7 mm
05:31 AM 46.1°F7.8°C 43.2°F6.2°C 56% 2.0 mph SSW3.2 kmh SSW -- 29.44 in997.0 mb 0.01 in0.3 mm 0.00 in0.0 mm 3.61 in91.7 mm
05:32 AM 46.1°F7.8°C 43.2°F6.2°C 56% 2.0 mph SE3.2 kmh SE -- 29.44 in997.0 mb 0.01 in0.3 mm 0.00 in0.0 mm 3.61 in91.7 mm
05:33 AM 46.2°F7.9°C 43.2°F6.2°C 56% 2.0 mph NE3.2 kmh NE -- 29.44 in997.0 mb 0.01 in0.3 mm 0.00 in0.0 mm 3.61 in91.7 mm
05:34 AM 46.3°F7.9°C 43.2°F6.2°C 56% 2.0 mph S3.2 kmh S -- 29.44 in997.0 mb 0.01 in0.3 mm 0.00 in0.0 mm 3.61 in91.7 mm
05:35 AM 46.3°F7.9°C 43.2°F6.2°C 56% 2.0 mph E3.2 kmh E -- 29.44 in997.0 mb 0.01 in0.3 mm 0.00 in0.0 mm 3.61 in91.7 mm
05:36 AM 46.2°F7.9°C 43.2°F6.2°C 56% 2.0 mph SE3.2 kmh SE -- 29.44 in997.0 mb 0.01 in0.3 mm 0.00 in0.0 mm 3.61 in91.7 mm
05:37 AM 46.1°F7.8°C 43.2°F6.2°C 56% 2.0 mph E3.2 kmh E -- 29.44 in997.0 mb 0.01 in0.3 mm 0.00 in0.0 mm 3.61 in91.7 mm
05:38 AM 46.1°F7.8°C 43.2°F6.2°C 56% 2.0 mph S3.2 kmh S -- 29.44 in997.0 mb 0.01 in0.3 mm 0.00 in0.0 mm 3.61 in91.7 mm
05:39 AM 46.1°F7.8°C 43.2°F6.2°C 56% 1.0 mph SE1.6 kmh SE -- 29.44 in997.0 mb 0.01 in0.3 mm 0.00 in0.0 mm 3.61 in91.7 mm
05:40 AM 46.0°F7.8°C 43.2°F6.2°C 56% 1.0 mph SE1.6 kmh SE -- 29.44 in997.0 mb 0.01 in0.3 mm 0.00 in0.0 mm 3.61 in91.7 mm
05:41 AM 46.0°F7.8°C 43.2°F6.2°C 56% 1.0 mph SE1.6 kmh SE -- 29.44 in997.0 mb 0.01 in0.3 mm 0.00 in0.0 mm 3.61 in91.7 mm
05:42 AM 46.0°F7.8°C 43.2°F6.2°C 56% 1.0 mph E1.6 kmh E -- 29.44 in997.0 mb 0.01 in0.3 mm 0.00 in0.0 mm 3.61 in91.7 mm
05:43 AM 46.0°F7.8°C 43.1°F6.2°C 56% 1.0 mph E1.6 kmh E -- 29.44 in997.0 mb 0.01 in0.3 mm 0.00 in0.0 mm 3.61 in91.7 mm
05:44 AM 46.0°F7.8°C 43.2°F6.2°C 56% 1.0 mph ENE1.6 kmh ENE -- 29.44 in997.0 mb 0.01 in0.3 mm 0.00 in0.0 mm 3.61 in91.7 mm
05:45 AM 46.0°F7.8°C 43.2°F6.2°C 56% 1.0 mph N1.6 kmh N -- 29.44 in997.0 mb 0.01 in0.3 mm 0.00 in0.0 mm 3.61 in91.7 mm
05:46 AM 46.2°F7.9°C 43.2°F6.2°C 56% 1.0 mph S1.6 kmh S -- 29.44 in997.0 mb 0.01 in0.3 mm 0.00 in0.0 mm 3.61 in91.7 mm
05:47 AM 46.2°F7.9°C 43.1°F6.2°C 56% 1.0 mph ENE1.6 kmh ENE -- 29.44 in997.0 mb 0.01 in0.3 mm 0.00 in0.0 mm 3.61 in91.7 mm
05:48 AM 46.3°F7.9°C 43.2°F6.2°C 56% 1.0 mph E1.6 kmh E -- 29.44 in997.0 mb 0.01 in0.3 mm 0.00 in0.0 mm 3.61 in91.7 mm
05:49 AM 46.4°F8.0°C 43.1°F6.2°C 56% 1.0 mph E1.6 kmh E -- 29.44 in997.0 mb 0.01 in0.3 mm 0.00 in0.0 mm 3.61 in91.7 mm
05:50 AM 46.6°F8.1°C 43.2°F6.2°C 56% 2.0 mph E3.2 kmh E -- 29.44 in997.0 mb 0.01 in0.3 mm 0.00 in0.0 mm 3.61 in91.7 mm
05:51 AM 46.7°F8.2°C 43.1°F6.2°C 56% 2.0 mph SE3.2 kmh SE -- 29.44 in997.0 mb 0.01 in0.3 mm 0.00 in0.0 mm 3.61 in91.7 mm
05:52 AM 46.9°F8.3°C 43.1°F6.2°C 56% 2.0 mph WNW3.2 kmh WNW -- 29.44 in997.0 mb 0.01 in0.3 mm 0.00 in0.0 mm 3.61 in91.7 mm
05:53 AM 46.9°F8.3°C 43.2°F6.2°C 56% 2.0 mph SE3.2 kmh SE -- 29.44 in997.0 mb 0.01 in0.3 mm 0.00 in0.0 mm 3.61 in91.7 mm
05:54 AM 47.1°F8.4°C 43.1°F6.2°C 56% 2.0 mph 3.2 kmh -- 29.44 in997.0 mb 0.01 in0.3 mm 0.00 in0.0 mm 3.61 in91.7 mm
05:55 AM 47.0°F8.3°C 43.1°F6.2°C 56% 2.0 mph W3.2 kmh W -- 29.44 in997.0 mb 0.01 in0.3 mm 0.00 in0.0 mm 3.61 in91.7 mm
05:56 AM 47.1°F8.4°C 43.1°F6.2°C 56% 2.0 mph NW3.2 kmh NW -- 29.44 in997.0 mb 0.01 in0.3 mm 0.00 in0.0 mm 3.61 in91.7 mm
05:57 AM 47.1°F8.4°C 43.1°F6.2°C 56% 2.0 mph ESE3.2 kmh ESE -- 29.44 in997.0 mb 0.01 in0.3 mm 0.00 in0.0 mm 3.61 in91.7 mm
05:58 AM 47.1°F8.4°C 43.1°F6.2°C 56% 2.0 mph SSE3.2 kmh SSE -- 29.44 in997.0 mb 0.01 in0.3 mm 0.00 in0.0 mm 3.61 in91.7 mm
05:59 AM 47.0°F8.3°C 43.1°F6.2°C 56% 2.0 mph SE3.2 kmh SE -- 29.44 in997.0 mb 0.01 in0.3 mm 0.00 in0.0 mm 3.61 in91.7 mm
06:01 AM 47.0°F8.3°C 43.1°F6.2°C 56% 2.0 mph S3.2 kmh S -- 29.44 in997.0 mb 0.01 in0.3 mm 0.00 in0.0 mm 3.61 in91.7 mm
06:02 AM 47.1°F8.4°C 43.1°F6.2°C 56% 2.0 mph ESE3.2 kmh ESE -- 29.44 in997.0 mb 0.01 in0.3 mm 0.00 in0.0 mm 3.61 in91.7 mm
06:03 AM 47.1°F8.4°C 43.1°F6.2°C 56% 2.0 mph SE3.2 kmh SE -- 29.44 in997.0 mb 0.01 in0.3 mm 0.00 in0.0 mm 3.61 in91.7 mm
06:04 AM 47.0°F8.3°C 43.1°F6.2°C 56% 2.0 mph NE3.2 kmh NE -- 29.45 in997.3 mb 0.01 in0.3 mm 0.00 in0.0 mm 3.61 in91.7 mm
06:05 AM 46.9°F8.3°C 43.1°F6.2°C 56% 2.0 mph E3.2 kmh E -- 29.45 in997.3 mb 0.01 in0.3 mm 0.00 in0.0 mm 3.61 in91.7 mm
06:06 AM 46.9°F8.3°C 43.1°F6.2°C 56% 2.0 mph NE3.2 kmh NE -- 29.45 in997.3 mb 0.01 in0.3 mm 0.00 in0.0 mm 3.61 in91.7 mm
06:07 AM 46.9°F8.3°C 43.1°F6.2°C 56% 2.0 mph ENE3.2 kmh ENE -- 29.45 in997.3 mb 0.01 in0.3 mm 0.00 in0.0 mm 3.61 in91.7 mm
06:08 AM 46.9°F8.3°C 43.1°F6.2°C 56% 2.0 mph E3.2 kmh E -- 29.45 in997.3 mb 0.01 in0.3 mm 0.00 in0.0 mm 3.61 in91.7 mm
06:09 AM 46.7°F8.2°C 43.1°F6.2°C 56% 2.0 mph E3.2 kmh E -- 29.45 in997.3 mb 0.01 in0.3 mm 0.00 in0.0 mm 3.61 in91.7 mm
06:10 AM 46.9°F8.3°C 43.1°F6.2°C 56% 2.0 mph E3.2 kmh E -- 29.45 in997.3 mb 0.01 in0.3 mm 0.00 in0.0 mm 3.61 in91.7 mm
06:11 AM 46.9°F8.3°C 43.1°F6.2°C 56% 2.0 mph E3.2 kmh E -- 29.45 in997.3 mb 0.01 in0.3 mm 0.00 in0.0 mm 3.61 in91.7 mm
06:12 AM 47.1°F8.4°C 43.1°F6.2°C 56% 2.0 mph N3.2 kmh N -- 29.45 in997.3 mb 0.01 in0.3 mm 0.00 in0.0 mm 3.61 in91.7 mm
06:13 AM 47.1°F8.4°C 43.1°F6.2°C 56% 2.0 mph N3.2 kmh N -- 29.45 in997.3 mb 0.01 in0.3 mm 0.00 in0.0 mm 3.61 in91.7 mm
06:14 AM 47.2°F8.4°C 43.1°F6.2°C 56% 2.0 mph ENE3.2 kmh ENE -- 29.45 in997.3 mb 0.01 in0.3 mm 0.00 in0.0 mm 3.61 in91.7 mm
06:15 AM 47.4°F8.6°C 43.1°F6.2°C 56% 2.0 mph NW3.2 kmh NW -- 29.45 in997.3 mb 0.01 in0.3 mm 0.00 in0.0 mm 3.61 in91.7 mm
06:16 AM 47.5°F8.6°C 43.1°F6.2°C 56% 2.0 mph ESE3.2 kmh ESE -- 29.45 in997.3 mb 0.01 in0.3 mm 0.00 in0.0 mm 3.61 in91.7 mm
06:17 AM 47.5°F8.6°C 43.1°F6.2°C 56% 2.0 mph NE3.2 kmh NE -- 29.45 in997.3 mb 0.01 in0.3 mm 0.00 in0.0 mm 3.61 in91.7 mm
06:18 AM 47.8°F8.8°C 43.1°F6.2°C 56% 2.0 mph ENE3.2 kmh ENE -- 29.45 in997.3 mb 0.01 in0.3 mm 0.00 in0.0 mm 3.61 in91.7 mm
06:19 AM 47.5°F8.6°C 43.1°F6.2°C 56% 2.0 mph ENE3.2 kmh ENE -- 29.45 in997.3 mb 0.01 in0.3 mm 0.00 in0.0 mm 3.61 in91.7 mm
06:20 AM 47.4°F8.6°C 43.1°F6.2°C 56% 1.0 mph SSW1.6 kmh SSW -- 29.45 in997.3 mb 0.01 in0.3 mm 0.00 in0.0 mm 3.61 in91.7 mm
06:21 AM 47.4°F8.6°C 43.1°F6.2°C 56% 2.0 mph SE3.2 kmh SE -- 29.45 in997.3 mb 0.01 in0.3 mm 0.00 in0.0 mm 3.61 in91.7 mm
06:22 AM 47.6°F8.7°C 43.1°F6.2°C 56% 2.0 mph ESE3.2 kmh ESE -- 29.45 in997.3 mb 0.01 in0.3 mm 0.00 in0.0 mm 3.61 in91.7 mm
06:23 AM 47.6°F8.7°C 43.1°F6.2°C 56% 2.0 mph SE3.2 kmh SE -- 29.45 in997.3 mb 0.01 in0.3 mm 0.00 in0.0 mm 3.61 in91.7 mm
06:24 AM 47.5°F8.6°C 43.1°F6.2°C 56% 2.0 mph NNE3.2 kmh NNE -- 29.45 in997.3 mb 0.01 in0.3 mm 0.00 in0.0 mm 3.61 in91.7 mm
06:25 AM 47.6°F8.7°C 43.1°F6.2°C 56% 2.0 mph N3.2 kmh N -- 29.45 in997.3 mb 0.01 in0.3 mm 0.00 in0.0 mm 3.61 in91.7 mm
06:26 AM 48.0°F8.9°C 43.1°F6.2°C 56% 2.0 mph E3.2 kmh E -- 29.45 in997.3 mb 0.01 in0.3 mm 0.00 in0.0 mm 3.61 in91.7 mm
06:27 AM 48.1°F8.9°C 43.1°F6.2°C 56% 2.0 mph S3.2 kmh S -- 29.45 in997.3 mb 0.01 in0.3 mm 0.00 in0.0 mm 3.61 in91.7 mm
06:28 AM 48.0°F8.9°C 43.1°F6.2°C 56% 2.0 mph WSW3.2 kmh WSW -- 29.45 in997.3 mb 0.01 in0.3 mm 0.00 in0.0 mm 3.61 in91.7 mm
06:29 AM 47.9°F8.8°C 43.1°F6.2°C 56% 2.0 mph E3.2 kmh E -- 29.45 in997.3 mb 0.01 in0.3 mm 0.00 in0.0 mm 3.61 in91.7 mm
06:30 AM 47.8°F8.8°C 43.0°F6.1°C 56% 2.0 mph E3.2 kmh E -- 29.46 in997.6 mb 0.00 in0.0 mm 0.00 in0.0 mm 3.61 in91.7 mm
06:31 AM 47.4°F8.6°C 43.1°F6.2°C 56% 2.0 mph E3.2 kmh E -- 29.45 in997.3 mb 0.00 in0.0 mm 0.00 in0.0 mm 3.61 in91.7 mm
06:32 AM 47.5°F8.6°C 43.0°F6.1°C 56% 2.0 mph ESE3.2 kmh ESE -- 29.45 in997.3 mb 0.00 in0.0 mm 0.00 in0.0 mm 3.61 in91.7 mm
06:33 AM 47.5°F8.6°C 43.1°F6.2°C 56% 2.0 mph ESE3.2 kmh ESE -- 29.46 in997.6 mb 0.00 in0.0 mm 0.00 in0.0 mm 3.61 in91.7 mm
06:34 AM 47.5°F8.6°C 43.0°F6.1°C 56% 2.0 mph SE3.2 kmh SE -- 29.45 in997.3 mb 0.00 in0.0 mm 0.00 in0.0 mm 3.61 in91.7 mm
06:35 AM 47.3°F8.5°C 43.0°F6.1°C 56% 2.0 mph SE3.2 kmh SE -- 29.46 in997.6 mb 0.00 in0.0 mm 0.00 in0.0 mm 3.61 in91.7 mm
06:36 AM 47.4°F8.6°C 43.0°F6.1°C 56% 2.0 mph ESE3.2 kmh ESE -- 29.46 in997.6 mb 0.00 in0.0 mm 0.00 in0.0 mm 3.61 in91.7 mm
06:37 AM 47.5°F8.6°C 43.0°F6.1°C 56% 2.0 mph ENE3.2 kmh ENE -- 29.46 in997.6 mb 0.00 in0.0 mm 0.00 in0.0 mm 3.61 in91.7 mm
06:38 AM 47.5°F8.6°C 43.0°F6.1°C 56% 2.0 mph ESE3.2 kmh ESE -- 29.46 in997.6 mb 0.00 in0.0 mm 0.00 in0.0 mm 3.61 in91.7 mm
06:39 AM 47.9°F8.8°C 43.0°F6.1°C 56% 2.0 mph S3.2 kmh S -- 29.46 in997.6 mb 0.00 in0.0 mm 0.00 in0.0 mm 3.61 in91.7 mm
06:40 AM 47.9°F8.8°C 43.0°F6.1°C 56% 2.0 mph SSW3.2 kmh SSW -- 29.46 in997.6 mb 0.00 in0.0 mm 0.00 in0.0 mm 3.61 in91.7 mm
06:41 AM 48.1°F8.9°C 43.0°F6.1°C 56% 3.0 mph E4.8 kmh E -- 29.46 in997.6 mb 0.00 in0.0 mm 0.00 in0.0 mm 3.61 in91.7 mm
06:42 AM 48.2°F9.0°C 43.0°F6.1°C 56% 3.0 mph NE4.8 kmh NE -- 29.46 in997.6 mb 0.00 in0.0 mm 0.00 in0.0 mm 3.61 in91.7 mm
06:43 AM 48.2°F9.0°C 43.0°F6.1°C 56% 3.0 mph NW4.8 kmh NW -- 29.46 in997.6 mb 0.00 in0.0 mm 0.00 in0.0 mm 3.61 in91.7 mm
06:44 AM 48.1°F8.9°C 43.0°F6.1°C 56% 3.0 mph ENE4.8 kmh ENE -- 29.46 in997.6 mb 0.00 in0.0 mm 0.00 in0.0 mm 3.61 in91.7 mm
06:45 AM 48.0°F8.9°C 43.0°F6.1°C 56% 3.0 mph W4.8 kmh W -- 29.46 in997.6 mb 0.00 in0.0 mm 0.00 in0.0 mm 3.61 in91.7 mm
06:46 AM 48.1°F8.9°C 43.0°F6.1°C 56% 3.0 mph WNW4.8 kmh WNW -- 29.47 in998.0 mb 0.00 in0.0 mm 0.00 in0.0 mm 3.61 in91.7 mm
06:47 AM 47.9°F8.8°C 43.0°F6.1°C 56% 3.0 mph NNW4.8 kmh NNW -- 29.47 in998.0 mb 0.00 in0.0 mm 0.00 in0.0 mm 3.61 in91.7 mm
06:48 AM 48.1°F8.9°C 43.0°F6.1°C 56% 3.0 mph SE4.8 kmh SE -- 29.46 in997.6 mb 0.00 in0.0 mm 0.00 in0.0 mm 3.61 in91.7 mm
06:49 AM 48.1°F8.9°C 43.0°F6.1°C 56% 3.0 mph ESE4.8 kmh ESE -- 29.46 in997.6 mb 0.00 in0.0 mm 0.00 in0.0 mm 3.61 in91.7 mm
06:50 AM 48.0°F8.9°C 43.0°F6.1°C 56% 3.0 mph W4.8 kmh W -- 29.47 in998.0 mb 0.00 in0.0 mm 0.00 in0.0 mm 3.61 in91.7 mm
06:51 AM 48.1°F8.9°C 43.0°F6.1°C 56% 3.0 mph NE4.8 kmh NE -- 29.47 in998.0 mb 0.00 in0.0 mm 0.00 in0.0 mm 3.61 in91.7 mm
06:52 AM 47.9°F8.8°C 43.0°F6.1°C 56% 3.0 mph W4.8 kmh W -- 29.47 in998.0 mb 0.00 in0.0 mm 0.00 in0.0 mm 3.61 in91.7 mm
06:53 AM 47.9°F8.8°C 43.0°F6.1°C 56% 3.0 mph WNW4.8 kmh WNW -- 29.47 in998.0 mb 0.00 in0.0 mm 0.00 in0.0 mm 3.61 in91.7 mm
06:54 AM 48.0°F8.9°C 43.0°F6.1°C 56% 3.0 mph NW4.8 kmh NW -- 29.47 in998.0 mb 0.00 in0.0 mm 0.00 in0.0 mm 3.61 in91.7 mm
06:55 AM 47.8°F8.8°C 43.0°F6.1°C 56% 3.0 mph SW4.8 kmh SW -- 29.47 in998.0 mb 0.00 in0.0 mm 0.00 in0.0 mm 3.61 in91.7 mm
06:56 AM 47.8°F8.8°C 43.0°F6.1°C 56% 3.0 mph NW4.8 kmh NW -- 29.47 in998.0 mb 0.00 in0.0 mm 0.00 in0.0 mm 3.61 in91.7 mm
06:57 AM 47.8°F8.8°C 43.0°F6.1°C 56% 3.0 mph 4.8 kmh -- 29.47 in998.0 mb 0.00 in0.0 mm 0.00 in0.0 mm 3.61 in91.7 mm
06:58 AM 47.5°F8.6°C 43.0°F6.1°C 56% 3.0 mph WNW4.8 kmh WNW -- 29.47 in998.0 mb 0.00 in0.0 mm 0.00 in0.0 mm 3.61 in91.7 mm
06:59 AM 47.4°F8.6°C 43.0°F6.1°C 56% 2.0 mph WNW3.2 kmh WNW -- 29.48 in998.3 mb 0.00 in0.0 mm 0.00 in0.0 mm 3.61 in91.7 mm
07:01 AM 47.1°F8.4°C 43.0°F6.1°C 56% 2.0 mph NE3.2 kmh NE -- 29.48 in998.3 mb 0.00 in0.0 mm 0.00 in0.0 mm 3.61 in91.7 mm
07:02 AM 47.1°F8.4°C 42.9°F6.1°C 56% 2.0 mph N3.2 kmh N -- 29.48 in998.3 mb 0.00 in0.0 mm 0.00 in0.0 mm 3.61 in91.7 mm
07:03 AM 47.3°F8.5°C 43.0°F6.1°C 56% 2.0 mph N3.2 kmh N -- 29.48 in998.3 mb 0.00 in0.0 mm 0.00 in0.0 mm 3.61 in91.7 mm
07:04 AM 47.2°F8.4°C 43.0°F6.1°C 56% 2.0 mph N3.2 kmh N -- 29.48 in998.3 mb 0.00 in0.0 mm 0.00 in0.0 mm 3.61 in91.7 mm
07:05 AM 47.2°F8.4°C 43.0°F6.1°C 56% 2.0 mph WNW3.2 kmh WNW -- 29.48 in998.3 mb 0.00 in0.0 mm 0.00 in0.0 mm 3.61 in91.7 mm
07:06 AM 47.3°F8.5°C 42.9°F6.1°C 56% 1.0 mph N1.6 kmh N -- 29.48 in998.3 mb 0.00 in0.0 mm 0.00 in0.0 mm 3.61 in91.7 mm
07:07 AM 47.3°F8.5°C 42.9°F6.1°C 56% 1.0 mph W1.6 kmh W -- 29.48 in998.3 mb 0.00 in0.0 mm 0.00 in0.0 mm 3.61 in91.7 mm
07:08 AM 47.4°F8.6°C 43.0°F6.1°C 56% 1.0 mph E1.6 kmh E -- 29.48 in998.3 mb 0.00 in0.0 mm 0.00 in0.0 mm 3.61 in91.7 mm
07:09 AM 47.4°F8.6°C 42.9°F6.1°C 56% 1.0 mph N1.6 kmh N -- 29.48 in998.3 mb 0.00 in0.0 mm 0.00 in0.0 mm 3.61 in91.7 mm
07:10 AM 47.3°F8.5°C 42.9°F6.1°C 56% 1.0 mph E1.6 kmh E -- 29.48 in998.3 mb 0.00 in0.0 mm 0.00 in0.0 mm 3.61 in91.7 mm
07:11 AM 47.2°F8.4°C 42.9°F6.1°C 56% 1.0 mph E1.6 kmh E -- 29.48 in998.3 mb 0.00 in0.0 mm 0.00 in0.0 mm 3.61 in91.7 mm
07:12 AM 47.1°F8.4°C 42.9°F6.1°C 56% 1.0 mph E1.6 kmh E -- 29.48 in998.3 mb 0.00 in0.0 mm 0.00 in0.0 mm 3.61 in91.7 mm
07:13 AM 47.0°F8.3°C 42.9°F6.1°C 56% 1.0 mph E1.6 kmh E -- 29.48 in998.3 mb 0.00 in0.0 mm 0.00 in0.0 mm 3.61 in91.7 mm
07:14 AM 47.0°F8.3°C 42.9°F6.1°C 56% 1.0 mph WNW1.6 kmh WNW -- 29.48 in998.3 mb 0.00 in0.0 mm 0.00 in0.0 mm 3.61 in91.7 mm
07:15 AM 47.1°F8.4°C 42.9°F6.1°C 56% 1.0 mph ESE1.6 kmh ESE -- 29.47 in998.0 mb 0.00 in0.0 mm 0.00 in0.0 mm 3.61 in91.7 mm
07:16 AM 47.1°F8.4°C 42.9°F6.1°C 56% 1.0 mph E1.6 kmh E -- 29.47 in998.0 mb 0.00 in0.0 mm 0.00 in0.0 mm 3.61 in91.7 mm
07:17 AM 47.3°F8.5°C 42.9°F6.1°C 56% 1.0 mph SSE1.6 kmh SSE -- 29.47 in998.0 mb 0.00 in0.0 mm 0.00 in0.0 mm 3.61 in91.7 mm
07:18 AM 47.2°F8.4°C 42.9°F6.1°C 56% 1.0 mph SE1.6 kmh SE -- 29.47 in998.0 mb 0.00 in0.0 mm 0.00 in0.0 mm 3.61 in91.7 mm
07:19 AM 47.2°F8.4°C 42.9°F6.1°C 56% 1.0 mph SSE1.6 kmh SSE -- 29.47 in998.0 mb 0.01 in0.3 mm 0.60 in15.2 mm 3.62 in91.9 mm
07:20 AM 47.0°F8.3°C 42.9°F6.1°C 56% 1.0 mph SE1.6 kmh SE -- 29.47 in998.0 mb 0.01 in0.3 mm 0.00 in0.0 mm 3.62 in91.9 mm
07:21 AM 47.1°F8.4°C 42.9°F6.1°C 56% 1.0 mph SE1.6 kmh SE -- 29.47 in998.0 mb 0.01 in0.3 mm 0.00 in0.0 mm 3.62 in91.9 mm
07:22 AM 47.0°F8.3°C 43.0°F6.1°C 56% 1.0 mph SE1.6 kmh SE -- 29.48 in998.3 mb 0.01 in0.3 mm 0.00 in0.0 mm 3.62 in91.9 mm
07:23 AM 46.9°F8.3°C 42.9°F6.1°C 56% 1.0 mph N1.6 kmh N -- 29.48 in998.3 mb 0.01 in0.3 mm 0.00 in0.0 mm 3.62 in91.9 mm
07:24 AM 47.2°F8.4°C 42.9°F6.1°C 56% 1.0 mph N1.6 kmh N -- 29.48 in998.3 mb 0.01 in0.3 mm 0.00 in0.0 mm 3.62 in91.9 mm
07:25 AM 47.3°F8.5°C 42.9°F6.1°C 56% 1.0 mph NNE1.6 kmh NNE -- 29.47 in998.0 mb 0.01 in0.3 mm 0.00 in0.0 mm 3.62 in91.9 mm
07:26 AM 47.3°F8.5°C 42.9°F6.1°C 56% 1.0 mph ENE1.6 kmh ENE -- 29.47 in998.0 mb 0.01 in0.3 mm 0.00 in0.0 mm 3.62 in91.9 mm
07:27 AM 47.4°F8.6°C 42.9°F6.1°C 56% 1.0 mph SE1.6 kmh SE -- 29.47 in998.0 mb 0.01 in0.3 mm 0.00 in0.0 mm 3.62 in91.9 mm
07:28 AM 47.6°F8.7°C 42.9°F6.1°C 56% 1.0 mph N1.6 kmh N -- 29.47 in998.0 mb 0.01 in0.3 mm 0.00 in0.0 mm 3.62 in91.9 mm
07:29 AM 47.8°F8.8°C 42.9°F6.1°C 56% 1.0 mph NW1.6 kmh NW -- 29.48 in998.3 mb 0.01 in0.3 mm 0.00 in0.0 mm 3.62 in91.9 mm
07:30 AM 47.8°F8.8°C 42.9°F6.1°C 56% 1.0 mph ENE1.6 kmh ENE -- 29.48 in998.3 mb 0.01 in0.3 mm 0.00 in0.0 mm 3.62 in91.9 mm
07:31 AM 47.6°F8.7°C 42.9°F6.1°C 56% 1.0 mph ENE1.6 kmh ENE -- 29.48 in998.3 mb 0.01 in0.3 mm 0.00 in0.0 mm 3.62 in91.9 mm
07:32 AM 47.6°F8.7°C 42.9°F6.1°C 56% 1.0 mph E1.6 kmh E -- 29.48 in998.3 mb 0.01 in0.3 mm 0.00 in0.0 mm 3.62 in91.9 mm
07:33 AM 47.8°F8.8°C 42.9°F6.1°C 56% 2.0 mph E3.2 kmh E -- 29.48 in998.3 mb 0.01 in0.3 mm 0.00 in0.0 mm 3.62 in91.9 mm
07:34 AM 48.0°F8.9°C 42.9°F6.1°C 56% 2.0 mph NW3.2 kmh NW -- 29.48 in998.3 mb 0.01 in0.3 mm 0.00 in0.0 mm 3.62 in91.9 mm
07:35 AM 48.1°F8.9°C 42.9°F6.1°C 56% 2.0 mph S3.2 kmh S -- 29.48 in998.3 mb 0.01 in0.3 mm 0.00 in0.0 mm 3.62 in91.9 mm
07:36 AM 48.0°F8.9°C 42.9°F6.1°C 56% 2.0 mph WNW3.2 kmh WNW -- 29.48 in998.3 mb 0.01 in0.3 mm 0.00 in0.0 mm 3.62 in91.9 mm
07:37 AM 48.0°F8.9°C 42.9°F6.1°C 56% 2.0 mph WNW3.2 kmh WNW -- 29.48 in998.3 mb 0.01 in0.3 mm 0.00 in0.0 mm 3.62 in91.9 mm
07:38 AM 47.9°F8.8°C 42.9°F6.1°C 56% 2.0 mph SSW3.2 kmh SSW -- 29.48 in998.3 mb 0.01 in0.3 mm 0.00 in0.0 mm 3.62 in91.9 mm
07:39 AM 47.6°F8.7°C 42.9°F6.1°C 56% 2.0 mph NE3.2 kmh NE -- 29.48 in998.3 mb 0.01 in0.3 mm 0.00 in0.0 mm 3.62 in91.9 mm
07:40 AM 47.3°F8.5°C 42.9°F6.1°C 56% 2.0 mph SSE3.2 kmh SSE -- 29.48 in998.3 mb 0.01 in0.3 mm 0.00 in0.0 mm 3.62 in91.9 mm
07:41 AM 47.2°F8.4°C 42.9°F6.1°C 56% 2.0 mph E3.2 kmh E -- 29.48 in998.3 mb 0.01 in0.3 mm 0.00 in0.0 mm 3.62 in91.9 mm
07:42 AM 47.0°F8.3°C 42.9°F6.1°C 56% 2.0 mph E3.2 kmh E -- 29.48 in998.3 mb 0.01 in0.3 mm 0.00 in0.0 mm 3.62 in91.9 mm
07:43 AM 46.9°F8.3°C 42.9°F6.1°C 56% 2.0 mph NNW3.2 kmh NNW -- 29.49 in998.6 mb 0.01 in0.3 mm 0.00 in0.0 mm 3.62 in91.9 mm
07:44 AM 46.9°F8.3°C 42.9°F6.1°C 56% 2.0 mph N3.2 kmh N -- 29.49 in998.6 mb 0.01 in0.3 mm 0.00 in0.0 mm 3.62 in91.9 mm
07:45 AM 46.7°F8.2°C 42.9°F6.1°C 56% 2.0 mph NE3.2 kmh NE -- 29.48 in998.3 mb 0.01 in0.3 mm 0.00 in0.0 mm 3.62 in91.9 mm
07:46 AM 46.7°F8.2°C 42.9°F6.1°C 56% 2.0 mph N3.2 kmh N -- 29.48 in998.3 mb 0.01 in0.3 mm 0.00 in0.0 mm 3.62 in91.9 mm
07:47 AM 46.7°F8.2°C 42.9°F6.1°C 56% 2.0 mph NE3.2 kmh NE -- 29.49 in998.6 mb 0.01 in0.3 mm 0.00 in0.0 mm 3.62 in91.9 mm
07:48 AM 47.1°F8.4°C 42.9°F6.1°C 56% 2.0 mph NE3.2 kmh NE -- 29.49 in998.6 mb 0.01 in0.3 mm 0.00 in0.0 mm 3.62 in91.9 mm
07:49 AM 47.1°F8.4°C 42.9°F6.1°C 56% 2.0 mph ENE3.2 kmh ENE -- 29.49 in998.6 mb 0.01 in0.3 mm 0.00 in0.0 mm 3.62 in91.9 mm
07:50 AM 47.0°F8.3°C 42.9°F6.1°C 56% 2.0 mph N3.2 kmh N -- 29.49 in998.6 mb 0.01 in0.3 mm 0.00 in0.0 mm 3.62 in91.9 mm
07:51 AM 47.2°F8.4°C 42.9°F6.1°C 56% 2.0 mph N3.2 kmh N -- 29.49 in998.6 mb 0.01 in0.3 mm 0.00 in0.0 mm 3.62 in91.9 mm
07:52 AM 47.1°F8.4°C 42.9°F6.1°C 56% 2.0 mph E3.2 kmh E -- 29.49 in998.6 mb 0.01 in0.3 mm 0.00 in0.0 mm 3.62 in91.9 mm
07:53 AM 47.0°F8.3°C 42.9°F6.1°C 56% 2.0 mph NNW3.2 kmh NNW -- 29.49 in998.6 mb 0.01 in0.3 mm 0.00 in0.0 mm 3.62 in91.9 mm
07:54 AM 47.0°F8.3°C 42.9°F6.1°C 56% 2.0 mph NE3.2 kmh NE -- 29.49 in998.6 mb 0.01 in0.3 mm 0.00 in0.0 mm 3.62 in91.9 mm
07:55 AM 47.1°F8.4°C 42.9°F6.1°C 56% 2.0 mph S3.2 kmh S -- 29.49 in998.6 mb 0.01 in0.3 mm 0.00 in0.0 mm 3.62 in91.9 mm
07:56 AM 46.9°F8.3°C 42.9°F6.1°C 56% 2.0 mph SSE3.2 kmh SSE -- 29.49 in998.6 mb 0.01 in0.3 mm 0.00 in0.0 mm 3.62 in91.9 mm
07:57 AM 46.7°F8.2°C 42.9°F6.1°C 56% 1.0 mph ENE1.6 kmh ENE -- 29.49 in998.6 mb 0.01 in0.3 mm 0.00 in0.0 mm 3.62 in91.9 mm
07:58 AM 46.6°F8.1°C 42.9°F6.1°C 56% 1.0 mph N1.6 kmh N -- 29.49 in998.6 mb 0.01 in0.3 mm 0.00 in0.0 mm 3.62 in91.9 mm
07:59 AM 46.6°F8.1°C 42.9°F6.1°C 56% 1.0 mph NW1.6 kmh NW -- 29.49 in998.6 mb 0.01 in0.3 mm 0.00 in0.0 mm 3.62 in91.9 mm
08:01 AM 46.7°F8.2°C 42.9°F6.1°C 56% 1.0 mph E1.6 kmh E -- 29.49 in998.6 mb 0.02 in0.5 mm 0.01 in0.3 mm 3.63 in92.2 mm
08:02 AM 46.5°F8.1°C 42.9°F6.1°C 56% 1.0 mph WSW1.6 kmh WSW -- 29.49 in998.6 mb 0.02 in0.5 mm 0.00 in0.0 mm 3.63 in92.2 mm
08:03 AM 46.6°F8.1°C 42.9°F6.1°C 56% 1.0 mph SW1.6 kmh SW -- 29.49 in998.6 mb 0.02 in0.5 mm 0.00 in0.0 mm 3.63 in92.2 mm
08:04 AM 46.5°F8.1°C 42.9°F6.1°C 56% 1.0 mph ESE1.6 kmh ESE -- 29.49 in998.6 mb 0.02 in0.5 mm 0.00 in0.0 mm 3.63 in92.2 mm
08:05 AM 46.5°F8.1°C 42.9°F6.1°C 56% 1.0 mph ESE1.6 kmh ESE -- 29.49 in998.6 mb 0.02 in0.5 mm 0.00 in0.0 mm 3.63 in92.2 mm
08:06 AM 46.4°F8.0°C 42.9°F6.1°C 56% 1.0 mph NE1.6 kmh NE -- 29.49 in998.6 mb 0.02 in0.5 mm 0.00 in0.0 mm 3.63 in92.2 mm
08:07 AM 46.5°F8.1°C 42.9°F6.1°C 56% 1.0 mph SSW1.6 kmh SSW -- 29.49 in998.6 mb 0.02 in0.5 mm 0.00 in0.0 mm 3.63 in92.2 mm
08:08 AM 46.5°F8.1°C 42.9°F6.1°C 56% 1.0 mph NE1.6 kmh NE -- 29.49 in998.6 mb 0.02 in0.5 mm 0.00 in0.0 mm 3.63 in92.2 mm
08:09 AM 46.6°F8.1°C 42.9°F6.1°C 56% 1.0 mph SSW1.6 kmh SSW -- 29.49 in998.6 mb 0.02 in0.5 mm 0.00 in0.0 mm 3.63 in92.2 mm
08:10 AM 46.7°F8.2°C 42.9°F6.1°C 56% 2.0 mph N3.2 kmh N -- 29.49 in998.6 mb 0.02 in0.5 mm 0.00 in0.0 mm 3.63 in92.2 mm
08:11 AM 46.7°F8.2°C 42.9°F6.1°C 56% 1.0 mph NE1.6 kmh NE -- 29.49 in998.6 mb 0.02 in0.5 mm 0.00 in0.0 mm 3.63 in92.2 mm
08:12 AM 46.6°F8.1°C 42.9°F6.1°C 56% 1.0 mph E1.6 kmh E -- 29.49 in998.6 mb 0.02 in0.5 mm 0.00 in0.0 mm 3.63 in92.2 mm
08:13 AM 46.5°F8.1°C 42.9°F6.1°C 56% 2.0 mph NW3.2 kmh NW -- 29.49 in998.6 mb 0.02 in0.5 mm 0.00 in0.0 mm 3.63 in92.2 mm
08:14 AM 46.4°F8.0°C 42.9°F6.1°C 56% 2.0 mph N3.2 kmh N -- 29.49 in998.6 mb 0.02 in0.5 mm 0.00 in0.0 mm 3.63 in92.2 mm
08:15 AM 46.6°F8.1°C 42.9°F6.1°C 56% 2.0 mph N3.2 kmh N -- 29.49 in998.6 mb 0.02 in0.5 mm 0.00 in0.0 mm 3.63 in92.2 mm
08:16 AM 46.5°F8.1°C 42.9°F6.1°C 56% 2.0 mph NE3.2 kmh NE -- 29.49 in998.6 mb 0.02 in0.5 mm 0.00 in0.0 mm 3.63 in92.2 mm
08:17 AM 46.4°F8.0°C 42.8°F6.0°C 56% 2.0 mph E3.2 kmh E -- 29.49 in998.6 mb 0.02 in0.5 mm 0.00 in0.0 mm 3.63 in92.2 mm
08:19 AM 46.2°F7.9°C 42.9°F6.1°C 56% 1.0 mph ESE1.6 kmh ESE -- 29.49 in998.6 mb 0.01 in0.3 mm 0.00 in0.0 mm 3.63 in92.2 mm
08:20 AM 46.1°F7.8°C 42.8°F6.0°C 56% 1.0 mph E1.6 kmh E -- 29.49 in998.6 mb 0.01 in0.3 mm 0.00 in0.0 mm 3.63 in92.2 mm
08:21 AM 46.2°F7.9°C 42.8°F6.0°C 56% 1.0 mph E1.6 kmh E -- 29.49 in998.6 mb 0.01 in0.3 mm 0.00 in0.0 mm 3.63 in92.2 mm
08:22 AM 46.1°F7.8°C 42.8°F6.0°C 56% 2.0 mph NE3.2 kmh NE -- 29.49 in998.6 mb 0.01 in0.3 mm 0.00 in0.0 mm 3.63 in92.2 mm
08:23 AM 46.1°F7.8°C 42.9°F6.1°C 56% 2.0 mph SSE3.2 kmh SSE -- 29.49 in998.6 mb 0.01 in0.3 mm 0.00 in0.0 mm 3.63 in92.2 mm
08:24 AM 46.0°F7.8°C 42.9°F6.1°C 56% 2.0 mph SW3.2 kmh SW -- 29.49 in998.6 mb 0.01 in0.3 mm 0.00 in0.0 mm 3.63 in92.2 mm
08:25 AM 46.0°F7.8°C 42.9°F6.1°C 56% 2.0 mph E3.2 kmh E -- 29.49 in998.6 mb 0.01 in0.3 mm 0.00 in0.0 mm 3.63 in92.2 mm
08:26 AM 45.7°F7.6°C 42.8°F6.0°C 56% 2.0 mph E3.2 kmh E -- 29.49 in998.6 mb 0.01 in0.3 mm 0.00 in0.0 mm 3.63 in92.2 mm
08:27 AM 45.8°F7.7°C 42.9°F6.1°C 56% 2.0 mph E3.2 kmh E -- 29.49 in998.6 mb 0.01 in0.3 mm 0.00 in0.0 mm 3.63 in92.2 mm
08:28 AM 45.8°F7.7°C 42.8°F6.0°C 56% 2.0 mph S3.2 kmh S -- 29.49 in998.6 mb 0.01 in0.3 mm 0.00 in0.0 mm 3.63 in92.2 mm
08:29 AM 45.7°F7.6°C 42.8°F6.0°C 56% 2.0 mph WNW3.2 kmh WNW -- 29.49 in998.6 mb 0.01 in0.3 mm 0.00 in0.0 mm 3.63 in92.2 mm
08:30 AM 45.8°F7.7°C 42.8°F6.0°C 56% 2.0 mph NW3.2 kmh NW -- 29.49 in998.6 mb 0.01 in0.3 mm 0.00 in0.0 mm 3.63 in92.2 mm
08:31 AM 45.8°F7.7°C 42.8°F6.0°C 56% 2.0 mph NNW3.2 kmh NNW -- 29.49 in998.6 mb 0.01 in0.3 mm 0.00 in0.0 mm 3.63 in92.2 mm
08:32 AM 46.0°F7.8°C 42.8°F6.0°C 56% 2.0 mph NNW3.2 kmh NNW -- 29.49 in998.6 mb 0.01 in0.3 mm 0.00 in0.0 mm 3.63 in92.2 mm
08:33 AM 45.8°F7.7°C 42.8°F6.0°C 56% 1.0 mph ESE1.6 kmh ESE -- 29.49 in998.6 mb 0.01 in0.3 mm 0.00 in0.0 mm 3.63 in92.2 mm
08:34 AM 45.7°F7.6°C 42.8°F6.0°C 56% 1.0 mph SE1.6 kmh SE -- 29.49 in998.6 mb 0.01 in0.3 mm 0.00 in0.0 mm 3.63 in92.2 mm
08:35 AM 45.5°F7.5°C 42.8°F6.0°C 56% 1.0 mph ESE1.6 kmh ESE -- 29.49 in998.6 mb 0.01 in0.3 mm 0.00 in0.0 mm 3.63 in92.2 mm
08:36 AM 45.5°F7.5°C 42.8°F6.0°C 56% 1.0 mph E1.6 kmh E -- 29.49 in998.6 mb 0.01 in0.3 mm 0.00 in0.0 mm 3.63 in92.2 mm
08:37 AM 45.5°F7.5°C 42.8°F6.0°C 56% 2.0 mph SE3.2 kmh SE -- 29.49 in998.6 mb 0.01 in0.3 mm 0.00 in0.0 mm 3.63 in92.2 mm
08:38 AM 45.7°F7.6°C 42.8°F6.0°C 56% 2.0 mph SE3.2 kmh SE -- 29.49 in998.6 mb 0.01 in0.3 mm 0.00 in0.0 mm 3.63 in92.2 mm
08:39 AM 45.7°F7.6°C 42.8°F6.0°C 56% 2.0 mph SE3.2 kmh SE -- 29.48 in998.3 mb 0.01 in0.3 mm 0.00 in0.0 mm 3.63 in92.2 mm
08:40 AM 45.8°F7.7°C 42.8°F6.0°C 56% 2.0 mph NNW3.2 kmh NNW -- 29.48 in998.3 mb 0.01 in0.3 mm 0.00 in0.0 mm 3.63 in92.2 mm
08:41 AM 46.0°F7.8°C 42.8°F6.0°C 56% 1.0 mph NW1.6 kmh NW -- 29.48 in998.3 mb 0.01 in0.3 mm 0.00 in0.0 mm 3.63 in92.2 mm
08:42 AM 46.1°F7.8°C 42.8°F6.0°C 56% 2.0 mph SSE3.2 kmh SSE -- 29.48 in998.3 mb 0.01 in0.3 mm 0.00 in0.0 mm 3.63 in92.2 mm
08:43 AM 45.8°F7.7°C 42.8°F6.0°C 56% 2.0 mph SE3.2 kmh SE -- 29.48 in998.3 mb 0.01 in0.3 mm 0.00 in0.0 mm 3.63 in92.2 mm
08:44 AM 46.1°F7.8°C 42.8°F6.0°C 56% 2.0 mph SE3.2 kmh SE -- 29.48 in998.3 mb 0.01 in0.3 mm 0.00 in0.0 mm 3.63 in92.2 mm
08:45 AM 46.0°F7.8°C 42.8°F6.0°C 56% 2.0 mph ENE3.2 kmh ENE -- 29.48 in998.3 mb 0.01 in0.3 mm 0.00 in0.0 mm 3.63 in92.2 mm
08:46 AM 45.6°F7.6°C 42.8°F6.0°C 56% 2.0 mph NNW3.2 kmh NNW -- 29.48 in998.3 mb 0.01 in0.3 mm 0.00 in0.0 mm 3.63 in92.2 mm
08:47 AM 45.6°F7.6°C 42.8°F6.0°C 56% 2.0 mph SE3.2 kmh SE -- 29.48 in998.3 mb 0.01 in0.3 mm 0.00 in0.0 mm 3.63 in92.2 mm
08:48 AM 45.6°F7.6°C 42.8°F6.0°C 56% 1.0 mph SE1.6 kmh SE -- 29.49 in998.6 mb 0.01 in0.3 mm 0.00 in0.0 mm 3.63 in92.2 mm
08:49 AM 45.4°F7.4°C 42.8°F6.0°C 56% 1.0 mph SE1.6 kmh SE -- 29.48 in998.3 mb 0.01 in0.3 mm 0.00 in0.0 mm 3.63 in92.2 mm
08:50 AM 45.4°F7.4°C 42.8°F6.0°C 56% 1.0 mph NE1.6 kmh NE -- 29.48 in998.3 mb 0.01 in0.3 mm 0.00 in0.0 mm 3.63 in92.2 mm
08:51 AM 45.3°F7.4°C 42.8°F6.0°C 56% 1.0 mph ENE1.6 kmh ENE -- 29.48 in998.3 mb 0.01 in0.3 mm 0.00 in0.0 mm 3.63 in92.2 mm
08:52 AM 45.4°F7.4°C 42.8°F6.0°C 56% 1.0 mph E1.6 kmh E -- 29.48 in998.3 mb 0.01 in0.3 mm 0.00 in0.0 mm 3.63 in92.2 mm
08:53 AM 45.4°F7.4°C 42.8°F6.0°C 56% 1.0 mph E1.6 kmh E -- 29.48 in998.3 mb 0.01 in0.3 mm 0.00 in0.0 mm 3.63 in92.2 mm
08:54 AM 45.4°F7.4°C 42.8°F6.0°C 56% 1.0 mph E1.6 kmh E -- 29.48 in998.3 mb 0.01 in0.3 mm 0.00 in0.0 mm 3.63 in92.2 mm
08:55 AM 45.2°F7.3°C 42.8°F6.0°C 56% 1.0 mph E1.6 kmh E -- 29.48 in998.3 mb 0.01 in0.3 mm 0.00 in0.0 mm 3.63 in92.2 mm
08:56 AM 45.1°F7.3°C 42.8°F6.0°C 56% 1.0 mph ENE1.6 kmh ENE -- 29.48 in998.3 mb 0.01 in0.3 mm 0.00 in0.0 mm 3.63 in92.2 mm
08:57 AM 45.1°F7.3°C 42.8°F6.0°C 56% 1.0 mph ENE1.6 kmh ENE -- 29.48 in998.3 mb 0.01 in0.3 mm 0.00 in0.0 mm 3.63 in92.2 mm
08:58 AM 45.3°F7.4°C 42.8°F6.0°C 56% 1.0 mph NNW1.6 kmh NNW -- 29.48 in998.3 mb 0.01 in0.3 mm 0.00 in0.0 mm 3.63 in92.2 mm
08:59 AM 45.8°F7.7°C 42.8°F6.0°C 56% 1.0 mph NNW1.6 kmh NNW -- 29.49 in998.6 mb 0.01 in0.3 mm 0.00 in0.0 mm 3.63 in92.2 mm
09:01 AM 46.0°F7.8°C 42.8°F6.0°C 56% 1.0 mph ENE1.6 kmh ENE -- 29.49 in998.6 mb 0.00 in0.0 mm 0.00 in0.0 mm 3.63 in92.2 mm
09:02 AM 45.8°F7.7°C 42.8°F6.0°C 56% 1.0 mph ESE1.6 kmh ESE -- 29.49 in998.6 mb 0.00 in0.0 mm 0.00 in0.0 mm 3.63 in92.2 mm
09:03 AM 45.6°F7.6°C 42.8°F6.0°C 56% 1.0 mph ESE1.6 kmh ESE -- 29.49 in998.6 mb 0.00 in0.0 mm 0.00 in0.0 mm 3.63 in92.2 mm
09:04 AM 45.8°F7.7°C 42.8°F6.0°C 56% 1.0 mph S1.6 kmh S -- 29.49 in998.6 mb 0.00 in0.0 mm 0.00 in0.0 mm 3.63 in92.2 mm
09:05 AM 45.7°F7.6°C 42.8°F6.0°C 56% 1.0 mph E1.6 kmh E -- 29.49 in998.6 mb 0.01 in0.3 mm 0.60 in15.2 mm 3.64 in92.5 mm
09:06 AM 45.7°F7.6°C 42.7°F5.9°C 56% 1.0 mph E1.6 kmh E -- 29.49 in998.6 mb 0.01 in0.3 mm 0.00 in0.0 mm 3.64 in92.5 mm
09:07 AM 45.7°F7.6°C 42.8°F6.0°C 56% 1.0 mph SSW1.6 kmh SSW -- 29.49 in998.6 mb 0.02 in0.5 mm 0.60 in15.2 mm 3.65 in92.7 mm
09:08 AM 45.5°F7.5°C 42.8°F6.0°C 56% 1.0 mph ESE1.6 kmh ESE -- 29.49 in998.6 mb 0.02 in0.5 mm 0.00 in0.0 mm 3.65 in92.7 mm
09:09 AM 45.6°F7.6°C 42.8°F6.0°C 56% 1.0 mph NE1.6 kmh NE -- 29.49 in998.6 mb 0.02 in0.5 mm 0.00 in0.0 mm 3.65 in92.7 mm
09:10 AM 45.5°F7.5°C 42.8°F6.0°C 56% 1.0 mph NE1.6 kmh NE -- 29.49 in998.6 mb 0.02 in0.5 mm 0.00 in0.0 mm 3.65 in92.7 mm
09:11 AM 45.5°F7.5°C 42.7°F5.9°C 56% 1.0 mph SSE1.6 kmh SSE -- 29.49 in998.6 mb 0.02 in0.5 mm 0.00 in0.0 mm 3.65 in92.7 mm
09:12 AM 45.3°F7.4°C 42.7°F5.9°C 56% 1.0 mph SSE1.6 kmh SSE -- 29.49 in998.6 mb 0.02 in0.5 mm 0.00 in0.0 mm 3.65 in92.7 mm
09:13 AM 45.2°F7.3°C 42.7°F5.9°C 56% 1.0 mph ESE1.6 kmh ESE -- 29.49 in998.6 mb 0.02 in0.5 mm 0.00 in0.0 mm 3.65 in92.7 mm
09:14 AM 45.1°F7.3°C 42.7°F5.9°C 56% 1.0 mph SE1.6 kmh SE -- 29.49 in998.6 mb 0.02 in0.5 mm 0.00 in0.0 mm 3.65 in92.7 mm
09:15 AM 45.1°F7.3°C 42.7°F5.9°C 56% 1.0 mph NNE1.6 kmh NNE -- 29.50 in999.0 mb 0.02 in0.5 mm 0.00 in0.0 mm 3.65 in92.7 mm
09:16 AM 45.2°F7.3°C 42.7°F5.9°C 56% 1.0 mph NE1.6 kmh NE -- 29.50 in999.0 mb 0.02 in0.5 mm 0.00 in0.0 mm 3.65 in92.7 mm
09:17 AM 45.2°F7.3°C 42.7°F5.9°C 56% 1.0 mph NE1.6 kmh NE -- 29.50 in999.0 mb 0.02 in0.5 mm 0.00 in0.0 mm 3.65 in92.7 mm
09:18 AM 45.1°F7.3°C 42.7°F5.9°C 56% 1.0 mph SE1.6 kmh SE -- 29.50 in999.0 mb 0.02 in0.5 mm 0.00 in0.0 mm 3.65 in92.7 mm
09:19 AM 44.9°F7.2°C 42.7°F5.9°C 56% 1.0 mph ESE1.6 kmh ESE -- 29.49 in998.6 mb 0.02 in0.5 mm 0.00 in0.0 mm 3.65 in92.7 mm
09:20 AM 45.2°F7.3°C 42.7°F5.9°C 56% 1.0 mph SE1.6 kmh SE -- 29.50 in999.0 mb 0.02 in0.5 mm 0.00 in0.0 mm 3.65 in92.7 mm
09:21 AM 45.1°F7.3°C 42.7°F5.9°C 56% 1.0 mph S1.6 kmh S -- 29.50 in999.0 mb 0.02 in0.5 mm 0.00 in0.0 mm 3.65 in92.7 mm
09:22 AM 45.1°F7.3°C 42.7°F5.9°C 56% 1.0 mph SSE1.6 kmh SSE -- 29.50 in999.0 mb 0.02 in0.5 mm 0.00 in0.0 mm 3.65 in92.7 mm
09:23 AM 45.1°F7.3°C 42.7°F5.9°C 56% 1.0 mph S1.6 kmh S -- 29.50 in999.0 mb 0.02 in0.5 mm 0.00 in0.0 mm 3.65 in92.7 mm
09:24 AM 45.4°F7.4°C 42.7°F5.9°C 56% 1.0 mph N1.6 kmh N -- 29.50 in999.0 mb 0.02 in0.5 mm 0.00 in0.0 mm 3.65 in92.7 mm
09:25 AM 45.5°F7.5°C 42.7°F5.9°C 56% 1.0 mph E1.6 kmh E -- 29.50 in999.0 mb 0.02 in0.5 mm 0.00 in0.0 mm 3.65 in92.7 mm
09:26 AM 45.7°F7.6°C 42.7°F5.9°C 56% 1.0 mph N1.6 kmh N -- 29.50 in999.0 mb 0.02 in0.5 mm 0.00 in0.0 mm 3.65 in92.7 mm
09:27 AM 46.1°F7.8°C 42.7°F5.9°C 56% 1.0 mph N1.6 kmh N -- 29.50 in999.0 mb 0.02 in0.5 mm 0.00 in0.0 mm 3.65 in92.7 mm
09:28 AM 45.8°F7.7°C 42.7°F5.9°C 56% 1.0 mph N1.6 kmh N -- 29.50 in999.0 mb 0.02 in0.5 mm 0.00 in0.0 mm 3.65 in92.7 mm
09:29 AM 45.5°F7.5°C 42.7°F5.9°C 56% 1.0 mph E1.6 kmh E -- 29.50 in999.0 mb 0.02 in0.5 mm 0.00 in0.0 mm 3.65 in92.7 mm
09:30 AM 45.6°F7.6°C 42.7°F5.9°C 56% 1.0 mph E1.6 kmh E -- 29.50 in999.0 mb 0.02 in0.5 mm 0.00 in0.0 mm 3.65 in92.7 mm
09:31 AM 45.5°F7.5°C 42.7°F5.9°C 56% 1.0 mph SE1.6 kmh SE -- 29.50 in999.0 mb 0.02 in0.5 mm 0.00 in0.0 mm 3.65 in92.7 mm
09:32 AM 45.6°F7.6°C 42.7°F5.9°C 56% 1.0 mph SE1.6 kmh SE -- 29.50 in999.0 mb 0.02 in0.5 mm 0.00 in0.0 mm 3.65 in92.7 mm
09:33 AM 45.6°F7.6°C 42.7°F5.9°C 56% 1.0 mph SE1.6 kmh SE -- 29.50 in999.0 mb 0.02 in0.5 mm 0.00 in0.0 mm 3.65 in92.7 mm
09:34 AM 45.7°F7.6°C 42.7°F5.9°C 56% 1.0 mph WSW1.6 kmh WSW -- 29.50 in999.0 mb 0.02 in0.5 mm 0.00 in0.0 mm 3.65 in92.7 mm
09:35 AM 45.8°F7.7°C 42.7°F5.9°C 56% 1.0 mph WSW1.6 kmh WSW -- 29.50 in999.0 mb 0.02 in0.5 mm 0.00 in0.0 mm 3.65 in92.7 mm
09:36 AM 45.8°F7.7°C 42.7°F5.9°C 56% 1.0 mph E1.6 kmh E -- 29.50 in999.0 mb 0.02 in0.5 mm 0.00 in0.0 mm 3.65 in92.7 mm
09:37 AM 45.8°F7.7°C 42.7°F5.9°C 56% 1.0 mph SE1.6 kmh SE -- 29.50 in999.0 mb 0.02 in0.5 mm 0.00 in0.0 mm 3.65 in92.7 mm
09:38 AM 46.1°F7.8°C 42.7°F5.9°C 56% 1.0 mph NE1.6 kmh NE -- 29.50 in999.0 mb 0.02 in0.5 mm 0.00 in0.0 mm 3.65 in92.7 mm
09:39 AM 46.2°F7.9°C 42.7°F5.9°C 56% 1.0 mph NE1.6 kmh NE -- 29.51 in999.3 mb 0.03 in0.8 mm 0.60 in15.2 mm 3.66 in93.0 mm
09:40 AM 46.2°F7.9°C 42.7°F5.9°C 56% 1.0 mph N1.6 kmh N -- 29.50 in999.0 mb 0.03 in0.8 mm 0.00 in0.0 mm 3.66 in93.0 mm
09:41 AM 46.2°F7.9°C 42.7°F5.9°C 56% 1.0 mph W1.6 kmh W -- 29.51 in999.3 mb 0.04 in1.0 mm 0.60 in15.2 mm 3.67 in93.2 mm
09:42 AM 46.4°F8.0°C 42.7°F5.9°C 56% 1.0 mph WNW1.6 kmh WNW -- 29.50 in999.0 mb 0.04 in1.0 mm 0.00 in0.0 mm 3.67 in93.2 mm
09:43 AM 46.5°F8.1°C 42.7°F5.9°C 56% 1.0 mph E1.6 kmh E -- 29.50 in999.0 mb 0.04 in1.0 mm 0.00 in0.0 mm 3.67 in93.2 mm
09:44 AM 46.3°F7.9°C 42.7°F5.9°C 56% 1.0 mph S1.6 kmh S -- 29.50 in999.0 mb 0.04 in1.0 mm 0.00 in0.0 mm 3.67 in93.2 mm
09:45 AM 46.4°F8.0°C 42.7°F5.9°C 56% 1.0 mph S1.6 kmh S -- 29.50 in999.0 mb 0.04 in1.0 mm 0.00 in0.0 mm 3.67 in93.2 mm
09:46 AM 46.3°F7.9°C 42.7°F5.9°C 56% 1.0 mph S1.6 kmh S -- 29.50 in999.0 mb 0.04 in1.0 mm 0.00 in0.0 mm 3.67 in93.2 mm
09:47 AM 46.5°F8.1°C 42.7°F5.9°C 56% 1.0 mph NE1.6 kmh NE -- 29.50 in999.0 mb 0.04 in1.0 mm 0.00 in0.0 mm 3.67 in93.2 mm
09:48 AM 46.4°F8.0°C 42.7°F5.9°C 56% 1.0 mph W1.6 kmh W -- 29.50 in999.0 mb 0.04 in1.0 mm 0.00 in0.0 mm 3.67 in93.2 mm
09:49 AM 46.7°F8.2°C 42.7°F5.9°C 56% 1.0 mph E1.6 kmh E -- 29.50 in999.0 mb 0.04 in1.0 mm 0.00 in0.0 mm 3.67 in93.2 mm
09:50 AM 47.0°F8.3°C 42.7°F5.9°C 56% 1.0 mph ESE1.6 kmh ESE -- 29.50 in999.0 mb 0.04 in1.0 mm 0.00 in0.0 mm 3.67 in93.2 mm
09:51 AM 47.1°F8.4°C 42.7°F5.9°C 56% 1.0 mph NE1.6 kmh NE -- 29.51 in999.3 mb 0.04 in1.0 mm 0.00 in0.0 mm 3.67 in93.2 mm
09:52 AM 47.0°F8.3°C 42.7°F5.9°C 56% 1.0 mph E1.6 kmh E -- 29.51 in999.3 mb 0.04 in1.0 mm 0.00 in0.0 mm 3.67 in93.2 mm
09:53 AM 47.0°F8.3°C 42.7°F5.9°C 56% 1.0 mph ENE1.6 kmh ENE -- 29.51 in999.3 mb 0.04 in1.0 mm 0.00 in0.0 mm 3.67 in93.2 mm
09:54 AM 47.0°F8.3°C 42.7°F5.9°C 56% 1.0 mph NE1.6 kmh NE -- 29.51 in999.3 mb 0.04 in1.0 mm 0.00 in0.0 mm 3.67 in93.2 mm
09:55 AM 47.2°F8.4°C 42.7°F5.9°C 56% 1.0 mph WSW1.6 kmh WSW -- 29.51 in999.3 mb 0.04 in1.0 mm 0.00 in0.0 mm 3.67 in93.2 mm
09:56 AM 47.1°F8.4°C 42.7°F5.9°C 56% 2.0 mph NE3.2 kmh NE -- 29.51 in999.3 mb 0.04 in1.0 mm 0.00 in0.0 mm 3.67 in93.2 mm
09:57 AM 47.2°F8.4°C 42.7°F5.9°C 56% 2.0 mph E3.2 kmh E -- 29.51 in999.3 mb 0.04 in1.0 mm 0.00 in0.0 mm 3.67 in93.2 mm
09:58 AM 47.1°F8.4°C 42.7°F5.9°C 56% 2.0 mph NE3.2 kmh NE -- 29.51 in999.3 mb 0.04 in1.0 mm 0.00 in0.0 mm 3.67 in93.2 mm
09:59 AM 47.2°F8.4°C 42.7°F5.9°C 56% 2.0 mph NE3.2 kmh NE -- 29.51 in999.3 mb 0.04 in1.0 mm 0.00 in0.0 mm 3.67 in93.2 mm
10:01 AM 47.1°F8.4°C 42.7°F5.9°C 56% 2.0 mph S3.2 kmh S -- 29.51 in999.3 mb 0.04 in1.0 mm 0.00 in0.0 mm 3.67 in93.2 mm
10:02 AM 47.1°F8.4°C 42.7°F5.9°C 56% 2.0 mph NW3.2 kmh NW -- 29.51 in999.3 mb 0.04 in1.0 mm 0.00 in0.0 mm 3.67 in93.2 mm
10:03 AM 47.1°F8.4°C 42.7°F5.9°C 56% 2.0 mph NW3.2 kmh NW -- 29.51 in999.3 mb 0.04 in1.0 mm 0.00 in0.0 mm 3.67 in93.2 mm
10:04 AM 47.4°F8.6°C 42.6°F5.9°C 56% 2.0 mph N3.2 kmh N -- 29.51 in999.3 mb 0.04 in1.0 mm 0.00 in0.0 mm 3.67 in93.2 mm
10:05 AM 47.6°F8.7°C 42.6°F5.9°C 56% 2.0 mph E3.2 kmh E -- 29.51 in999.3 mb 0.03 in0.8 mm 0.00 in0.0 mm 3.67 in93.2 mm
10:06 AM 47.9°F8.8°C 42.6°F5.9°C 56% 2.0 mph E3.2 kmh E -- 29.51 in999.3 mb 0.03 in0.8 mm 0.00 in0.0 mm 3.67 in93.2 mm
10:07 AM 47.8°F8.8°C 42.6°F5.9°C 56% 2.0 mph S3.2 kmh S -- 29.51 in999.3 mb 0.02 in0.5 mm 0.00 in0.0 mm 3.67 in93.2 mm
10:08 AM 47.6°F8.7°C 42.6°F5.9°C 56% 2.0 mph S3.2 kmh S -- 29.51 in999.3 mb 0.02 in0.5 mm 0.00 in0.0 mm 3.67 in93.2 mm
10:09 AM 47.5°F8.6°C 42.7°F5.9°C 56% 2.0 mph NNE3.2 kmh NNE -- 29.51 in999.3 mb 0.02 in0.5 mm 0.00 in0.0 mm 3.67 in93.2 mm
10:10 AM 47.5°F8.6°C 42.7°F5.9°C 56% 2.0 mph ENE3.2 kmh ENE -- 29.51 in999.3 mb 0.02 in0.5 mm 0.00 in0.0 mm 3.67 in93.2 mm
10:11 AM 47.4°F8.6°C 42.6°F5.9°C 56% 2.0 mph NNE3.2 kmh NNE -- 29.52 in999.7 mb 0.02 in0.5 mm 0.00 in0.0 mm 3.67 in93.2 mm
10:12 AM 47.4°F8.6°C 42.6°F5.9°C 56% 1.0 mph ESE1.6 kmh ESE -- 29.51 in999.3 mb 0.02 in0.5 mm 0.00 in0.0 mm 3.67 in93.2 mm
10:13 AM 47.5°F8.6°C 42.6°F5.9°C 56% 1.0 mph NNE1.6 kmh NNE -- 29.51 in999.3 mb 0.02 in0.5 mm 0.00 in0.0 mm 3.67 in93.2 mm
10:14 AM 47.5°F8.6°C 42.6°F5.9°C 56% 1.0 mph NW1.6 kmh NW -- 29.51 in999.3 mb 0.02 in0.5 mm 0.00 in0.0 mm 3.67 in93.2 mm
10:15 AM 47.8°F8.8°C 42.6°F5.9°C 56% 1.0 mph E1.6 kmh E -- 29.51 in999.3 mb 0.02 in0.5 mm 0.00 in0.0 mm 3.67 in93.2 mm
10:16 AM 47.8°F8.8°C 42.6°F5.9°C 56% 1.0 mph SE1.6 kmh SE -- 29.52 in999.7 mb 0.02 in0.5 mm 0.00 in0.0 mm 3.67 in93.2 mm
10:17 AM 47.6°F8.7°C 42.6°F5.9°C 56% 1.0 mph S1.6 kmh S -- 29.51 in999.3 mb 0.02 in0.5 mm 0.00 in0.0 mm 3.67 in93.2 mm
10:18 AM 47.8°F8.8°C 42.6°F5.9°C 56% 1.0 mph N1.6 kmh N -- 29.51 in999.3 mb 0.02 in0.5 mm 0.00 in0.0 mm 3.67 in93.2 mm
10:19 AM 48.0°F8.9°C 42.6°F5.9°C 56% 1.0 mph NE1.6 kmh NE -- 29.52 in999.7 mb 0.02 in0.5 mm 0.00 in0.0 mm 3.67 in93.2 mm
10:20 AM 47.9°F8.8°C 42.6°F5.9°C 56% 1.0 mph E1.6 kmh E -- 29.51 in999.3 mb 0.02 in0.5 mm 0.00 in0.0 mm 3.67 in93.2 mm
10:21 AM 48.0°F8.9°C 42.6°F5.9°C 56% 1.0 mph NNE1.6 kmh NNE -- 29.52 in999.7 mb 0.02 in0.5 mm 0.00 in0.0 mm 3.67 in93.2 mm
10:22 AM 47.9°F8.8°C 42.6°F5.9°C 56% 1.0 mph NE1.6 kmh NE -- 29.51 in999.3 mb 0.02 in0.5 mm 0.00 in0.0 mm 3.67 in93.2 mm
10:23 AM 47.8°F8.8°C 42.6°F5.9°C 56% 1.0 mph ENE1.6 kmh ENE -- 29.51 in999.3 mb 0.02 in0.5 mm 0.00 in0.0 mm 3.67 in93.2 mm
10:24 AM 47.9°F8.8°C 42.6°F5.9°C 56% 1.0 mph SE1.6 kmh SE -- 29.52 in999.7 mb 0.02 in0.5 mm 0.00 in0.0 mm 3.67 in93.2 mm
10:25 AM 48.2°F9.0°C 42.6°F5.9°C 56% 2.0 mph WSW3.2 kmh WSW -- 29.51 in999.3 mb 0.02 in0.5 mm 0.00 in0.0 mm 3.67 in93.2 mm
10:26 AM 48.2°F9.0°C 42.6°F5.9°C 56% 2.0 mph SSW3.2 kmh SSW -- 29.51 in999.3 mb 0.02 in0.5 mm 0.00 in0.0 mm 3.67 in93.2 mm
10:27 AM 48.1°F8.9°C 42.6°F5.9°C 56% 2.0 mph SE3.2 kmh SE -- 29.52 in999.7 mb 0.02 in0.5 mm 0.00 in0.0 mm 3.67 in93.2 mm
10:28 AM 48.1°F8.9°C 42.6°F5.9°C 56% 2.0 mph E3.2 kmh E -- 29.51 in999.3 mb 0.02 in0.5 mm 0.00 in0.0 mm 3.67 in93.2 mm
10:29 AM 48.1°F8.9°C 42.6°F5.9°C 56% 2.0 mph SE3.2 kmh SE -- 29.51 in999.3 mb 0.02 in0.5 mm 0.00 in0.0 mm 3.67 in93.2 mm
10:30 AM 48.1°F8.9°C 42.6°F5.9°C 56% 2.0 mph ESE3.2 kmh ESE -- 29.51 in999.3 mb 0.02 in0.5 mm 0.00 in0.0 mm 3.67 in93.2 mm
10:31 AM 48.1°F8.9°C 42.6°F5.9°C 56% 2.0 mph SW3.2 kmh SW -- 29.52 in999.7 mb 0.02 in0.5 mm 0.00 in0.0 mm 3.67 in93.2 mm
10:32 AM 48.2°F9.0°C 42.6°F5.9°C 56% 2.0 mph NW3.2 kmh NW -- 29.51 in999.3 mb 0.02 in0.5 mm 0.00 in0.0 mm 3.67 in93.2 mm
10:33 AM 48.2°F9.0°C 42.6°F5.9°C 56% 2.0 mph NE3.2 kmh NE -- 29.51 in999.3 mb 0.02 in0.5 mm 0.00 in0.0 mm 3.67 in93.2 mm
10:34 AM 48.2°F9.0°C 42.6°F5.9°C 56% 2.0 mph E3.2 kmh E -- 29.51 in999.3 mb 0.02 in0.5 mm 0.00 in0.0 mm 3.67 in93.2 mm
10:35 AM 48.2°F9.0°C 42.6°F5.9°C 56% 2.0 mph E3.2 kmh E -- 29.51 in999.3 mb 0.02 in0.5 mm 0.00 in0.0 mm 3.67 in93.2 mm
10:36 AM 48.2°F9.0°C 42.6°F5.9°C 56% 1.0 mph NE1.6 kmh NE -- 29.51 in999.3 mb 0.02 in0.5 mm 0.00 in0.0 mm 3.67 in93.2 mm
10:37 AM 48.1°F8.9°C 42.6°F5.9°C 56% 1.0 mph ENE1.6 kmh ENE -- 29.51 in999.3 mb 0.02 in0.5 mm 0.00 in0.0 mm 3.67 in93.2 mm
10:38 AM 48.1°F8.9°C 42.6°F5.9°C 56% 1.0 mph ENE1.6 kmh ENE -- 29.51 in999.3 mb 0.02 in0.5 mm 0.00 in0.0 mm 3.67 in93.2 mm
10:39 AM 48.1°F8.9°C 42.6°F5.9°C 56% 1.0 mph ENE1.6 kmh ENE -- 29.51 in999.3 mb 0.02 in0.5 mm 0.00 in0.0 mm 3.67 in93.2 mm
10:40 AM 48.3°F9.1°C 42.6°F5.9°C 56% 1.0 mph W1.6 kmh W -- 29.52 in999.7 mb 0.01 in0.3 mm 0.00 in0.0 mm 3.67 in93.2 mm
10:41 AM 48.3°F9.1°C 42.6°F5.9°C 56% 2.0 mph N3.2 kmh N -- 29.52 in999.7 mb 0.00 in0.0 mm 0.00 in0.0 mm 3.67 in93.2 mm
10:42 AM 48.3°F9.1°C 42.6°F5.9°C 56% 2.0 mph N3.2 kmh N -- 29.52 in999.7 mb 0.00 in0.0 mm 0.00 in0.0 mm 3.67 in93.2 mm
10:43 AM 48.5°F9.2°C 42.6°F5.9°C 56% 2.0 mph N3.2 kmh N -- 29.51 in999.3 mb 0.00 in0.0 mm 0.00 in0.0 mm 3.67 in93.2 mm
10:44 AM 48.8°F9.3°C 42.6°F5.9°C 56% 2.0 mph N3.2 kmh N -- 29.52 in999.7 mb 0.01 in0.3 mm 0.60 in15.2 mm 3.68 in93.5 mm
10:45 AM 48.8°F9.3°C 42.6°F5.9°C 56% 2.0 mph WNW3.2 kmh WNW -- 29.52 in999.7 mb 0.02 in0.5 mm 0.60 in15.2 mm 3.69 in93.7 mm
10:46 AM 48.8°F9.3°C 42.6°F5.9°C 56% 2.0 mph NE3.2 kmh NE -- 29.52 in999.7 mb 0.02 in0.5 mm 0.00 in0.0 mm 3.69 in93.7 mm
10:47 AM 48.9°F9.4°C 42.6°F5.9°C 56% 1.0 mph NW1.6 kmh NW -- 29.52 in999.7 mb 0.02 in0.5 mm 0.00 in0.0 mm 3.69 in93.7 mm
10:48 AM 48.8°F9.3°C 42.6°F5.9°C 56% 1.0 mph W1.6 kmh W -- 29.52 in999.7 mb 0.02 in0.5 mm 0.00 in0.0 mm 3.69 in93.7 mm
10:49 AM 48.9°F9.4°C 42.6°F5.9°C 56% 1.0 mph W1.6 kmh W -- 29.52 in999.7 mb 0.02 in0.5 mm 0.00 in0.0 mm 3.69 in93.7 mm
10:50 AM 48.9°F9.4°C 42.6°F5.9°C 56% 1.0 mph SE1.6 kmh SE -- 29.51 in999.3 mb 0.02 in0.5 mm 0.00 in0.0 mm 3.69 in93.7 mm
10:51 AM 48.5°F9.2°C 42.6°F5.9°C 56% 1.0 mph E1.6 kmh E -- 29.52 in999.7 mb 0.02 in0.5 mm 0.00 in0.0 mm 3.69 in93.7 mm
10:52 AM 48.4°F9.1°C 42.6°F5.9°C 56% 1.0 mph SSE1.6 kmh SSE -- 29.52 in999.7 mb 0.02 in0.5 mm 0.00 in0.0 mm 3.69 in93.7 mm
10:53 AM 48.5°F9.2°C 42.6°F5.9°C 56% 1.0 mph SW1.6 kmh SW -- 29.52 in999.7 mb 0.02 in0.5 mm 0.00 in0.0 mm 3.69 in93.7 mm
10:54 AM 48.7°F9.3°C 42.6°F5.9°C 56% 2.0 mph N3.2 kmh N -- 29.51 in999.3 mb 0.02 in0.5 mm 0.00 in0.0 mm 3.69 in93.7 mm
10:55 AM 48.7°F9.3°C 42.6°F5.9°C 56% 2.0 mph E3.2 kmh E -- 29.52 in999.7 mb 0.02 in0.5 mm 0.00 in0.0 mm 3.69 in93.7 mm
10:56 AM 48.8°F9.3°C 42.6°F5.9°C 56% 1.0 mph ENE1.6 kmh ENE -- 29.52 in999.7 mb 0.02 in0.5 mm 0.00 in0.0 mm 3.69 in93.7 mm
10:57 AM 48.7°F9.3°C 42.6°F5.9°C 56% 2.0 mph NE3.2 kmh NE -- 29.52 in999.7 mb 0.02 in0.5 mm 0.00 in0.0 mm 3.69 in93.7 mm
10:58 AM 48.7°F9.3°C 42.6°F5.9°C 56% 1.0 mph NNE1.6 kmh NNE -- 29.52 in999.7 mb 0.02 in0.5 mm 0.00 in0.0 mm 3.69 in93.7 mm
10:59 AM 48.7°F9.3°C 42.6°F5.9°C 56% 2.0 mph WNW3.2 kmh WNW -- 29.52 in999.7 mb 0.02 in0.5 mm 0.00 in0.0 mm 3.69 in93.7 mm
11:01 AM 48.4°F9.1°C 42.6°F5.9°C 56% 1.0 mph SE1.6 kmh SE -- 29.52 in999.7 mb 0.02 in0.5 mm 0.00 in0.0 mm 3.69 in93.7 mm
11:02 AM 48.3°F9.1°C 42.6°F5.9°C 56% 1.0 mph ESE1.6 kmh ESE -- 29.52 in999.7 mb 0.02 in0.5 mm 0.00 in0.0 mm 3.69 in93.7 mm
11:03 AM 48.2°F9.0°C 42.6°F5.9°C 56% 1.0 mph N1.6 kmh N -- 29.52 in999.7 mb 0.02 in0.5 mm 0.00 in0.0 mm 3.69 in93.7 mm
11:04 AM 48.1°F8.9°C 42.6°F5.9°C 56% 1.0 mph N1.6 kmh N -- 29.52 in999.7 mb 0.02 in0.5 mm 0.00 in0.0 mm 3.69 in93.7 mm
11:05 AM 48.0°F8.9°C 42.6°F5.9°C 56% 1.0 mph NE1.6 kmh NE -- 29.52 in999.7 mb 0.02 in0.5 mm 0.00 in0.0 mm 3.69 in93.7 mm
11:06 AM 48.0°F8.9°C 42.6°F5.9°C 56% 1.0 mph ENE1.6 kmh ENE -- 29.52 in999.7 mb 0.02 in0.5 mm 0.00 in0.0 mm 3.69 in93.7 mm
11:07 AM 48.4°F9.1°C 42.6°F5.9°C 56% 1.0 mph NNE1.6 kmh NNE -- 29.52 in999.7 mb 0.02 in0.5 mm 0.00 in0.0 mm 3.69 in93.7 mm
11:08 AM 48.8°F9.3°C 42.6°F5.9°C 56% 1.0 mph ENE1.6 kmh ENE -- 29.52 in999.7 mb 0.02 in0.5 mm 0.00 in0.0 mm 3.69 in93.7 mm
11:09 AM 48.8°F9.3°C 42.7°F5.9°C 56% 1.0 mph WSW1.6 kmh WSW -- 29.52 in999.7 mb 0.02 in0.5 mm 0.00 in0.0 mm 3.69 in93.7 mm
11:10 AM 48.8°F9.3°C 42.6°F5.9°C 56% 1.0 mph NNE1.6 kmh NNE -- 29.52 in999.7 mb 0.02 in0.5 mm 0.00 in0.0 mm 3.69 in93.7 mm
11:11 AM 49.0°F9.4°C 42.7°F5.9°C 56% 2.0 mph E3.2 kmh E -- 29.52 in999.7 mb 0.02 in0.5 mm 0.00 in0.0 mm 3.69 in93.7 mm
11:12 AM 48.9°F9.4°C 42.6°F5.9°C 56% 2.0 mph E3.2 kmh E -- 29.52 in999.7 mb 0.02 in0.5 mm 0.00 in0.0 mm 3.69 in93.7 mm
11:13 AM 48.8°F9.3°C 42.6°F5.9°C 56% 2.0 mph E3.2 kmh E -- 29.52 in999.7 mb 0.02 in0.5 mm 0.00 in0.0 mm 3.69 in93.7 mm
11:14 AM 48.8°F9.3°C 42.7°F5.9°C 56% 2.0 mph ENE3.2 kmh ENE -- 29.52 in999.7 mb 0.02 in0.5 mm 0.00 in0.0 mm 3.69 in93.7 mm
11:15 AM 48.5°F9.2°C 42.7°F5.9°C 56% 2.0 mph ESE3.2 kmh ESE -- 29.52 in999.7 mb 0.02 in0.5 mm 0.00 in0.0 mm 3.69 in93.7 mm
11:16 AM 48.7°F9.3°C 42.6°F5.9°C 56% 1.0 mph E1.6 kmh E -- 29.52 in999.7 mb 0.02 in0.5 mm 0.00 in0.0 mm 3.69 in93.7 mm
11:17 AM 48.9°F9.4°C 42.6°F5.9°C 56% 1.0 mph W1.6 kmh W -- 29.52 in999.7 mb 0.02 in0.5 mm 0.00 in0.0 mm 3.69 in93.7 mm
11:18 AM 49.2°F9.6°C 42.6°F5.9°C 56% 1.0 mph WNW1.6 kmh WNW -- 29.53 in1000.0 mb 0.02 in0.5 mm 0.00 in0.0 mm 3.69 in93.7 mm
11:19 AM 49.4°F9.7°C 42.7°F5.9°C 56% 1.0 mph NNE1.6 kmh NNE -- 29.53 in1000.0 mb 0.02 in0.5 mm 0.00 in0.0 mm 3.69 in93.7 mm
11:20 AM 49.4°F9.7°C 42.7°F5.9°C 56% 1.0 mph NNE1.6 kmh NNE -- 29.53 in1000.0 mb 0.02 in0.5 mm 0.00 in0.0 mm 3.69 in93.7 mm
11:21 AM 49.7°F9.8°C 42.6°F5.9°C 56% 1.0 mph S1.6 kmh S -- 29.52 in999.7 mb 0.02 in0.5 mm 0.00 in0.0 mm 3.69 in93.7 mm
11:22 AM 49.7°F9.8°C 42.6°F5.9°C 56% 1.0 mph S1.6 kmh S -- 29.52 in999.7 mb 0.02 in0.5 mm 0.00 in0.0 mm 3.69 in93.7 mm
11:23 AM 49.9°F9.9°C 42.7°F5.9°C 56% 1.0 mph SE1.6 kmh SE -- 29.52 in999.7 mb 0.02 in0.5 mm 0.00 in0.0 mm 3.69 in93.7 mm
11:24 AM 49.8°F9.9°C 42.6°F5.9°C 56% 1.0 mph NE1.6 kmh NE -- 29.52 in999.7 mb 0.02 in0.5 mm 0.00 in0.0 mm 3.69 in93.7 mm
11:25 AM 49.7°F9.8°C 42.6°F5.9°C 56% 1.0 mph SE1.6 kmh SE -- 29.52 in999.7 mb 0.02 in0.5 mm 0.00 in0.0 mm 3.69 in93.7 mm
11:26 AM 49.6°F9.8°C 42.7°F5.9°C 56% 1.0 mph WNW1.6 kmh WNW -- 29.52 in999.7 mb 0.02 in0.5 mm 0.00 in0.0 mm 3.69 in93.7 mm
11:27 AM 49.7°F9.8°C 42.7°F5.9°C 56% 1.0 mph NNW1.6 kmh NNW -- 29.52 in999.7 mb 0.02 in0.5 mm 0.00 in0.0 mm 3.69 in93.7 mm
11:28 AM 49.8°F9.9°C 42.7°F5.9°C 56% 1.0 mph NW1.6 kmh NW -- 29.52 in999.7 mb 0.02 in0.5 mm 0.00 in0.0 mm 3.69 in93.7 mm
11:29 AM 49.9°F9.9°C 42.7°F5.9°C 56% 2.0 mph ESE3.2 kmh ESE -- 29.52 in999.7 mb 0.02 in0.5 mm 0.00 in0.0 mm 3.69 in93.7 mm
11:30 AM 49.7°F9.8°C 42.7°F5.9°C 56% 2.0 mph NW3.2 kmh NW -- 29.52 in999.7 mb 0.02 in0.5 mm 0.00 in0.0 mm 3.69 in93.7 mm
11:31 AM 49.8°F9.9°C 42.7°F5.9°C 56% 2.0 mph SW3.2 kmh SW -- 29.52 in999.7 mb 0.02 in0.5 mm 0.00 in0.0 mm 3.69 in93.7 mm
11:32 AM 49.9°F9.9°C 42.7°F5.9°C 56% 2.0 mph SSW3.2 kmh SSW -- 29.52 in999.7 mb 0.02 in0.5 mm 0.00 in0.0 mm 3.69 in93.7 mm
11:33 AM 49.9°F9.9°C 42.7°F5.9°C 56% 2.0 mph SSW3.2 kmh SSW -- 29.52 in999.7 mb 0.02 in0.5 mm 0.00 in0.0 mm 3.69 in93.7 mm
11:34 AM 49.9°F9.9°C 42.7°F5.9°C 56% 2.0 mph SSW3.2 kmh SSW -- 29.52 in999.7 mb 0.02 in0.5 mm 0.00 in0.0 mm 3.69 in93.7 mm
11:35 AM 49.9°F9.9°C 42.7°F5.9°C 56% 2.0 mph SE3.2 kmh SE -- 29.52 in999.7 mb 0.02 in0.5 mm 0.00 in0.0 mm 3.69 in93.7 mm
11:36 AM 50.0°F10.0°C 42.7°F5.9°C 56% 2.0 mph SSE3.2 kmh SSE -- 29.52 in999.7 mb 0.02 in0.5 mm 0.00 in0.0 mm 3.69 in93.7 mm
11:37 AM 50.0°F10.0°C 42.7°F5.9°C 56% 2.0 mph NW3.2 kmh NW -- 29.52 in999.7 mb 0.02 in0.5 mm 0.00 in0.0 mm 3.69 in93.7 mm
11:38 AM 50.1°F10.1°C 42.7°F5.9°C 56% 2.0 mph NE3.2 kmh NE -- 29.52 in999.7 mb 0.02 in0.5 mm 0.00 in0.0 mm 3.69 in93.7 mm
11:39 AM 49.9°F9.9°C 42.7°F5.9°C 56% 2.0 mph NW3.2 kmh NW -- 29.52 in999.7 mb 0.02 in0.5 mm 0.00 in0.0 mm 3.69 in93.7 mm
11:40 AM 50.1°F10.1°C 42.7°F5.9°C 56% 2.0 mph NW3.2 kmh NW -- 29.52 in999.7 mb 0.02 in0.5 mm 0.00 in0.0 mm 3.69 in93.7 mm
11:41 AM 50.1°F10.1°C 42.7°F5.9°C 56% 1.0 mph ENE1.6 kmh ENE -- 29.52 in999.7 mb 0.02 in0.5 mm 0.00 in0.0 mm 3.69 in93.7 mm
11:42 AM 50.1°F10.1°C 42.7°F5.9°C 56% 1.0 mph ENE1.6 kmh ENE -- 29.52 in999.7 mb 0.02 in0.5 mm 0.00 in0.0 mm 3.69 in93.7 mm
11:43 AM 49.9°F9.9°C 42.7°F5.9°C 56% 1.0 mph NE1.6 kmh NE -- 29.53 in1000.0 mb 0.02 in0.5 mm 0.00 in0.0 mm 3.69 in93.7 mm
11:44 AM 49.9°F9.9°C 42.7°F5.9°C 56% 1.0 mph WNW1.6 kmh WNW -- 29.53 in1000.0 mb 0.01 in0.3 mm 0.00 in0.0 mm 3.69 in93.7 mm
11:45 AM 50.0°F10.0°C 42.7°F5.9°C 56% 1.0 mph ENE1.6 kmh ENE -- 29.53 in1000.0 mb 0.00 in0.0 mm 0.00 in0.0 mm 3.69 in93.7 mm
11:46 AM 50.0°F10.0°C 42.7°F5.9°C 56% 1.0 mph SE1.6 kmh SE -- 29.52 in999.7 mb 0.00 in0.0 mm 0.00 in0.0 mm 3.69 in93.7 mm
11:47 AM 49.9°F9.9°C 42.7°F5.9°C 56% 1.0 mph SE1.6 kmh SE -- 29.52 in999.7 mb 0.00 in0.0 mm 0.00 in0.0 mm 3.69 in93.7 mm
11:48 AM 49.8°F9.9°C 42.7°F5.9°C 56% 1.0 mph SE1.6 kmh SE -- 29.52 in999.7 mb 0.00 in0.0 mm 0.00 in0.0 mm 3.69 in93.7 mm
11:49 AM 49.9°F9.9°C 42.7°F5.9°C 56% 1.0 mph SE1.6 kmh SE -- 29.52 in999.7 mb 0.00 in0.0 mm 0.00 in0.0 mm 3.69 in93.7 mm
11:50 AM 49.8°F9.9°C 42.7°F5.9°C 56% 1.0 mph SSE1.6 kmh SSE -- 29.52 in999.7 mb 0.00 in0.0 mm 0.00 in0.0 mm 3.69 in93.7 mm
11:51 AM 49.8°F9.9°C 42.7°F5.9°C 56% 1.0 mph NE1.6 kmh NE -- 29.52 in999.7 mb 0.00 in0.0 mm 0.00 in0.0 mm 3.69 in93.7 mm
11:52 AM 50.0°F10.0°C 42.7°F5.9°C 56% 1.0 mph NE1.6 kmh NE -- 29.53 in1000.0 mb 0.00 in0.0 mm 0.00 in0.0 mm 3.69 in93.7 mm
11:53 AM 49.9°F9.9°C 42.7°F5.9°C 56% 1.0 mph SE1.6 kmh SE -- 29.52 in999.7 mb 0.00 in0.0 mm 0.00 in0.0 mm 3.69 in93.7 mm
11:54 AM 50.0°F10.0°C 42.7°F5.9°C 56% 1.0 mph NE1.6 kmh NE -- 29.53 in1000.0 mb 0.00 in0.0 mm 0.00 in0.0 mm 3.69 in93.7 mm
11:55 AM 49.9°F9.9°C 42.7°F5.9°C 56% 2.0 mph NNW3.2 kmh NNW -- 29.52 in999.7 mb 0.00 in0.0 mm 0.00 in0.0 mm 3.69 in93.7 mm
11:56 AM 49.9°F9.9°C 42.7°F5.9°C 56% 1.0 mph E1.6 kmh E -- 29.53 in1000.0 mb 0.00 in0.0 mm 0.00 in0.0 mm 3.69 in93.7 mm
11:57 AM 49.9°F9.9°C 42.7°F5.9°C 56% 2.0 mph S3.2 kmh S -- 29.52 in999.7 mb 0.00 in0.0 mm 0.00 in0.0 mm 3.69 in93.7 mm
11:58 AM 50.0°F10.0°C 42.7°F5.9°C 56% 2.0 mph E3.2 kmh E -- 29.52 in999.7 mb 0.00 in0.0 mm 0.00 in0.0 mm 3.69 in93.7 mm
11:59 AM 50.1°F10.1°C 42.7°F5.9°C 56% 2.0 mph SE3.2 kmh SE -- 29.52 in999.7 mb 0.00 in0.0 mm 0.00 in0.0 mm 3.69 in93.7 mm
12:01 PM 50.0°F10.0°C 42.7°F5.9°C 56% 2.0 mph NNE3.2 kmh NNE -- 29.52 in999.7 mb 0.00 in0.0 mm 0.00 in0.0 mm 3.69 in93.7 mm
12:02 PM 50.0°F10.0°C 42.7°F5.9°C 56% 2.0 mph N3.2 kmh N -- 29.52 in999.7 mb 0.00 in0.0 mm 0.00 in0.0 mm 3.69 in93.7 mm
12:03 PM 50.1°F10.1°C 42.7°F5.9°C 56% 2.0 mph NE3.2 kmh NE -- 29.52 in999.7 mb 0.00 in0.0 mm 0.00 in0.0 mm 3.69 in93.7 mm
12:04 PM 50.1°F10.1°C 42.7°F5.9°C 56% 2.0 mph N3.2 kmh N -- 29.52 in999.7 mb 0.00 in0.0 mm 0.00 in0.0 mm 3.69 in93.7 mm
12:05 PM 50.1°F10.1°C 42.7°F5.9°C 56% 2.0 mph E3.2 kmh E -- 29.52 in999.7 mb 0.00 in0.0 mm 0.00 in0.0 mm 3.69 in93.7 mm
12:06 PM 50.1°F10.1°C 42.7°F5.9°C 56% 2.0 mph ENE3.2 kmh ENE -- 29.52 in999.7 mb 0.00 in0.0 mm 0.00 in0.0 mm 3.69 in93.7 mm
12:07 PM 50.2°F10.1°C 42.7°F5.9°C 56% 2.0 mph ENE3.2 kmh ENE -- 29.52 in999.7 mb 0.00 in0.0 mm 0.00 in0.0 mm 3.69 in93.7 mm
12:08 PM 50.2°F10.1°C 42.7°F5.9°C 56% 2.0 mph SSE3.2 kmh SSE -- 29.52 in999.7 mb 0.00 in0.0 mm 0.00 in0.0 mm 3.69 in93.7 mm
12:09 PM 50.2°F10.1°C 42.7°F5.9°C 56% 2.0 mph E3.2 kmh E -- 29.52 in999.7 mb 0.00 in0.0 mm 0.00 in0.0 mm 3.69 in93.7 mm
12:10 PM 50.2°F10.1°C 42.8°F6.0°C 56% 2.0 mph W3.2 kmh W -- 29.52 in999.7 mb 0.00 in0.0 mm 0.00 in0.0 mm 3.69 in93.7 mm
12:11 PM 50.2°F10.1°C 42.7°F5.9°C 56% 2.0 mph E3.2 kmh E -- 29.52 in999.7 mb 0.00 in0.0 mm 0.00 in0.0 mm 3.69 in93.7 mm
12:12 PM 50.2°F10.1°C 42.7°F5.9°C 56% 2.0 mph ENE3.2 kmh ENE -- 29.52 in999.7 mb 0.00 in0.0 mm 0.00 in0.0 mm 3.69 in93.7 mm
12:13 PM 50.3°F10.2°C 42.8°F6.0°C 56% 2.0 mph WSW3.2 kmh WSW -- 29.52 in999.7 mb 0.00 in0.0 mm 0.00 in0.0 mm 3.69 in93.7 mm
12:14 PM 50.1°F10.1°C 42.8°F6.0°C 56% 2.0 mph N3.2 kmh N -- 29.52 in999.7 mb 0.00 in0.0 mm 0.00 in0.0 mm 3.69 in93.7 mm
12:15 PM 50.3°F10.2°C 42.7°F5.9°C 56% 2.0 mph NNW3.2 kmh NNW -- 29.52 in999.7 mb 0.00 in0.0 mm 0.00 in0.0 mm 3.69 in93.7 mm
12:16 PM 50.6°F10.3°C 42.8°F6.0°C 56% 2.0 mph N3.2 kmh N -- 29.52 in999.7 mb 0.00 in0.0 mm 0.00 in0.0 mm 3.69 in93.7 mm
12:17 PM 50.8°F10.4°C 42.8°F6.0°C 56% 2.0 mph N3.2 kmh N -- 29.52 in999.7 mb 0.00 in0.0 mm 0.00 in0.0 mm 3.69 in93.7 mm
12:18 PM 50.9°F10.5°C 42.8°F6.0°C 56% 2.0 mph WSW3.2 kmh WSW -- 29.52 in999.7 mb 0.00 in0.0 mm 0.00 in0.0 mm 3.69 in93.7 mm
12:19 PM 50.8°F10.4°C 42.8°F6.0°C 56% 2.0 mph NNE3.2 kmh NNE -- 29.52 in999.7 mb 0.00 in0.0 mm 0.00 in0.0 mm 3.69 in93.7 mm
12:20 PM 50.8°F10.4°C 42.8°F6.0°C 56% 2.0 mph SE3.2 kmh SE -- 29.52 in999.7 mb 0.00 in0.0 mm 0.00 in0.0 mm 3.69 in93.7 mm
12:21 PM 50.8°F10.4°C 42.8°F6.0°C 56% 2.0 mph SE3.2 kmh SE -- 29.52 in999.7 mb 0.00 in0.0 mm 0.00 in0.0 mm 3.69 in93.7 mm
12:22 PM 50.8°F10.4°C 42.8°F6.0°C 56% 2.0 mph ENE3.2 kmh ENE -- 29.52 in999.7 mb 0.00 in0.0 mm 0.00 in0.0 mm 3.69 in93.7 mm
12:23 PM 51.0°F10.6°C 42.8°F6.0°C 56% 2.0 mph NW3.2 kmh NW -- 29.52 in999.7 mb 0.00 in0.0 mm 0.00 in0.0 mm 3.69 in93.7 mm
12:24 PM 51.1°F10.6°C 42.8°F6.0°C 56% 2.0 mph NNE3.2 kmh NNE -- 29.52 in999.7 mb 0.00 in0.0 mm 0.00 in0.0 mm 3.69 in93.7 mm
12:25 PM 51.1°F10.6°C 42.8°F6.0°C 56% 2.0 mph NW3.2 kmh NW -- 29.52 in999.7 mb 0.00 in0.0 mm 0.00 in0.0 mm 3.69 in93.7 mm
12:26 PM 51.1°F10.6°C 42.8°F6.0°C 56% 2.0 mph ESE3.2 kmh ESE -- 29.52 in999.7 mb 0.00 in0.0 mm 0.00 in0.0 mm 3.69 in93.7 mm
12:27 PM 51.1°F10.6°C 42.8°F6.0°C 56% 2.0 mph ESE3.2 kmh ESE -- 29.52 in999.7 mb 0.00 in0.0 mm 0.00 in0.0 mm 3.69 in93.7 mm
12:28 PM 50.9°F10.5°C 42.8°F6.0°C 56% 2.0 mph ESE3.2 kmh ESE -- 29.52 in999.7 mb 0.00 in0.0 mm 0.00 in0.0 mm 3.69 in93.7 mm
12:29 PM 50.9°F10.5°C 42.8°F6.0°C 56% 2.0 mph N3.2 kmh N -- 29.52 in999.7 mb 0.00 in0.0 mm 0.00 in0.0 mm 3.69 in93.7 mm
12:30 PM 50.9°F10.5°C 42.8°F6.0°C 56% 2.0 mph N3.2 kmh N -- 29.52 in999.7 mb 0.00 in0.0 mm 0.00 in0.0 mm 3.69 in93.7 mm
12:31 PM 50.9°F10.5°C 42.8°F6.0°C 56% 2.0 mph N3.2 kmh N -- 29.53 in1000.0 mb 0.00 in0.0 mm 0.00 in0.0 mm 3.69 in93.7 mm
12:32 PM 50.9°F10.5°C 42.8°F6.0°C 56% 2.0 mph NW3.2 kmh NW -- 29.53 in1000.0 mb 0.00 in0.0 mm 0.00 in0.0 mm 3.69 in93.7 mm
12:33 PM 50.9°F10.5°C 42.8°F6.0°C 56% 2.0 mph W3.2 kmh W -- 29.53 in1000.0 mb 0.00 in0.0 mm 0.00 in0.0 mm 3.69 in93.7 mm
12:34 PM 50.8°F10.4°C 42.8°F6.0°C 56% 1.0 mph SW1.6 kmh SW -- 29.53 in1000.0 mb 0.00 in0.0 mm 0.00 in0.0 mm 3.69 in93.7 mm
12:35 PM 50.8°F10.4°C 42.8°F6.0°C 56% 1.0 mph WSW1.6 kmh WSW -- 29.53 in1000.0 mb 0.00 in0.0 mm 0.00 in0.0 mm 3.69 in93.7 mm
12:36 PM 50.9°F10.5°C 42.8°F6.0°C 56% 1.0 mph E1.6 kmh E -- 29.53 in1000.0 mb 0.00 in0.0 mm 0.00 in0.0 mm 3.69 in93.7 mm
12:37 PM 50.8°F10.4°C 42.8°F6.0°C 56% 1.0 mph E1.6 kmh E -- 29.53 in1000.0 mb 0.00 in0.0 mm 0.00 in0.0 mm 3.69 in93.7 mm
12:38 PM 50.8°F10.4°C 42.8°F6.0°C 56% 1.0 mph NE1.6 kmh NE -- 29.53 in1000.0 mb 0.00 in0.0 mm 0.00 in0.0 mm 3.69 in93.7 mm
12:39 PM 50.7°F10.4°C 42.8°F6.0°C 56% 1.0 mph NW1.6 kmh NW -- 29.52 in999.7 mb 0.00 in0.0 mm 0.00 in0.0 mm 3.69 in93.7 mm
12:40 PM 50.7°F10.4°C 42.9°F6.1°C 56% 2.0 mph WSW3.2 kmh WSW -- 29.53 in1000.0 mb 0.00 in0.0 mm 0.00 in0.0 mm 3.69 in93.7 mm
12:41 PM 50.8°F10.4°C 42.8°F6.0°C 56% 2.0 mph NNE3.2 kmh NNE -- 29.52 in999.7 mb 0.00 in0.0 mm 0.00 in0.0 mm 3.69 in93.7 mm
12:42 PM 50.9°F10.5°C 42.9°F6.1°C 56% 1.0 mph WSW1.6 kmh WSW -- 29.53 in1000.0 mb 0.00 in0.0 mm 0.00 in0.0 mm 3.69 in93.7 mm
12:43 PM 50.9°F10.5°C 42.8°F6.0°C 56% 1.0 mph W1.6 kmh W -- 29.53 in1000.0 mb 0.00 in0.0 mm 0.00 in0.0 mm 3.69 in93.7 mm
12:44 PM 50.7°F10.4°C 42.9°F6.1°C 56% 2.0 mph NW3.2 kmh NW -- 29.53 in1000.0 mb 0.00 in0.0 mm 0.00 in0.0 mm 3.69 in93.7 mm
12:45 PM 50.8°F10.4°C 42.9°F6.1°C 56% 2.0 mph WSW3.2 kmh WSW -- 29.53 in1000.0 mb 0.00 in0.0 mm 0.00 in0.0 mm 3.69 in93.7 mm
12:46 PM 51.0°F10.6°C 42.9°F6.1°C 56% 2.0 mph ENE3.2 kmh ENE -- 29.53 in1000.0 mb 0.00 in0.0 mm 0.00 in0.0 mm 3.69 in93.7 mm
12:47 PM 51.1°F10.6°C 42.9°F6.1°C 56% 2.0 mph SE3.2 kmh SE -- 29.52 in999.7 mb 0.00 in0.0 mm 0.00 in0.0 mm 3.69 in93.7 mm
12:48 PM 51.2°F10.7°C 42.9°F6.1°C 56% 2.0 mph SSE3.2 kmh SSE -- 29.52 in999.7 mb 0.00 in0.0 mm 0.00 in0.0 mm 3.69 in93.7 mm
12:49 PM 51.1°F10.6°C 42.9°F6.1°C 56% 2.0 mph NE3.2 kmh NE -- 29.53 in1000.0 mb 0.00 in0.0 mm 0.00 in0.0 mm 3.69 in93.7 mm
12:50 PM 51.1°F10.6°C 42.9°F6.1°C 56% 2.0 mph N3.2 kmh N -- 29.53 in1000.0 mb 0.00 in0.0 mm 0.00 in0.0 mm 3.69 in93.7 mm
12:51 PM 51.2°F10.7°C 42.9°F6.1°C 56% 2.0 mph NW3.2 kmh NW -- 29.53 in1000.0 mb 0.00 in0.0 mm 0.00 in0.0 mm 3.69 in93.7 mm
12:52 PM 51.5°F10.8°C 42.9°F6.1°C 56% 2.0 mph WNW3.2 kmh WNW -- 29.53 in1000.0 mb 0.00 in0.0 mm 0.00 in0.0 mm 3.69 in93.7 mm
12:53 PM 51.5°F10.8°C 42.9°F6.1°C 56% 2.0 mph WNW3.2 kmh WNW -- 29.52 in999.7 mb 0.00 in0.0 mm 0.00 in0.0 mm 3.69 in93.7 mm
12:54 PM 51.5°F10.8°C 42.9°F6.1°C 56% 2.0 mph WNW3.2 kmh WNW -- 29.52 in999.7 mb 0.00 in0.0 mm 0.00 in0.0 mm 3.69 in93.7 mm
12:55 PM 51.1°F10.6°C 42.9°F6.1°C 56% 2.0 mph SE3.2 kmh SE -- 29.52 in999.7 mb 0.00 in0.0 mm 0.00 in0.0 mm 3.69 in93.7 mm
12:56 PM 51.1°F10.6°C 42.9°F6.1°C 56% 2.0 mph NW3.2 kmh NW -- 29.53 in1000.0 mb 0.00 in0.0 mm 0.00 in0.0 mm 3.69 in93.7 mm
12:57 PM 51.0°F10.6°C 42.9°F6.1°C 56% 2.0 mph NW3.2 kmh NW -- 29.53 in1000.0 mb 0.00 in0.0 mm 0.00 in0.0 mm 3.69 in93.7 mm
12:58 PM 51.0°F10.6°C 42.9°F6.1°C 56% 1.0 mph S1.6 kmh S -- 29.53 in1000.0 mb 0.00 in0.0 mm 0.00 in0.0 mm 3.69 in93.7 mm
12:59 PM 50.9°F10.5°C 42.9°F6.1°C 56% 1.0 mph NW1.6 kmh NW -- 29.53 in1000.0 mb 0.00 in0.0 mm 0.00 in0.0 mm 3.69 in93.7 mm
01:01 PM 50.8°F10.4°C 42.9°F6.1°C 56% 1.0 mph NNW1.6 kmh NNW -- 29.53 in1000.0 mb 0.00 in0.0 mm 0.00 in0.0 mm 3.69 in93.7 mm
01:02 PM 50.9°F10.5°C 42.9°F6.1°C 56% 1.0 mph SSE1.6 kmh SSE -- 29.53 in1000.0 mb 0.00 in0.0 mm 0.00 in0.0 mm 3.69 in93.7 mm
01:03 PM 50.9°F10.5°C 42.9°F6.1°C 56% 1.0 mph E1.6 kmh E -- 29.53 in1000.0 mb 0.00 in0.0 mm 0.00 in0.0 mm 3.69 in93.7 mm
01:04 PM 50.8°F10.4°C 42.9°F6.1°C 56% 1.0 mph SSW1.6 kmh SSW -- 29.53 in1000.0 mb 0.00 in0.0 mm 0.00 in0.0 mm 3.69 in93.7 mm
01:05 PM 50.7°F10.4°C 42.9°F6.1°C 56% 1.0 mph N1.6 kmh N -- 29.53 in1000.0 mb 0.00 in0.0 mm 0.00 in0.0 mm 3.69 in93.7 mm
01:06 PM 50.6°F10.3°C 43.0°F6.1°C 56% 1.0 mph NW1.6 kmh NW -- 29.53 in1000.0 mb 0.00 in0.0 mm 0.00 in0.0 mm 3.69 in93.7 mm
01:07 PM 50.6°F10.3°C 42.9°F6.1°C 56% 1.0 mph NNW1.6 kmh NNW -- 29.53 in1000.0 mb 0.00 in0.0 mm 0.00 in0.0 mm 3.69 in93.7 mm
01:08 PM 50.6°F10.3°C 43.0°F6.1°C 56% 1.0 mph NNE1.6 kmh NNE -- 29.53 in1000.0 mb 0.00 in0.0 mm 0.00 in0.0 mm 3.69 in93.7 mm
01:09 PM 50.6°F10.3°C 42.9°F6.1°C 56% 1.0 mph N1.6 kmh N -- 29.53 in1000.0 mb 0.00 in0.0 mm 0.00 in0.0 mm 3.69 in93.7 mm
01:10 PM 50.6°F10.3°C 43.0°F6.1°C 56% 1.0 mph N1.6 kmh N -- 29.53 in1000.0 mb 0.00 in0.0 mm 0.00 in0.0 mm 3.69 in93.7 mm
01:11 PM 50.6°F10.3°C 43.0°F6.1°C 56% 1.0 mph N1.6 kmh N -- 29.53 in1000.0 mb 0.00 in0.0 mm 0.00 in0.0 mm 3.69 in93.7 mm
01:12 PM 50.6°F10.3°C 43.0°F6.1°C 56% 1.0 mph N1.6 kmh N -- 29.53 in1000.0 mb 0.00 in0.0 mm 0.00 in0.0 mm 3.69 in93.7 mm
01:13 PM 50.6°F10.3°C 43.0°F6.1°C 56% 1.0 mph N1.6 kmh N -- 29.53 in1000.0 mb 0.00 in0.0 mm 0.00 in0.0 mm 3.69 in93.7 mm
01:14 PM 50.6°F10.3°C 43.0°F6.1°C 56% 1.0 mph E1.6 kmh E -- 29.53 in1000.0 mb 0.00 in0.0 mm 0.00 in0.0 mm 3.69 in93.7 mm
01:15 PM 50.6°F10.3°C 43.0°F6.1°C 56% 1.0 mph E1.6 kmh E -- 29.53 in1000.0 mb 0.00 in0.0 mm 0.00 in0.0 mm 3.69 in93.7 mm
01:16 PM 50.6°F10.3°C 43.0°F6.1°C 56% 1.0 mph E1.6 kmh E -- 29.53 in1000.0 mb 0.00 in0.0 mm 0.00 in0.0 mm 3.69 in93.7 mm
01:17 PM 50.7°F10.4°C 43.0°F6.1°C 56% Calm Calm -- 29.53 in1000.0 mb 0.00 in0.0 mm 0.00 in0.0 mm 3.69 in93.7 mm
01:18 PM 50.8°F10.4°C 43.0°F6.1°C 56% Calm Calm -- 29.53 in1000.0 mb 0.00 in0.0 mm 0.00 in0.0 mm 3.69 in93.7 mm
01:19 PM 50.8°F10.4°C 43.0°F6.1°C 56% Calm Calm -- 29.53 in1000.0 mb 0.00 in0.0 mm 0.00 in0.0 mm 3.69 in93.7 mm
01:20 PM 50.8°F10.4°C 43.0°F6.1°C 56% Calm Calm -- 29.53 in1000.0 mb 0.00 in0.0 mm 0.00 in0.0 mm 3.69 in93.7 mm
01:21 PM 50.8°F10.4°C 43.1°F6.2°C 56% 1.0 mph NE1.6 kmh NE -- 29.53 in1000.0 mb 0.00 in0.0 mm 0.00 in0.0 mm 3.69 in93.7 mm
01:22 PM 50.7°F10.4°C 43.0°F6.1°C 56% 1.0 mph WNW1.6 kmh WNW -- 29.53 in1000.0 mb 0.00 in0.0 mm 0.00 in0.0 mm 3.69 in93.7 mm
01:23 PM 50.6°F10.3°C 43.0°F6.1°C 56% 1.0 mph NW1.6 kmh NW -- 29.53 in1000.0 mb 0.00 in0.0 mm 0.00 in0.0 mm 3.69 in93.7 mm
01:24 PM 50.5°F10.3°C 43.0°F6.1°C 56% 1.0 mph SE1.6 kmh SE -- 29.53 in1000.0 mb 0.00 in0.0 mm 0.00 in0.0 mm 3.69 in93.7 mm
01:25 PM 50.2°F10.1°C 43.1°F6.2°C 56% 1.0 mph N1.6 kmh N -- 29.53 in1000.0 mb 0.00 in0.0 mm 0.00 in0.0 mm 3.69 in93.7 mm
01:26 PM 50.0°F10.0°C 43.1°F6.2°C 56% 1.0 mph NW1.6 kmh NW -- 29.53 in1000.0 mb 0.00 in0.0 mm 0.00 in0.0 mm 3.69 in93.7 mm
01:27 PM 49.9°F9.9°C 43.1°F6.2°C 56% 1.0 mph NW1.6 kmh NW -- 29.53 in1000.0 mb 0.00 in0.0 mm 0.00 in0.0 mm 3.69 in93.7 mm
01:28 PM 49.9°F9.9°C 43.1°F6.2°C 56% 1.0 mph NNW1.6 kmh NNW -- 29.53 in1000.0 mb 0.00 in0.0 mm 0.00 in0.0 mm 3.69 in93.7 mm
01:29 PM 49.9°F9.9°C 43.1°F6.2°C 56% 1.0 mph NE1.6 kmh NE -- 29.53 in1000.0 mb 0.00 in0.0 mm 0.00 in0.0 mm 3.69 in93.7 mm
01:30 PM 49.8°F9.9°C 43.1°F6.2°C 56% 1.0 mph NE1.6 kmh NE -- 29.53 in1000.0 mb 0.00 in0.0 mm 0.00 in0.0 mm 3.69 in93.7 mm
01:31 PM 49.8°F9.9°C 43.1°F6.2°C 56% 1.0 mph NW1.6 kmh NW -- 29.53 in1000.0 mb 0.00 in0.0 mm 0.00 in0.0 mm 3.69 in93.7 mm
01:32 PM 49.8°F9.9°C 43.1°F6.2°C 56% 1.0 mph NW1.6 kmh NW -- 29.53 in1000.0 mb 0.00 in0.0 mm 0.00 in0.0 mm 3.69 in93.7 mm
01:33 PM 49.8°F9.9°C 43.1°F6.2°C 56% 1.0 mph NW1.6 kmh NW -- 29.53 in1000.0 mb 0.00 in0.0 mm 0.00 in0.0 mm 3.69 in93.7 mm
01:34 PM 49.8°F9.9°C 43.1°F6.2°C 56% 1.0 mph S1.6 kmh S -- 29.53 in1000.0 mb 0.00 in0.0 mm 0.00 in0.0 mm 3.69 in93.7 mm
01:35 PM 49.8°F9.9°C 43.1°F6.2°C 56% 1.0 mph ESE1.6 kmh ESE -- 29.53 in1000.0 mb 0.00 in0.0 mm 0.00 in0.0 mm 3.69 in93.7 mm
01:36 PM 49.7°F9.8°C 43.1°F6.2°C 56% 1.0 mph ESE1.6 kmh ESE -- 29.53 in1000.0 mb 0.00 in0.0 mm 0.00 in0.0 mm 3.69 in93.7 mm
01:37 PM 49.7°F9.8°C 43.1°F6.2°C 56% 1.0 mph SE1.6 kmh SE -- 29.53 in1000.0 mb 0.00 in0.0 mm 0.00 in0.0 mm 3.69 in93.7 mm
01:38 PM 49.6°F9.8°C 43.1°F6.2°C 56% 1.0 mph ENE1.6 kmh ENE -- 29.53 in1000.0 mb 0.00 in0.0 mm 0.00 in0.0 mm 3.69 in93.7 mm
01:39 PM 49.6°F9.8°C 43.1°F6.2°C 56% 1.0 mph NNE1.6 kmh NNE -- 29.53 in1000.0 mb 0.00 in0.0 mm 0.00 in0.0 mm 3.69 in93.7 mm
01:40 PM 49.4°F9.7°C 43.1°F6.2°C 56% 2.0 mph NE3.2 kmh NE -- 29.53 in1000.0 mb 0.00 in0.0 mm 0.00 in0.0 mm 3.69 in93.7 mm
01:41 PM 49.3°F9.6°C 43.2°F6.2°C 56% 2.0 mph NNE3.2 kmh NNE -- 29.53 in1000.0 mb 0.00 in0.0 mm 0.00 in0.0 mm 3.69 in93.7 mm
01:42 PM 49.2°F9.6°C 43.1°F6.2°C 56% 2.0 mph NNE3.2 kmh NNE -- 29.53 in1000.0 mb 0.00 in0.0 mm 0.00 in0.0 mm 3.69 in93.7 mm
01:43 PM 49.2°F9.6°C 43.2°F6.2°C 56% 2.0 mph ENE3.2 kmh ENE -- 29.53 in1000.0 mb 0.00 in0.0 mm 0.00 in0.0 mm 3.69 in93.7 mm
01:44 PM 49.1°F9.5°C 43.2°F6.2°C 56% 1.0 mph NW1.6 kmh NW -- 29.53 in1000.0 mb 0.00 in0.0 mm 0.00 in0.0 mm 3.69 in93.7 mm
01:45 PM 49.2°F9.6°C 43.2°F6.2°C 56% 2.0 mph NW3.2 kmh NW -- 29.53 in1000.0 mb 0.00 in0.0 mm 0.00 in0.0 mm 3.69 in93.7 mm
01:46 PM 49.2°F9.6°C 43.2°F6.2°C 56% 2.0 mph NW3.2 kmh NW -- 29.53 in1000.0 mb 0.00 in0.0 mm 0.00 in0.0 mm 3.69 in93.7 mm
01:47 PM 49.1°F9.5°C 43.1°F6.2°C 56% 2.0 mph NW3.2 kmh NW -- 29.53 in1000.0 mb 0.00 in0.0 mm 0.00 in0.0 mm 3.69 in93.7 mm
01:48 PM 49.1°F9.5°C 43.2°F6.2°C 56% 2.0 mph ENE3.2 kmh ENE -- 29.53 in1000.0 mb 0.00 in0.0 mm 0.00 in0.0 mm 3.69 in93.7 mm
01:49 PM 49.0°F9.4°C 43.2°F6.2°C 56% 2.0 mph E3.2 kmh E -- 29.53 in1000.0 mb 0.00 in0.0 mm 0.00 in0.0 mm 3.69 in93.7 mm
01:50 PM 49.1°F9.5°C 43.2°F6.2°C 56% 2.0 mph NNE3.2 kmh NNE -- 29.53 in1000.0 mb 0.00 in0.0 mm 0.00 in0.0 mm 3.69 in93.7 mm
01:51 PM 49.1°F9.5°C 43.2°F6.2°C 56% 2.0 mph NNE3.2 kmh NNE -- 29.53 in1000.0 mb 0.00 in0.0 mm 0.00 in0.0 mm 3.69 in93.7 mm
01:52 PM 49.1°F9.5°C 43.2°F6.2°C 56% 2.0 mph NE3.2 kmh NE -- 29.53 in1000.0 mb 0.00 in0.0 mm 0.00 in0.0 mm 3.69 in93.7 mm
01:53 PM 49.1°F9.5°C 43.2°F6.2°C 56% 2.0 mph NE3.2 kmh NE -- 29.53 in1000.0 mb 0.00 in0.0 mm 0.00 in0.0 mm 3.69 in93.7 mm
01:54 PM 49.1°F9.5°C 43.2°F6.2°C 56% 2.0 mph NE3.2 kmh NE -- 29.53 in1000.0 mb 0.00 in0.0 mm 0.00 in0.0 mm 3.69 in93.7 mm
01:55 PM 49.1°F9.5°C 43.2°F6.2°C 56% 1.0 mph NE1.6 kmh NE -- 29.53 in1000.0 mb 0.00 in0.0 mm 0.00 in0.0 mm 3.69 in93.7 mm
01:56 PM 49.0°F9.4°C 43.2°F6.2°C 56% 1.0 mph E1.6 kmh E -- 29.53 in1000.0 mb 0.00 in0.0 mm 0.00 in0.0 mm 3.69 in93.7 mm
01:57 PM 49.0°F9.4°C 43.2°F6.2°C 56% 1.0 mph N1.6 kmh N -- 29.53 in1000.0 mb 0.00 in0.0 mm 0.00 in0.0 mm 3.69 in93.7 mm
01:58 PM 49.0°F9.4°C 43.2°F6.2°C 56% 1.0 mph E1.6 kmh E -- 29.53 in1000.0 mb 0.00 in0.0 mm 0.00 in0.0 mm 3.69 in93.7 mm
01:59 PM 49.1°F9.5°C 43.2°F6.2°C 56% 1.0 mph E1.6 kmh E -- 29.53 in1000.0 mb 0.00 in0.0 mm 0.00 in0.0 mm 3.69 in93.7 mm
02:01 PM 49.1°F9.5°C 43.2°F6.2°C 56% 1.0 mph ENE1.6 kmh ENE -- 29.53 in1000.0 mb 0.00 in0.0 mm 0.00 in0.0 mm 3.69 in93.7 mm
02:02 PM 49.1°F9.5°C 43.3°F6.3°C 56% 1.0 mph NE1.6 kmh NE -- 29.53 in1000.0 mb 0.00 in0.0 mm 0.00 in0.0 mm 3.69 in93.7 mm
02:03 PM 49.0°F9.4°C 43.2°F6.2°C 56% 1.0 mph NE1.6 kmh NE -- 29.53 in1000.0 mb 0.00 in0.0 mm 0.00 in0.0 mm 3.69 in93.7 mm
02:04 PM 48.9°F9.4°C 43.3°F6.3°C 56% 1.0 mph N1.6 kmh N -- 29.53 in1000.0 mb 0.00 in0.0 mm 0.00 in0.0 mm 3.69 in93.7 mm
02:05 PM 48.9°F9.4°C 43.2°F6.2°C 56% 1.0 mph N1.6 kmh N -- 29.53 in1000.0 mb 0.00 in0.0 mm 0.00 in0.0 mm 3.69 in93.7 mm
02:06 PM 48.9°F9.4°C 43.3°F6.3°C 56% 1.0 mph E1.6 kmh E -- 29.53 in1000.0 mb 0.00 in0.0 mm 0.00 in0.0 mm 3.69 in93.7 mm
02:07 PM 48.9°F9.4°C 43.3°F6.3°C 56% 1.0 mph NW1.6 kmh NW -- 29.53 in1000.0 mb 0.00 in0.0 mm 0.00 in0.0 mm 3.69 in93.7 mm
02:08 PM 48.9°F9.4°C 43.3°F6.3°C 56% 1.0 mph NW1.6 kmh NW -- 29.53 in1000.0 mb 0.00 in0.0 mm 0.00 in0.0 mm 3.69 in93.7 mm
02:09 PM 48.8°F9.3°C 43.3°F6.3°C 56% 1.0 mph WNW1.6 kmh WNW -- 29.53 in1000.0 mb 0.00 in0.0 mm 0.00 in0.0 mm 3.69 in93.7 mm
02:10 PM 48.7°F9.3°C 43.3°F6.3°C 56% 2.0 mph NW3.2 kmh NW -- 29.53 in1000.0 mb 0.00 in0.0 mm 0.00 in0.0 mm 3.69 in93.7 mm
02:11 PM 48.4°F9.1°C 43.3°F6.3°C 56% 2.0 mph NW3.2 kmh NW -- 29.54 in1000.3 mb 0.00 in0.0 mm 0.00 in0.0 mm 3.69 in93.7 mm
02:12 PM 48.4°F9.1°C 43.3°F6.3°C 56% 2.0 mph E3.2 kmh E -- 29.54 in1000.3 mb 0.00 in0.0 mm 0.00 in0.0 mm 3.69 in93.7 mm
02:13 PM 48.2°F9.0°C 43.3°F6.3°C 56% 1.0 mph WNW1.6 kmh WNW -- 29.54 in1000.3 mb 0.00 in0.0 mm 0.00 in0.0 mm 3.69 in93.7 mm
02:14 PM 48.1°F8.9°C 43.3°F6.3°C 56% 2.0 mph WNW3.2 kmh WNW -- 29.53 in1000.0 mb 0.00 in0.0 mm 0.00 in0.0 mm 3.69 in93.7 mm
02:15 PM 48.0°F8.9°C 43.3°F6.3°C 56% 2.0 mph S3.2 kmh S -- 29.53 in1000.0 mb 0.00 in0.0 mm 0.00 in0.0 mm 3.69 in93.7 mm
02:16 PM 48.0°F8.9°C 43.3°F6.3°C 56% 2.0 mph SSE3.2 kmh SSE -- 29.53 in1000.0 mb 0.02 in0.5 mm 1.20 in30.5 mm 3.72 in94.5 mm
02:17 PM 47.8°F8.8°C 43.3°F6.3°C 56% 2.0 mph ESE3.2 kmh ESE -- 29.52 in999.7 mb 0.03 in0.8 mm 0.60 in15.2 mm 3.72 in94.5 mm
02:18 PM 47.8°F8.8°C 43.3°F6.3°C 56% 2.0 mph SE3.2 kmh SE -- 29.53 in1000.0 mb 0.04 in1.0 mm 0.60 in15.2 mm 3.73 in94.7 mm
02:19 PM 47.8°F8.8°C 43.3°F6.3°C 56% 1.0 mph N1.6 kmh N -- 29.53 in1000.0 mb 0.04 in1.0 mm 0.00 in0.0 mm 3.73 in94.7 mm
02:20 PM 47.8°F8.8°C 43.3°F6.3°C 56% 1.0 mph N1.6 kmh N -- 29.53 in1000.0 mb 0.04 in1.0 mm 0.00 in0.0 mm 3.73 in94.7 mm
02:21 PM 47.9°F8.8°C 43.3°F6.3°C 56% 1.0 mph N1.6 kmh N -- 29.53 in1000.0 mb 0.04 in1.0 mm 0.00 in0.0 mm 3.73 in94.7 mm
02:22 PM 47.8°F8.8°C 43.3°F6.3°C 56% 1.0 mph N1.6 kmh N -- 29.53 in1000.0 mb 0.04 in1.0 mm 0.00 in0.0 mm 3.73 in94.7 mm
02:23 PM 47.8°F8.8°C 43.3°F6.3°C 56% 1.0 mph NNE1.6 kmh NNE -- 29.53 in1000.0 mb 0.04 in1.0 mm 0.00 in0.0 mm 3.73 in94.7 mm
02:24 PM 47.6°F8.7°C 43.3°F6.3°C 56% 1.0 mph N1.6 kmh N -- 29.53 in1000.0 mb 0.04 in1.0 mm 0.00 in0.0 mm 3.73 in94.7 mm
02:25 PM 47.8°F8.8°C 43.3°F6.3°C 56% 1.0 mph SSE1.6 kmh SSE -- 29.53 in1000.0 mb 0.04 in1.0 mm 0.00 in0.0 mm 3.73 in94.7 mm
02:26 PM 47.6°F8.7°C 43.3°F6.3°C 56% 1.0 mph ENE1.6 kmh ENE -- 29.53 in1000.0 mb 0.04 in1.0 mm 0.00 in0.0 mm 3.73 in94.7 mm
02:27 PM 47.6°F8.7°C 43.3°F6.3°C 56% 1.0 mph ENE1.6 kmh ENE -- 29.53 in1000.0 mb 0.04 in1.0 mm 0.00 in0.0 mm 3.73 in94.7 mm
02:28 PM 47.5°F8.6°C 43.3°F6.3°C 56% 1.0 mph ENE1.6 kmh ENE -- 29.53 in1000.0 mb 0.04 in1.0 mm 0.00 in0.0 mm 3.73 in94.7 mm
02:29 PM 47.6°F8.7°C 43.3°F6.3°C 56% 1.0 mph ENE1.6 kmh ENE -- 29.53 in1000.0 mb 0.04 in1.0 mm 0.00 in0.0 mm 3.73 in94.7 mm
02:30 PM 47.6°F8.7°C 43.3°F6.3°C 56% 1.0 mph ENE1.6 kmh ENE -- 29.53 in1000.0 mb 0.04 in1.0 mm 0.00 in0.0 mm 3.73 in94.7 mm
02:31 PM 47.5°F8.6°C 43.3°F6.3°C 56% 1.0 mph ENE1.6 kmh ENE -- 29.53 in1000.0 mb 0.05 in1.3 mm 0.60 in15.2 mm 3.74 in95.0 mm
02:32 PM 47.6°F8.7°C 43.3°F6.3°C 56% 1.0 mph E1.6 kmh E -- 29.53 in1000.0 mb 0.05 in1.3 mm 0.00 in0.0 mm 3.74 in95.0 mm
02:33 PM 47.6°F8.7°C 43.4°F6.3°C 56% 1.0 mph SSE1.6 kmh SSE -- 29.53 in1000.0 mb 0.05 in1.3 mm 0.00 in0.0 mm 3.74 in95.0 mm
02:34 PM 47.6°F8.7°C 43.4°F6.3°C 56% 1.0 mph SE1.6 kmh SE -- 29.53 in1000.0 mb 0.05 in1.3 mm 0.00 in0.0 mm 3.74 in95.0 mm
02:35 PM 47.6°F8.7°C 43.4°F6.3°C 56% 1.0 mph ESE1.6 kmh ESE -- 29.53 in1000.0 mb 0.05 in1.3 mm 0.00 in0.0 mm 3.74 in95.0 mm
02:36 PM 47.5°F8.6°C 43.4°F6.3°C 56% 1.0 mph NNE1.6 kmh NNE -- 29.53 in1000.0 mb 0.05 in1.3 mm 0.00 in0.0 mm 3.74 in95.0 mm
02:37 PM 47.4°F8.6°C 43.4°F6.3°C 56% 1.0 mph S1.6 kmh S -- 29.53 in1000.0 mb 0.05 in1.3 mm 0.00 in0.0 mm 3.74 in95.0 mm
02:38 PM 47.4°F8.6°C 43.4°F6.3°C 56% 1.0 mph WNW1.6 kmh WNW -- 29.53 in1000.0 mb 0.05 in1.3 mm 0.00 in0.0 mm 3.74 in95.0 mm
02:39 PM 47.4°F8.6°C 43.4°F6.3°C 56% 1.0 mph WNW1.6 kmh WNW -- 29.53 in1000.0 mb 0.05 in1.3 mm 0.00 in0.0 mm 3.74 in95.0 mm
02:40 PM 47.4°F8.6°C 43.4°F6.3°C 56% 1.0 mph NE1.6 kmh NE -- 29.53 in1000.0 mb 0.05 in1.3 mm 0.00 in0.0 mm 3.74 in95.0 mm
02:41 PM 47.4°F8.6°C 43.4°F6.3°C 56% 1.0 mph NE1.6 kmh NE -- 29.53 in1000.0 mb 0.05 in1.3 mm 0.00 in0.0 mm 3.74 in95.0 mm
02:42 PM 47.4°F8.6°C 43.4°F6.3°C 56% 1.0 mph ENE1.6 kmh ENE -- 29.53 in1000.0 mb 0.05 in1.3 mm 0.00 in0.0 mm 3.74 in95.0 mm
02:43 PM 47.4°F8.6°C 43.4°F6.3°C 56% 1.0 mph ENE1.6 kmh ENE -- 29.53 in1000.0 mb 0.05 in1.3 mm 0.00 in0.0 mm 3.74 in95.0 mm
02:44 PM 47.4°F8.6°C 43.4°F6.3°C 56% 1.0 mph SE1.6 kmh SE -- 29.53 in1000.0 mb 0.05 in1.3 mm 0.00 in0.0 mm 3.74 in95.0 mm
02:45 PM 47.4°F8.6°C 43.4°F6.3°C 56% 1.0 mph SE1.6 kmh SE -- 29.53 in1000.0 mb 0.05 in1.3 mm 0.00 in0.0 mm 3.74 in95.0 mm
02:46 PM 47.3°F8.5°C 43.4°F6.3°C 56% 1.0 mph S1.6 kmh S -- 29.53 in1000.0 mb 0.05 in1.3 mm 0.00 in0.0 mm 3.74 in95.0 mm
02:47 PM 47.3°F8.5°C 43.4°F6.3°C 56% 1.0 mph SSE1.6 kmh SSE -- 29.53 in1000.0 mb 0.05 in1.3 mm 0.00 in0.0 mm 3.74 in95.0 mm
02:48 PM 47.2°F8.4°C 43.4°F6.3°C 56% 1.0 mph SE1.6 kmh SE -- 29.53 in1000.0 mb 0.05 in1.3 mm 0.00 in0.0 mm 3.74 in95.0 mm
02:49 PM 47.1°F8.4°C 43.4°F6.3°C 56% 1.0 mph SE1.6 kmh SE -- 29.53 in1000.0 mb 0.05 in1.3 mm 0.00 in0.0 mm 3.74 in95.0 mm
02:50 PM 47.1°F8.4°C 43.4°F6.3°C 56% 1.0 mph SE1.6 kmh SE -- 29.53 in1000.0 mb 0.05 in1.3 mm 0.00 in0.0 mm 3.74 in95.0 mm
02:51 PM 47.1°F8.4°C 43.4°F6.3°C 56% 1.0 mph SSE1.6 kmh SSE -- 29.53 in1000.0 mb 0.05 in1.3 mm 0.00 in0.0 mm 3.74 in95.0 mm
02:52 PM 47.0°F8.3°C 43.4°F6.3°C 56% 1.0 mph SSE1.6 kmh SSE -- 29.53 in1000.0 mb 0.05 in1.3 mm 0.00 in0.0 mm 3.74 in95.0 mm
02:53 PM 47.0°F8.3°C 43.4°F6.3°C 56% 1.0 mph SSE1.6 kmh SSE -- 29.53 in1000.0 mb 0.06 in1.5 mm 0.60 in15.2 mm 3.75 in95.3 mm
02:54 PM 47.0°F8.3°C 43.4°F6.3°C 56% 1.0 mph SSE1.6 kmh SSE -- 29.53 in1000.0 mb 0.06 in1.5 mm 0.00 in0.0 mm 3.75 in95.3 mm
02:55 PM 47.0°F8.3°C 43.5°F6.4°C 56% 1.0 mph SSE1.6 kmh SSE -- 29.53 in1000.0 mb 0.06 in1.5 mm 0.00 in0.0 mm 3.75 in95.3 mm
02:56 PM 47.0°F8.3°C 43.5°F6.4°C 56% 1.0 mph SE1.6 kmh SE -- 29.53 in1000.0 mb 0.06 in1.5 mm 0.00 in0.0 mm 3.75 in95.3 mm
02:57 PM 47.0°F8.3°C 43.5°F6.4°C 56% 1.0 mph SE1.6 kmh SE -- 29.53 in1000.0 mb 0.06 in1.5 mm 0.00 in0.0 mm 3.75 in95.3 mm
02:58 PM 47.0°F8.3°C 43.5°F6.4°C 56% 1.0 mph SSE1.6 kmh SSE -- 29.53 in1000.0 mb 0.06 in1.5 mm 0.00 in0.0 mm 3.75 in95.3 mm
02:59 PM 47.0°F8.3°C 43.5°F6.4°C 56% 1.0 mph SSE1.6 kmh SSE -- 29.53 in1000.0 mb 0.06 in1.5 mm 0.00 in0.0 mm 3.75 in95.3 mm
03:01 PM 47.0°F8.3°C 43.5°F6.4°C 56% 1.0 mph SSE1.6 kmh SSE -- 29.53 in1000.0 mb 0.06 in1.5 mm 0.00 in0.0 mm 3.75 in95.3 mm
03:02 PM 47.0°F8.3°C 43.5°F6.4°C 56% 1.0 mph SE1.6 kmh SE -- 29.53 in1000.0 mb 0.06 in1.5 mm 0.00 in0.0 mm 3.75 in95.3 mm
03:03 PM 47.0°F8.3°C 43.5°F6.4°C 56% 1.0 mph SSE1.6 kmh SSE -- 29.53 in1000.0 mb 0.06 in1.5 mm 0.00 in0.0 mm 3.75 in95.3 mm
03:04 PM 47.0°F8.3°C 43.5°F6.4°C 56% 1.0 mph SSE1.6 kmh SSE -- 29.53 in1000.0 mb 0.06 in1.5 mm 0.00 in0.0 mm 3.75 in95.3 mm
03:05 PM 47.1°F8.4°C 43.5°F6.4°C 56% 1.0 mph NNE1.6 kmh NNE -- 29.53 in1000.0 mb 0.06 in1.5 mm 0.00 in0.0 mm 3.75 in95.3 mm
03:06 PM 47.1°F8.4°C 43.5°F6.4°C 56% 1.0 mph NNE1.6 kmh NNE -- 29.53 in1000.0 mb 0.06 in1.5 mm 0.00 in0.0 mm 3.75 in95.3 mm
03:07 PM 47.1°F8.4°C 43.5°F6.4°C 56% 1.0 mph SE1.6 kmh SE -- 29.53 in1000.0 mb 0.06 in1.5 mm 0.00 in0.0 mm 3.75 in95.3 mm
03:08 PM 47.0°F8.3°C 43.5°F6.4°C 56% 1.0 mph SE1.6 kmh SE -- 29.53 in1000.0 mb 0.06 in1.5 mm 0.00 in0.0 mm 3.75 in95.3 mm
03:09 PM 47.0°F8.3°C 43.5°F6.4°C 56% 1.0 mph SSE1.6 kmh SSE -- 29.53 in1000.0 mb 0.06 in1.5 mm 0.00 in0.0 mm 3.75 in95.3 mm
03:10 PM 47.1°F8.4°C 43.5°F6.4°C 56% 1.0 mph SSE1.6 kmh SSE -- 29.53 in1000.0 mb 0.06 in1.5 mm 0.00 in0.0 mm 3.75 in95.3 mm
03:11 PM 47.1°F8.4°C 43.5°F6.4°C 56% 1.0 mph SSE1.6 kmh SSE -- 29.53 in1000.0 mb 0.06 in1.5 mm 0.00 in0.0 mm 3.75 in95.3 mm
03:12 PM 47.2°F8.4°C 43.5°F6.4°C 56% 1.0 mph SSE1.6 kmh SSE -- 29.53 in1000.0 mb 0.06 in1.5 mm 0.00 in0.0 mm 3.75 in95.3 mm
03:13 PM 47.2°F8.4°C 43.5°F6.4°C 56% 1.0 mph SSE1.6 kmh SSE -- 29.53 in1000.0 mb 0.06 in1.5 mm 0.00 in0.0 mm 3.75 in95.3 mm
03:14 PM 47.2°F8.4°C 43.5°F6.4°C 56% 1.0 mph SSE1.6 kmh SSE -- 29.53 in1000.0 mb 0.06 in1.5 mm 0.00 in0.0 mm 3.75 in95.3 mm
03:15 PM 47.2°F8.4°C 43.5°F6.4°C 56% 1.0 mph SSE1.6 kmh SSE -- 29.53 in1000.0 mb 0.06 in1.5 mm 0.00 in0.0 mm 3.75 in95.3 mm
03:16 PM 47.2°F8.4°C 43.5°F6.4°C 56% 1.0 mph SSE1.6 kmh SSE -- 29.53 in1000.0 mb 0.04 in1.0 mm 0.00 in0.0 mm 3.75 in95.3 mm
03:17 PM 47.2°F8.4°C 43.5°F6.4°C 56% 1.0 mph SSE1.6 kmh SSE -- 29.53 in1000.0 mb 0.03 in0.8 mm 0.00 in0.0 mm 3.75 in95.3 mm
03:18 PM 47.2°F8.4°C 43.5°F6.4°C 56% 1.0 mph SSE1.6 kmh SSE -- 29.53 in1000.0 mb 0.02 in0.5 mm 0.00 in0.0 mm 3.75 in95.3 mm
03:19 PM 47.2°F8.4°C 43.5°F6.4°C 56% 1.0 mph SSE1.6 kmh SSE -- 29.53 in1000.0 mb 0.02 in0.5 mm 0.00 in0.0 mm 3.75 in95.3 mm
03:20 PM 47.2°F8.4°C 43.5°F6.4°C 56% 1.0 mph SSE1.6 kmh SSE -- 29.53 in1000.0 mb 0.02 in0.5 mm 0.00 in0.0 mm 3.75 in95.3 mm
03:21 PM 47.2°F8.4°C 43.5°F6.4°C 56% 1.0 mph SSE1.6 kmh SSE -- 29.52 in999.7 mb 0.02 in0.5 mm 0.00 in0.0 mm 3.75 in95.3 mm
03:22 PM 47.2°F8.4°C 43.6°F6.4°C 56% 1.0 mph SSE1.6 kmh SSE -- 29.53 in1000.0 mb 0.02 in0.5 mm 0.00 in0.0 mm 3.75 in95.3 mm
03:23 PM 47.3°F8.5°C 43.5°F6.4°C 56% 1.0 mph SE1.6 kmh SE -- 29.52 in999.7 mb 0.02 in0.5 mm 0.00 in0.0 mm 3.75 in95.3 mm
03:24 PM 47.3°F8.5°C 43.6°F6.4°C 56% 1.0 mph SE1.6 kmh SE -- 29.52 in999.7 mb 0.02 in0.5 mm 0.00 in0.0 mm 3.75 in95.3 mm
03:25 PM 47.4°F8.6°C 43.6°F6.4°C 56% 1.0 mph SE1.6 kmh SE -- 29.52 in999.7 mb 0.02 in0.5 mm 0.00 in0.0 mm 3.75 in95.3 mm
03:26 PM 47.4°F8.6°C 43.6°F6.4°C 56% 1.0 mph SE1.6 kmh SE -- 29.52 in999.7 mb 0.02 in0.5 mm 0.00 in0.0 mm 3.75 in95.3 mm
03:27 PM 47.4°F8.6°C 43.6°F6.4°C 56% 1.0 mph SE1.6 kmh SE -- 29.52 in999.7 mb 0.02 in0.5 mm 0.00 in0.0 mm 3.75 in95.3 mm
03:28 PM 47.5°F8.6°C 43.5°F6.4°C 56% 1.0 mph SE1.6 kmh SE -- 29.53 in1000.0 mb 0.02 in0.5 mm 0.00 in0.0 mm 3.75 in95.3 mm
03:29 PM 47.6°F8.7°C 43.6°F6.4°C 56% Calm Calm -- 29.53 in1000.0 mb 0.02 in0.5 mm 0.00 in0.0 mm 3.75 in95.3 mm
03:30 PM 47.8°F8.8°C 43.5°F6.4°C 56% Calm Calm -- 29.53 in1000.0 mb 0.02 in0.5 mm 0.00 in0.0 mm 3.75 in95.3 mm
03:31 PM 47.9°F8.8°C 43.6°F6.4°C 56% 1.0 mph E1.6 kmh E -- 29.53 in1000.0 mb 0.01 in0.3 mm 0.00 in0.0 mm 3.75 in95.3 mm
03:32 PM 47.9°F8.8°C 43.6°F6.4°C 56% Calm Calm -- 29.53 in1000.0 mb 0.01 in0.3 mm 0.00 in0.0 mm 3.75 in95.3 mm
03:33 PM 48.0°F8.9°C 43.6°F6.4°C 56% Calm Calm -- 29.53 in1000.0 mb 0.01 in0.3 mm 0.00 in0.0 mm 3.75 in95.3 mm
03:34 PM 47.9°F8.8°C 43.6°F6.4°C 56% 1.0 mph S1.6 kmh S -- 29.53 in1000.0 mb 0.01 in0.3 mm 0.00 in0.0 mm 3.75 in95.3 mm
03:35 PM 47.8°F8.8°C 43.6°F6.4°C 56% 1.0 mph S1.6 kmh S -- 29.53 in1000.0 mb 0.01 in0.3 mm 0.00 in0.0 mm 3.75 in95.3 mm
03:36 PM 47.9°F8.8°C 43.6°F6.4°C 56% 1.0 mph S1.6 kmh S -- 29.53 in1000.0 mb 0.01 in0.3 mm 0.00 in0.0 mm 3.75 in95.3 mm
03:37 PM 47.9°F8.8°C 43.6°F6.4°C 56% 1.0 mph SE1.6 kmh SE -- 29.53 in1000.0 mb 0.01 in0.3 mm 0.00 in0.0 mm 3.75 in95.3 mm
03:38 PM 47.8°F8.8°C 43.6°F6.4°C 56% 1.0 mph SE1.6 kmh SE -- 29.53 in1000.0 mb 0.01 in0.3 mm 0.00 in0.0 mm 3.75 in95.3 mm
03:39 PM 47.6°F8.7°C 43.6°F6.4°C 56% 1.0 mph SSE1.6 kmh SSE -- 29.53 in1000.0 mb 0.01 in0.3 mm 0.00 in0.0 mm 3.75 in95.3 mm
03:40 PM 47.6°F8.7°C 43.6°F6.4°C 56% 1.0 mph SSE1.6 kmh SSE -- 29.53 in1000.0 mb 0.01 in0.3 mm 0.00 in0.0 mm 3.75 in95.3 mm
03:41 PM 47.6°F8.7°C 43.6°F6.4°C 56% 1.0 mph SSE1.6 kmh SSE -- 29.53 in1000.0 mb 0.01 in0.3 mm 0.00 in0.0 mm 3.75 in95.3 mm
03:42 PM 47.6°F8.7°C 43.6°F6.4°C 56% 1.0 mph SSE1.6 kmh SSE -- 29.53 in1000.0 mb 0.01 in0.3 mm 0.00 in0.0 mm 3.75 in95.3 mm
03:43 PM 47.6°F8.7°C 43.6°F6.4°C 56% 1.0 mph SE1.6 kmh SE -- 29.53 in1000.0 mb 0.01 in0.3 mm 0.00 in0.0 mm 3.75 in95.3 mm
03:44 PM 47.6°F8.7°C 43.6°F6.4°C 56% 1.0 mph SE1.6 kmh SE -- 29.53 in1000.0 mb 0.01 in0.3 mm 0.00 in0.0 mm 3.75 in95.3 mm
03:45 PM 47.5°F8.6°C 43.6°F6.4°C 56% 1.0 mph NNW1.6 kmh NNW -- 29.53 in1000.0 mb 0.01 in0.3 mm 0.00 in0.0 mm 3.75 in95.3 mm
03:46 PM 47.5°F8.6°C 43.6°F6.4°C 56% 1.0 mph NE1.6 kmh NE -- 29.54 in1000.3 mb 0.01 in0.3 mm 0.00 in0.0 mm 3.75 in95.3 mm
03:47 PM 47.5°F8.6°C 43.6°F6.4°C 56% 1.0 mph E1.6 kmh E -- 29.53 in1000.0 mb 0.01 in0.3 mm 0.00 in0.0 mm 3.75 in95.3 mm
03:48 PM 47.4°F8.6°C 43.6°F6.4°C 56% 1.0 mph E1.6 kmh E -- 29.53 in1000.0 mb 0.01 in0.3 mm 0.00 in0.0 mm 3.75 in95.3 mm
03:49 PM 47.4°F8.6°C 43.6°F6.4°C 56% 1.0 mph SE1.6 kmh SE -- 29.53 in1000.0 mb 0.01 in0.3 mm 0.00 in0.0 mm 3.75 in95.3 mm
03:50 PM 47.4°F8.6°C 43.6°F6.4°C 56% 1.0 mph SE1.6 kmh SE -- 29.53 in1000.0 mb 0.01 in0.3 mm 0.00 in0.0 mm 3.75 in95.3 mm
03:51 PM 47.3°F8.5°C 43.6°F6.4°C 56% 2.0 mph SSE3.2 kmh SSE -- 29.53 in1000.0 mb 0.01 in0.3 mm 0.00 in0.0 mm 3.75 in95.3 mm
03:52 PM 47.2°F8.4°C 43.6°F6.4°C 56% 2.0 mph SSE3.2 kmh SSE -- 29.53 in1000.0 mb 0.01 in0.3 mm 0.00 in0.0 mm 3.75 in95.3 mm
03:53 PM 47.2°F8.4°C 43.6°F6.4°C 56% 2.0 mph SE3.2 kmh SE -- 29.53 in1000.0 mb 0.00 in0.0 mm 0.00 in0.0 mm 3.75 in95.3 mm
03:54 PM 47.2°F8.4°C 43.6°F6.4°C 56% 2.0 mph SE3.2 kmh SE -- 29.54 in1000.3 mb 0.00 in0.0 mm 0.00 in0.0 mm 3.75 in95.3 mm
03:55 PM 47.2°F8.4°C 43.6°F6.4°C 56% 1.0 mph SE1.6 kmh SE -- 29.53 in1000.0 mb 0.00 in0.0 mm 0.00 in0.0 mm 3.75 in95.3 mm
03:56 PM 47.2°F8.4°C 43.6°F6.4°C 56% 1.0 mph ENE1.6 kmh ENE -- 29.53 in1000.0 mb 0.00 in0.0 mm 0.00 in0.0 mm 3.75 in95.3 mm
03:57 PM 47.2°F8.4°C 43.6°F6.4°C 56% 1.0 mph ENE1.6 kmh ENE -- 29.54 in1000.3 mb 0.00 in0.0 mm 0.00 in0.0 mm 3.75 in95.3 mm
03:58 PM 47.2°F8.4°C 43.6°F6.4°C 56% 1.0 mph SE1.6 kmh SE -- 29.53 in1000.0 mb 0.00 in0.0 mm 0.00 in0.0 mm 3.75 in95.3 mm
03:59 PM 47.2°F8.4°C 43.6°F6.4°C 56% 1.0 mph SSE1.6 kmh SSE -- 29.54 in1000.3 mb 0.00 in0.0 mm 0.00 in0.0 mm 3.75 in95.3 mm
04:01 PM 47.3°F8.5°C 43.6°F6.4°C 56% 1.0 mph E1.6 kmh E -- 29.54 in1000.3 mb 0.00 in0.0 mm 0.00 in0.0 mm 3.75 in95.3 mm
04:02 PM 47.4°F8.6°C 43.6°F6.4°C 56% 1.0 mph ESE1.6 kmh ESE -- 29.54 in1000.3 mb 0.00 in0.0 mm 0.00 in0.0 mm 3.75 in95.3 mm
04:03 PM 47.4°F8.6°C 43.6°F6.4°C 56% 1.0 mph N1.6 kmh N -- 29.54 in1000.3 mb 0.00 in0.0 mm 0.00 in0.0 mm 3.75 in95.3 mm
04:04 PM 47.5°F8.6°C 43.6°F6.4°C 56% 1.0 mph N1.6 kmh N -- 29.54 in1000.3 mb 0.00 in0.0 mm 0.00 in0.0 mm 3.75 in95.3 mm
04:05 PM 47.5°F8.6°C 43.6°F6.4°C 56% 1.0 mph NE1.6 kmh NE -- 29.54 in1000.3 mb 0.00 in0.0 mm 0.00 in0.0 mm 3.75 in95.3 mm
04:06 PM 47.6°F8.7°C 43.6°F6.4°C 56% 1.0 mph SE1.6 kmh SE -- 29.54 in1000.3 mb 0.00 in0.0 mm 0.00 in0.0 mm 3.75 in95.3 mm
04:07 PM 47.5°F8.6°C 43.6°F6.4°C 56% 1.0 mph SE1.6 kmh SE -- 29.54 in1000.3 mb 0.00 in0.0 mm 0.00 in0.0 mm 3.75 in95.3 mm
04:08 PM 47.5°F8.6°C 43.6°F6.4°C 56% 1.0 mph NE1.6 kmh NE -- 29.54 in1000.3 mb 0.00 in0.0 mm 0.00 in0.0 mm 3.75 in95.3 mm
04:09 PM 47.5°F8.6°C 43.6°F6.4°C 56% 1.0 mph NNW1.6 kmh NNW -- 29.54 in1000.3 mb 0.00 in0.0 mm 0.00 in0.0 mm 3.75 in95.3 mm
04:10 PM 47.5°F8.6°C 43.6°F6.4°C 56% 1.0 mph N1.6 kmh N -- 29.54 in1000.3 mb 0.00 in0.0 mm 0.00 in0.0 mm 3.75 in95.3 mm
04:11 PM 47.5°F8.6°C 43.6°F6.4°C 56% 1.0 mph N1.6 kmh N -- 29.54 in1000.3 mb 0.00 in0.0 mm 0.00 in0.0 mm 3.75 in95.3 mm
04:12 PM 47.5°F8.6°C 43.6°F6.4°C 56% 1.0 mph ENE1.6 kmh ENE -- 29.54 in1000.3 mb 0.00 in0.0 mm 0.00 in0.0 mm 3.75 in95.3 mm
04:13 PM 47.4°F8.6°C 43.6°F6.4°C 56% 1.0 mph ENE1.6 kmh ENE -- 29.54 in1000.3 mb 0.00 in0.0 mm 0.00 in0.0 mm 3.75 in95.3 mm
04:14 PM 47.3°F8.5°C 43.6°F6.4°C 56% 1.0 mph ENE1.6 kmh ENE -- 29.54 in1000.3 mb 0.00 in0.0 mm 0.00 in0.0 mm 3.75 in95.3 mm
04:15 PM 47.3°F8.5°C 43.6°F6.4°C 56% 1.0 mph N1.6 kmh N -- 29.54 in1000.3 mb 0.00 in0.0 mm 0.00 in0.0 mm 3.75 in95.3 mm
04:16 PM 47.3°F8.5°C 43.6°F6.4°C 56% 1.0 mph N1.6 kmh N -- 29.54 in1000.3 mb 0.00 in0.0 mm 0.00 in0.0 mm 3.75 in95.3 mm
04:17 PM 47.3°F8.5°C 43.6°F6.4°C 56% 1.0 mph N1.6 kmh N -- 29.54 in1000.3 mb 0.00 in0.0 mm 0.00 in0.0 mm 3.75 in95.3 mm
04:18 PM 47.2°F8.4°C 43.6°F6.4°C 56% 1.0 mph N1.6 kmh N -- 29.54 in1000.3 mb 0.00 in0.0 mm 0.00 in0.0 mm 3.75 in95.3 mm
04:19 PM 47.2°F8.4°C 43.6°F6.4°C 56% Calm Calm -- 29.54 in1000.3 mb 0.00 in0.0 mm 0.00 in0.0 mm 3.75 in95.3 mm
04:20 PM 47.0°F8.3°C 43.6°F6.4°C 56% Calm Calm -- 29.54 in1000.3 mb 0.00 in0.0 mm 0.00 in0.0 mm 3.75 in95.3 mm
04:21 PM 47.0°F8.3°C 43.6°F6.4°C 56% Calm Calm -- 29.54 in1000.3 mb 0.00 in0.0 mm 0.00 in0.0 mm 3.75 in95.3 mm
04:22 PM 47.0°F8.3°C 43.7°F6.5°C 56% Calm Calm -- 29.54 in1000.3 mb 0.00 in0.0 mm 0.00 in0.0 mm 3.75 in95.3 mm
04:23 PM 46.9°F8.3°C 43.6°F6.4°C 56% Calm Calm -- 29.54 in1000.3 mb 0.01 in0.3 mm 0.60 in15.2 mm 3.76 in95.5 mm
04:24 PM 46.9°F8.3°C 43.6°F6.4°C 56% 1.0 mph SE1.6 kmh SE -- 29.54 in1000.3 mb 0.01 in0.3 mm 0.00 in0.0 mm 3.76 in95.5 mm
04:25 PM 46.9°F8.3°C 43.7°F6.5°C 56% 1.0 mph SE1.6 kmh SE -- 29.54 in1000.3 mb 0.01 in0.3 mm 0.00 in0.0 mm 3.76 in95.5 mm
04:26 PM 46.7°F8.2°C 43.7°F6.5°C 56% 1.0 mph SE1.6 kmh SE -- 29.54 in1000.3 mb 0.01 in0.3 mm 0.00 in0.0 mm 3.76 in95.5 mm
04:27 PM 46.7°F8.2°C 43.7°F6.5°C 56% 1.0 mph SE1.6 kmh SE -- 29.54 in1000.3 mb 0.01 in0.3 mm 0.00 in0.0 mm 3.76 in95.5 mm
04:28 PM 46.7°F8.2°C 43.6°F6.4°C 56% 1.0 mph SE1.6 kmh SE -- 29.54 in1000.3 mb 0.01 in0.3 mm 0.00 in0.0 mm 3.76 in95.5 mm
04:29 PM 46.7°F8.2°C 43.6°F6.4°C 56% 1.0 mph SE1.6 kmh SE -- 29.54 in1000.3 mb 0.01 in0.3 mm 0.00 in0.0 mm 3.76 in95.5 mm
04:30 PM 46.7°F8.2°C 43.7°F6.5°C 56% 1.0 mph SE1.6 kmh SE -- 29.54 in1000.3 mb 0.01 in0.3 mm 0.00 in0.0 mm 3.76 in95.5 mm
04:31 PM 46.7°F8.2°C 43.6°F6.4°C 56% 1.0 mph SE1.6 kmh SE -- 29.54 in1000.3 mb 0.01 in0.3 mm 0.00 in0.0 mm 3.76 in95.5 mm
04:32 PM 46.7°F8.2°C 43.6°F6.4°C 56% 1.0 mph SE1.6 kmh SE -- 29.54 in1000.3 mb 0.01 in0.3 mm 0.00 in0.0 mm 3.76 in95.5 mm
04:33 PM 46.7°F8.2°C 43.6°F6.4°C 56% 1.0 mph SE1.6 kmh SE -- 29.54 in1000.3 mb 0.01 in0.3 mm 0.00 in0.0 mm 3.76 in95.5 mm
04:34 PM 46.6°F8.1°C 43.7°F6.5°C 56% 1.0 mph SE1.6 kmh SE -- 29.54 in1000.3 mb 0.01 in0.3 mm 0.00 in0.0 mm 3.76 in95.5 mm
04:35 PM 46.6°F8.1°C 43.7°F6.5°C 56% 1.0 mph SE1.6 kmh SE -- 29.54 in1000.3 mb 0.01 in0.3 mm 0.00 in0.0 mm 3.76 in95.5 mm
04:36 PM 46.5°F8.1°C 43.7°F6.5°C 56% 1.0 mph SE1.6 kmh SE -- 29.54 in1000.3 mb 0.01 in0.3 mm 0.00 in0.0 mm 3.76 in95.5 mm
04:37 PM 46.5°F8.1°C 43.6°F6.4°C 56% 1.0 mph SE1.6 kmh SE -- 29.55 in1000.7 mb 0.01 in0.3 mm 0.00 in0.0 mm 3.76 in95.5 mm
04:38 PM 46.5°F8.1°C 43.6°F6.4°C 56% 1.0 mph SE1.6 kmh SE -- 29.54 in1000.3 mb 0.01 in0.3 mm 0.00 in0.0 mm 3.76 in95.5 mm
04:39 PM 46.5°F8.1°C 43.6°F6.4°C 56% Calm Calm -- 29.54 in1000.3 mb 0.01 in0.3 mm 0.00 in0.0 mm 3.76 in95.5 mm
04:40 PM 46.4°F8.0°C 43.6°F6.4°C 56% Calm Calm -- 29.54 in1000.3 mb 0.01 in0.3 mm 0.00 in0.0 mm 3.76 in95.5 mm
04:41 PM 46.5°F8.1°C 43.6°F6.4°C 56% Calm Calm -- 29.54 in1000.3 mb 0.01 in0.3 mm 0.00 in0.0 mm 3.76 in95.5 mm
04:42 PM 46.4°F8.0°C 43.6°F6.4°C 56% Calm Calm -- 29.54 in1000.3 mb 0.01 in0.3 mm 0.00 in0.0 mm 3.76 in95.5 mm
04:43 PM 46.5°F8.1°C 43.6°F6.4°C 56% Calm Calm -- 29.55 in1000.7 mb 0.01 in0.3 mm 0.00 in0.0 mm 3.76 in95.5 mm
04:44 PM 46.5°F8.1°C 43.6°F6.4°C 56% Calm Calm -- 29.54 in1000.3 mb 0.01 in0.3 mm 0.00 in0.0 mm 3.76 in95.5 mm
04:45 PM 46.5°F8.1°C 43.6°F6.4°C 56% Calm Calm -- 29.54 in1000.3 mb 0.01 in0.3 mm 0.00 in0.0 mm 3.76 in95.5 mm
04:46 PM 46.4°F8.0°C 43.6°F6.4°C 56% Calm Calm -- 29.55 in1000.7 mb 0.01 in0.3 mm 0.00 in0.0 mm 3.76 in95.5 mm
04:47 PM 46.5°F8.1°C 43.6°F6.4°C 56% Calm Calm -- 29.55 in1000.7 mb 0.01 in0.3 mm 0.00 in0.0 mm 3.76 in95.5 mm
04:48 PM 46.5°F8.1°C 43.7°F6.5°C 56% Calm Calm -- 29.54 in1000.3 mb 0.01 in0.3 mm 0.00 in0.0 mm 3.76 in95.5 mm
04:49 PM 46.4°F8.0°C 43.6°F6.4°C 56% 1.0 mph SSE1.6 kmh SSE -- 29.54 in1000.3 mb 0.01 in0.3 mm 0.00 in0.0 mm 3.76 in95.5 mm
04:50 PM 46.5°F8.1°C 43.7°F6.5°C 56% 1.0 mph SSE1.6 kmh SSE -- 29.55 in1000.7 mb 0.01 in0.3 mm 0.00 in0.0 mm 3.76 in95.5 mm
04:51 PM 46.6°F8.1°C 43.6°F6.4°C 56% 1.0 mph SSE1.6 kmh SSE -- 29.55 in1000.7 mb 0.01 in0.3 mm 0.00 in0.0 mm 3.76 in95.5 mm
04:52 PM 46.5°F8.1°C 43.6°F6.4°C 56% 1.0 mph SSE1.6 kmh SSE -- 29.55 in1000.7 mb 0.01 in0.3 mm 0.00 in0.0 mm 3.76 in95.5 mm
04:53 PM 46.5°F8.1°C 43.6°F6.4°C 56% 1.0 mph SSE1.6 kmh SSE -- 29.55 in1000.7 mb 0.01 in0.3 mm 0.00 in0.0 mm 3.76 in95.5 mm
04:54 PM 46.4°F8.0°C 43.7°F6.5°C 56% 1.0 mph SSE1.6 kmh SSE -- 29.55 in1000.7 mb 0.01 in0.3 mm 0.00 in0.0 mm 3.76 in95.5 mm
04:55 PM 46.5°F8.1°C 43.6°F6.4°C 56% 1.0 mph SSE1.6 kmh SSE -- 29.55 in1000.7 mb 0.01 in0.3 mm 0.00 in0.0 mm 3.76 in95.5 mm
04:56 PM 46.5°F8.1°C 43.6°F6.4°C 56% 1.0 mph SE1.6 kmh SE -- 29.54 in1000.3 mb 0.01 in0.3 mm 0.00 in0.0 mm 3.76 in95.5 mm
04:57 PM 46.4°F8.0°C 43.6°F6.4°C 56% 1.0 mph S1.6 kmh S -- 29.54 in1000.3 mb 0.01 in0.3 mm 0.00 in0.0 mm 3.76 in95.5 mm
04:58 PM 46.5°F8.1°C 43.6°F6.4°C 56% 1.0 mph S1.6 kmh S -- 29.54 in1000.3 mb 0.01 in0.3 mm 0.00 in0.0 mm 3.76 in95.5 mm
04:59 PM 46.5°F8.1°C 43.6°F6.4°C 56% 1.0 mph SSE1.6 kmh SSE -- 29.54 in1000.3 mb 0.01 in0.3 mm 0.00 in0.0 mm 3.76 in95.5 mm
05:01 PM 46.4°F8.0°C 43.7°F6.5°C 56% 1.0 mph SSE1.6 kmh SSE -- 29.54 in1000.3 mb 0.02 in0.5 mm 0.01 in0.3 mm 3.77 in95.8 mm
05:02 PM 46.5°F8.1°C 43.6°F6.4°C 56% 1.0 mph SSE1.6 kmh SSE -- 29.54 in1000.3 mb 0.02 in0.5 mm 0.00 in0.0 mm 3.77 in95.8 mm
05:03 PM 46.5°F8.1°C 43.6°F6.4°C 56% 2.0 mph ESE3.2 kmh ESE -- 29.54 in1000.3 mb 0.02 in0.5 mm 0.00 in0.0 mm 3.77 in95.8 mm
05:04 PM 46.6°F8.1°C 43.6°F6.4°C 56% 2.0 mph SE3.2 kmh SE -- 29.54 in1000.3 mb 0.02 in0.5 mm 0.00 in0.0 mm 3.77 in95.8 mm
05:05 PM 46.6°F8.1°C 43.6°F6.4°C 56% 2.0 mph SE3.2 kmh SE -- 29.54 in1000.3 mb 0.02 in0.5 mm 0.00 in0.0 mm 3.77 in95.8 mm
05:06 PM 46.5°F8.1°C 43.6°F6.4°C 56% 2.0 mph SE3.2 kmh SE -- 29.54 in1000.3 mb 0.02 in0.5 mm 0.00 in0.0 mm 3.77 in95.8 mm
05:07 PM 46.4°F8.0°C 43.6°F6.4°C 56% 2.0 mph SE3.2 kmh SE -- 29.54 in1000.3 mb 0.02 in0.5 mm 0.00 in0.0 mm 3.77 in95.8 mm
05:08 PM 46.4°F8.0°C 43.6°F6.4°C 56% 2.0 mph SE3.2 kmh SE -- 29.54 in1000.3 mb 0.02 in0.5 mm 0.00 in0.0 mm 3.77 in95.8 mm
05:09 PM 46.4°F8.0°C 43.6°F6.4°C 56% 2.0 mph ESE3.2 kmh ESE -- 29.54 in1000.3 mb 0.02 in0.5 mm 0.00 in0.0 mm 3.77 in95.8 mm
05:10 PM 46.4°F8.0°C 43.6°F6.4°C 56% 2.0 mph SE3.2 kmh SE -- 29.54 in1000.3 mb 0.02 in0.5 mm 0.00 in0.0 mm 3.77 in95.8 mm
05:11 PM 46.3°F7.9°C 43.6°F6.4°C 56% 2.0 mph SE3.2 kmh SE -- 29.54 in1000.3 mb 0.02 in0.5 mm 0.00 in0.0 mm 3.77 in95.8 mm
05:12 PM 46.3°F7.9°C 43.6°F6.4°C 56% 2.0 mph SE3.2 kmh SE -- 29.54 in1000.3 mb 0.02 in0.5 mm 0.00 in0.0 mm 3.77 in95.8 mm
05:13 PM 46.3°F7.9°C 43.6°F6.4°C 56% 2.0 mph ESE3.2 kmh ESE -- 29.54 in1000.3 mb 0.02 in0.5 mm 0.00 in0.0 mm 3.77 in95.8 mm
05:14 PM 46.4°F8.0°C 43.6°F6.4°C 56% 2.0 mph SSE3.2 kmh SSE -- 29.54 in1000.3 mb 0.02 in0.5 mm 0.00 in0.0 mm 3.77 in95.8 mm
05:15 PM 46.4°F8.0°C 43.6°F6.4°C 56% 2.0 mph SE3.2 kmh SE -- 29.54 in1000.3 mb 0.02 in0.5 mm 0.00 in0.0 mm 3.77 in95.8 mm
05:16 PM 46.4°F8.0°C 43.6°F6.4°C 56% 2.0 mph SSE3.2 kmh SSE -- 29.54 in1000.3 mb 0.02 in0.5 mm 0.00 in0.0 mm 3.77 in95.8 mm
05:17 PM 46.4°F8.0°C 43.6°F6.4°C 56% 1.0 mph SSE1.6 kmh SSE -- 29.54 in1000.3 mb 0.02 in0.5 mm 0.00 in0.0 mm 3.77 in95.8 mm
05:18 PM 46.4°F8.0°C 43.6°F6.4°C 56% 1.0 mph E1.6 kmh E -- 29.54 in1000.3 mb 0.02 in0.5 mm 0.00 in0.0 mm 3.77 in95.8 mm
05:19 PM 46.4°F8.0°C 43.6°F6.4°C 56% 1.0 mph SE1.6 kmh SE -- 29.54 in1000.3 mb 0.02 in0.5 mm 0.00 in0.0 mm 3.77 in95.8 mm
05:20 PM 46.4°F8.0°C 43.6°F6.4°C 56% 1.0 mph SE1.6 kmh SE -- 29.54 in1000.3 mb 0.02 in0.5 mm 0.00 in0.0 mm 3.77 in95.8 mm
05:21 PM 46.4°F8.0°C 43.6°F6.4°C 56% 1.0 mph SE1.6 kmh SE -- 29.54 in1000.3 mb 0.02 in0.5 mm 0.00 in0.0 mm 3.77 in95.8 mm
05:22 PM 46.4°F8.0°C 43.6°F6.4°C 56% 1.0 mph SE1.6 kmh SE -- 29.54 in1000.3 mb 0.02 in0.5 mm 0.00 in0.0 mm 3.77 in95.8 mm
05:23 PM 46.3°F7.9°C 43.6°F6.4°C 56% 1.0 mph E1.6 kmh E -- 29.54 in1000.3 mb 0.01 in0.3 mm 0.00 in0.0 mm 3.77 in95.8 mm
05:24 PM 46.3°F7.9°C 43.6°F6.4°C 56% 1.0 mph ENE1.6 kmh ENE -- 29.54 in1000.3 mb 0.01 in0.3 mm 0.00 in0.0 mm 3.77 in95.8 mm
05:25 PM 46.3°F7.9°C 43.6°F6.4°C 56% 1.0 mph E1.6 kmh E -- 29.54 in1000.3 mb 0.01 in0.3 mm 0.00 in0.0 mm 3.77 in95.8 mm
05:26 PM 46.4°F8.0°C 43.6°F6.4°C 56% 1.0 mph SE1.6 kmh SE -- 29.54 in1000.3 mb 0.01 in0.3 mm 0.00 in0.0 mm 3.77 in95.8 mm
05:27 PM 46.5°F8.1°C 43.6°F6.4°C 56% 1.0 mph SE1.6 kmh SE -- 29.54 in1000.3 mb 0.01 in0.3 mm 0.00 in0.0 mm 3.77 in95.8 mm
05:28 PM 46.5°F8.1°C 43.6°F6.4°C 56% 1.0 mph SE1.6 kmh SE -- 29.54 in1000.3 mb 0.01 in0.3 mm 0.00 in0.0 mm 3.77 in95.8 mm
05:29 PM 46.4°F8.0°C 43.6°F6.4°C 56% 1.0 mph SE1.6 kmh SE -- 29.54 in1000.3 mb 0.01 in0.3 mm 0.00 in0.0 mm 3.77 in95.8 mm
05:30 PM 46.3°F7.9°C 43.6°F6.4°C 56% 1.0 mph SE1.6 kmh SE -- 29.54 in1000.3 mb 0.01 in0.3 mm 0.00 in0.0 mm 3.77 in95.8 mm
05:31 PM 46.3°F7.9°C 43.6°F6.4°C 56% 1.0 mph SE1.6 kmh SE -- 29.54 in1000.3 mb 0.01 in0.3 mm 0.00 in0.0 mm 3.77 in95.8 mm
05:32 PM 46.1°F7.8°C 43.6°F6.4°C 56% 1.0 mph SE1.6 kmh SE -- 29.54 in1000.3 mb 0.01 in0.3 mm 0.00 in0.0 mm 3.77 in95.8 mm
05:33 PM 46.0°F7.8°C 43.6°F6.4°C 56% 1.0 mph SE1.6 kmh SE -- 29.54 in1000.3 mb 0.01 in0.3 mm 0.00 in0.0 mm 3.77 in95.8 mm
05:34 PM 46.0°F7.8°C 43.6°F6.4°C 56% 1.0 mph SE1.6 kmh SE -- 29.54 in1000.3 mb 0.01 in0.3 mm 0.00 in0.0 mm 3.77 in95.8 mm
05:35 PM 45.8°F7.7°C 43.5°F6.4°C 56% Calm Calm -- 29.54 in1000.3 mb 0.01 in0.3 mm 0.00 in0.0 mm 3.77 in95.8 mm
05:36 PM 45.7°F7.6°C 43.6°F6.4°C 56% Calm Calm -- 29.54 in1000.3 mb 0.01 in0.3 mm 0.00 in0.0 mm 3.77 in95.8 mm
05:37 PM 45.7°F7.6°C 43.6°F6.4°C 56% Calm Calm -- 29.54 in1000.3 mb 0.01 in0.3 mm 0.00 in0.0 mm 3.77 in95.8 mm
05:38 PM 45.7°F7.6°C 43.6°F6.4°C 56% Calm Calm -- 29.54 in1000.3 mb 0.01 in0.3 mm 0.00 in0.0 mm 3.77 in95.8 mm
05:39 PM 45.7°F7.6°C 43.6°F6.4°C 56% Calm Calm -- 29.54 in1000.3 mb 0.01 in0.3 mm 0.00 in0.0 mm 3.77 in95.8 mm
05:40 PM 45.6°F7.6°C 43.6°F6.4°C 56% Calm Calm -- 29.54 in1000.3 mb 0.01 in0.3 mm 0.00 in0.0 mm 3.77 in95.8 mm
05:41 PM 45.7°F7.6°C 43.6°F6.4°C 56% Calm Calm -- 29.54 in1000.3 mb 0.01 in0.3 mm 0.00 in0.0 mm 3.77 in95.8 mm
05:42 PM 46.0°F7.8°C 43.6°F6.4°C 56% 1.0 mph SE1.6 kmh SE -- 29.54 in1000.3 mb 0.01 in0.3 mm 0.00 in0.0 mm 3.77 in95.8 mm
05:43 PM 45.8°F7.7°C 43.6°F6.4°C 56% 1.0 mph SE1.6 kmh SE -- 29.54 in1000.3 mb 0.01 in0.3 mm 0.00 in0.0 mm 3.77 in95.8 mm
05:44 PM 45.8°F7.7°C 43.5°F6.4°C 56% 1.0 mph SE1.6 kmh SE -- 29.54 in1000.3 mb 0.01 in0.3 mm 0.00 in0.0 mm 3.77 in95.8 mm
05:45 PM 45.8°F7.7°C 43.6°F6.4°C 56% 1.0 mph SE1.6 kmh SE -- 29.54 in1000.3 mb 0.01 in0.3 mm 0.00 in0.0 mm 3.77 in95.8 mm
05:46 PM 45.8°F7.7°C 43.6°F6.4°C 56% 1.0 mph SSE1.6 kmh SSE -- 29.54 in1000.3 mb 0.01 in0.3 mm 0.00 in0.0 mm 3.77 in95.8 mm
05:47 PM 45.8°F7.7°C 43.6°F6.4°C 56% 1.0 mph SSE1.6 kmh SSE -- 29.54 in1000.3 mb 0.01 in0.3 mm 0.00 in0.0 mm 3.77 in95.8 mm
05:48 PM 45.8°F7.7°C 43.6°F6.4°C 56% 2.0 mph SE3.2 kmh SE -- 29.54 in1000.3 mb 0.01 in0.3 mm 0.00 in0.0 mm 3.77 in95.8 mm
05:49 PM 45.8°F7.7°C 43.5°F6.4°C 56% 2.0 mph SE3.2 kmh SE -- 29.54 in1000.3 mb 0.01 in0.3 mm 0.00 in0.0 mm 3.77 in95.8 mm
05:50 PM 45.8°F7.7°C 43.6°F6.4°C 56% 2.0 mph SE3.2 kmh SE -- 29.54 in1000.3 mb 0.01 in0.3 mm 0.00 in0.0 mm 3.77 in95.8 mm
05:51 PM 45.8°F7.7°C 43.6°F6.4°C 56% 2.0 mph SE3.2 kmh SE -- 29.54 in1000.3 mb 0.01 in0.3 mm 0.00 in0.0 mm 3.77 in95.8 mm
05:52 PM 45.8°F7.7°C 43.5°F6.4°C 56% 2.0 mph SE3.2 kmh SE -- 29.54 in1000.3 mb 0.01 in0.3 mm 0.00 in0.0 mm 3.77 in95.8 mm
05:53 PM 45.8°F7.7°C 43.5°F6.4°C 56% 2.0 mph SSE3.2 kmh SSE -- 29.54 in1000.3 mb 0.01 in0.3 mm 0.00 in0.0 mm 3.77 in95.8 mm
05:54 PM 45.7°F7.6°C 43.6°F6.4°C 56% 2.0 mph SSE3.2 kmh SSE -- 29.54 in1000.3 mb 0.01 in0.3 mm 0.00 in0.0 mm 3.77 in95.8 mm
05:55 PM 45.6°F7.6°C 43.5°F6.4°C 56% 2.0 mph SSE3.2 kmh SSE -- 29.54 in1000.3 mb 0.01 in0.3 mm 0.00 in0.0 mm 3.77 in95.8 mm
05:56 PM 45.6°F7.6°C 43.6°F6.4°C 56% 2.0 mph SSE3.2 kmh SSE -- 29.53 in1000.0 mb 0.01 in0.3 mm 0.00 in0.0 mm 3.77 in95.8 mm
05:57 PM 45.7°F7.6°C 43.5°F6.4°C 56% 2.0 mph SSE3.2 kmh SSE -- 29.53 in1000.0 mb 0.01 in0.3 mm 0.00 in0.0 mm 3.77 in95.8 mm
05:58 PM 45.8°F7.7°C 43.5°F6.4°C 56% 1.0 mph S1.6 kmh S -- 29.54 in1000.3 mb 0.01 in0.3 mm 0.00 in0.0 mm 3.77 in95.8 mm
05:59 PM 46.1°F7.8°C 43.5°F6.4°C 56% 1.0 mph S1.6 kmh S -- 29.54 in1000.3 mb 0.01 in0.3 mm 0.00 in0.0 mm 3.77 in95.8 mm
06:01 PM 46.1°F7.8°C 43.5°F6.4°C 56% 1.0 mph SSE1.6 kmh SSE -- 29.54 in1000.3 mb 0.00 in0.0 mm 0.00 in0.0 mm 3.77 in95.8 mm
06:02 PM 46.0°F7.8°C 43.5°F6.4°C 56% 1.0 mph SE1.6 kmh SE -- 29.54 in1000.3 mb 0.00 in0.0 mm 0.00 in0.0 mm 3.77 in95.8 mm
06:03 PM 45.8°F7.7°C 43.5°F6.4°C 56% 1.0 mph SE1.6 kmh SE -- 29.54 in1000.3 mb 0.00 in0.0 mm 0.00 in0.0 mm 3.77 in95.8 mm
06:04 PM 45.8°F7.7°C 43.5°F6.4°C 56% 1.0 mph SE1.6 kmh SE -- 29.54 in1000.3 mb 0.00 in0.0 mm 0.00 in0.0 mm 3.77 in95.8 mm
06:05 PM 45.8°F7.7°C 43.5°F6.4°C 56% 1.0 mph SE1.6 kmh SE -- 29.54 in1000.3 mb 0.00 in0.0 mm 0.00 in0.0 mm 3.77 in95.8 mm
06:06 PM 45.7°F7.6°C 43.5°F6.4°C 56% 1.0 mph SE1.6 kmh SE -- 29.54 in1000.3 mb 0.00 in0.0 mm 0.00 in0.0 mm 3.77 in95.8 mm
06:07 PM 45.6°F7.6°C 43.5°F6.4°C 56% 1.0 mph SE1.6 kmh SE -- 29.54 in1000.3 mb 0.00 in0.0 mm 0.00 in0.0 mm 3.77 in95.8 mm
06:08 PM 45.6°F7.6°C 43.5°F6.4°C 56% 1.0 mph SE1.6 kmh SE -- 29.54 in1000.3 mb 0.00 in0.0 mm 0.00 in0.0 mm 3.77 in95.8 mm
06:09 PM 45.5°F7.5°C 43.5°F6.4°C 56% 1.0 mph SE1.6 kmh SE -- 29.54 in1000.3 mb 0.00 in0.0 mm 0.00 in0.0 mm 3.77 in95.8 mm
06:10 PM 45.5°F7.5°C 43.5°F6.4°C 56% 1.0 mph SSE1.6 kmh SSE -- 29.54 in1000.3 mb 0.00 in0.0 mm 0.00 in0.0 mm 3.77 in95.8 mm
06:11 PM 45.5°F7.5°C 43.5°F6.4°C 56% 1.0 mph SSE1.6 kmh SSE -- 29.54 in1000.3 mb 0.00 in0.0 mm 0.00 in0.0 mm 3.77 in95.8 mm
06:12 PM 45.5°F7.5°C 43.5°F6.4°C 56% 1.0 mph SSE1.6 kmh SSE -- 29.54 in1000.3 mb 0.00 in0.0 mm 0.00 in0.0 mm 3.77 in95.8 mm
06:13 PM 45.5°F7.5°C 43.5°F6.4°C 56% 1.0 mph SSE1.6 kmh SSE -- 29.54 in1000.3 mb 0.00 in0.0 mm 0.00 in0.0 mm 3.77 in95.8 mm
06:14 PM 45.4°F7.4°C 43.5°F6.4°C 56% 1.0 mph SSE1.6 kmh SSE -- 29.54 in1000.3 mb 0.00 in0.0 mm 0.00 in0.0 mm 3.77 in95.8 mm
06:15 PM 45.4°F7.4°C 43.5°F6.4°C 56% 1.0 mph SSE1.6 kmh SSE -- 29.54 in1000.3 mb 0.00 in0.0 mm 0.00 in0.0 mm 3.77 in95.8 mm
06:16 PM 45.5°F7.5°C 43.5°F6.4°C 56% 1.0 mph SSE1.6 kmh SSE -- 29.54 in1000.3 mb 0.00 in0.0 mm 0.00 in0.0 mm 3.77 in95.8 mm
06:17 PM 45.5°F7.5°C 43.5°F6.4°C 56% 1.0 mph SSE1.6 kmh SSE -- 29.54 in1000.3 mb 0.00 in0.0 mm 0.00 in0.0 mm 3.77 in95.8 mm
06:18 PM 45.5°F7.5°C 43.5°F6.4°C 56% 1.0 mph WNW1.6 kmh WNW -- 29.54 in1000.3 mb 0.00 in0.0 mm 0.00 in0.0 mm 3.77 in95.8 mm
06:19 PM 45.6°F7.6°C 43.5°F6.4°C 56% 1.0 mph NW1.6 kmh NW -- 29.54 in1000.3 mb 0.00 in0.0 mm 0.00 in0.0 mm 3.77 in95.8 mm
06:20 PM 45.5°F7.5°C 43.5°F6.4°C 56% 1.0 mph S1.6 kmh S -- 29.54 in1000.3 mb 0.00 in0.0 mm 0.00 in0.0 mm 3.77 in95.8 mm
06:21 PM 45.4°F7.4°C 43.5°F6.4°C 56% 1.0 mph S1.6 kmh S -- 29.54 in1000.3 mb 0.00 in0.0 mm 0.00 in0.0 mm 3.77 in95.8 mm
06:22 PM 45.4°F7.4°C 43.5°F6.4°C 56% 1.0 mph S1.6 kmh S -- 29.54 in1000.3 mb 0.00 in0.0 mm 0.00 in0.0 mm 3.77 in95.8 mm
06:23 PM 45.4°F7.4°C 43.5°F6.4°C 56% Calm Calm -- 29.54 in1000.3 mb 0.00 in0.0 mm 0.00 in0.0 mm 3.77 in95.8 mm
06:24 PM 45.4°F7.4°C 43.5°F6.4°C 56% Calm Calm -- 29.54 in1000.3 mb 0.00 in0.0 mm 0.00 in0.0 mm 3.77 in95.8 mm
06:25 PM 45.4°F7.4°C 43.5°F6.4°C 56% Calm Calm -- 29.54 in1000.3 mb 0.00 in0.0 mm 0.00 in0.0 mm 3.77 in95.8 mm
06:26 PM 45.4°F7.4°C 43.5°F6.4°C 56% Calm Calm -- 29.54 in1000.3 mb 0.00 in0.0 mm 0.00 in0.0 mm 3.77 in95.8 mm
06:27 PM 45.4°F7.4°C 43.4°F6.3°C 56% Calm Calm -- 29.54 in1000.3 mb 0.00 in0.0 mm 0.00 in0.0 mm 3.77 in95.8 mm
06:28 PM 45.4°F7.4°C 43.4°F6.3°C 56% Calm Calm -- 29.54 in1000.3 mb 0.00 in0.0 mm 0.00 in0.0 mm 3.77 in95.8 mm
06:29 PM 45.3°F7.4°C 43.4°F6.3°C 56% Calm Calm -- 29.54 in1000.3 mb 0.00 in0.0 mm 0.00 in0.0 mm 3.77 in95.8 mm
06:30 PM 45.3°F7.4°C 43.4°F6.3°C 56% Calm Calm -- 29.54 in1000.3 mb 0.00 in0.0 mm 0.00 in0.0 mm 3.77 in95.8 mm
06:31 PM 45.3°F7.4°C 43.5°F6.4°C 56% 1.0 mph SE1.6 kmh SE -- 29.54 in1000.3 mb 0.00 in0.0 mm 0.00 in0.0 mm 3.77 in95.8 mm
06:32 PM 45.7°F7.6°C 43.4°F6.3°C 56% 1.0 mph SE1.6 kmh SE -- 29.54 in1000.3 mb 0.00 in0.0 mm 0.00 in0.0 mm 3.77 in95.8 mm
06:33 PM 45.7°F7.6°C 43.4°F6.3°C 56% 1.0 mph SE1.6 kmh SE -- 29.54 in1000.3 mb 0.00 in0.0 mm 0.00 in0.0 mm 3.77 in95.8 mm
06:34 PM 45.7°F7.6°C 43.4°F6.3°C 56% 1.0 mph SE1.6 kmh SE -- 29.54 in1000.3 mb 0.00 in0.0 mm 0.00 in0.0 mm 3.77 in95.8 mm
06:35 PM 45.7°F7.6°C 43.4°F6.3°C 56% 1.0 mph ENE1.6 kmh ENE -- 29.54 in1000.3 mb 0.00 in0.0 mm 0.00 in0.0 mm 3.77 in95.8 mm
06:36 PM 45.7°F7.6°C 43.4°F6.3°C 56% 1.0 mph SE1.6 kmh SE -- 29.54 in1000.3 mb 0.00 in0.0 mm 0.00 in0.0 mm 3.77 in95.8 mm
06:37 PM 45.7°F7.6°C 43.4°F6.3°C 56% 1.0 mph SE1.6 kmh SE -- 29.54 in1000.3 mb 0.00 in0.0 mm 0.00 in0.0 mm 3.77 in95.8 mm
06:38 PM 45.7°F7.6°C 43.4°F6.3°C 56% 1.0 mph SE1.6 kmh SE -- 29.54 in1000.3 mb 0.00 in0.0 mm 0.00 in0.0 mm 3.77 in95.8 mm
06:39 PM 45.7°F7.6°C 43.4°F6.3°C 56% 1.0 mph SE1.6 kmh SE -- 29.54 in1000.3 mb 0.00 in0.0 mm 0.00 in0.0 mm 3.77 in95.8 mm
06:40 PM 45.7°F7.6°C 43.4°F6.3°C 56% 1.0 mph SE1.6 kmh SE -- 29.54 in1000.3 mb 0.00 in0.0 mm 0.00 in0.0 mm 3.77 in95.8 mm
06:41 PM 45.7°F7.6°C 43.4°F6.3°C 56% 1.0 mph SE1.6 kmh SE -- 29.54 in1000.3 mb 0.00 in0.0 mm 0.00 in0.0 mm 3.77 in95.8 mm
06:42 PM 45.7°F7.6°C 43.4°F6.3°C 56% 1.0 mph SE1.6 kmh SE -- 29.54 in1000.3 mb 0.00 in0.0 mm 0.00 in0.0 mm 3.77 in95.8 mm
06:43 PM 45.7°F7.6°C 43.4°F6.3°C 56% 1.0 mph SSE1.6 kmh SSE -- 29.54 in1000.3 mb 0.00 in0.0 mm 0.00 in0.0 mm 3.77 in95.8 mm
06:44 PM 45.6°F7.6°C 43.4°F6.3°C 56% 2.0 mph SE3.2 kmh SE -- 29.54 in1000.3 mb 0.00 in0.0 mm 0.00 in0.0 mm 3.77 in95.8 mm
06:45 PM 45.7°F7.6°C 43.4°F6.3°C 56% 2.0 mph SSE3.2 kmh SSE -- 29.54 in1000.3 mb 0.00 in0.0 mm 0.00 in0.0 mm 3.77 in95.8 mm
06:46 PM 45.7°F7.6°C 43.4°F6.3°C 56% 2.0 mph SE3.2 kmh SE -- 29.54 in1000.3 mb 0.00 in0.0 mm 0.00 in0.0 mm 3.77 in95.8 mm
06:47 PM 45.8°F7.7°C 43.4°F6.3°C 56% 2.0 mph SSE3.2 kmh SSE -- 29.54 in1000.3 mb 0.00 in0.0 mm 0.00 in0.0 mm 3.77 in95.8 mm
06:48 PM 45.7°F7.6°C 43.4°F6.3°C 56% 2.0 mph SE3.2 kmh SE -- 29.54 in1000.3 mb 0.00 in0.0 mm 0.00 in0.0 mm 3.77 in95.8 mm
06:49 PM 45.6°F7.6°C 43.4°F6.3°C 56% 2.0 mph SE3.2 kmh SE -- 29.54 in1000.3 mb 0.00 in0.0 mm 0.00 in0.0 mm 3.77 in95.8 mm
06:50 PM 45.5°F7.5°C 43.4°F6.3°C 56% 2.0 mph SE3.2 kmh SE -- 29.54 in1000.3 mb 0.00 in0.0 mm 0.00 in0.0 mm 3.77 in95.8 mm
06:51 PM 45.5°F7.5°C 43.4°F6.3°C 56% 2.0 mph SE3.2 kmh SE -- 29.54 in1000.3 mb 0.00 in0.0 mm 0.00 in0.0 mm 3.77 in95.8 mm
06:52 PM 45.6°F7.6°C 43.4°F6.3°C 56% 2.0 mph SSE3.2 kmh SSE -- 29.54 in1000.3 mb 0.00 in0.0 mm 0.00 in0.0 mm 3.77 in95.8 mm
06:53 PM 45.6°F7.6°C 43.4°F6.3°C 56% 2.0 mph SE3.2 kmh SE -- 29.54 in1000.3 mb 0.00 in0.0 mm 0.00 in0.0 mm 3.77 in95.8 mm
06:54 PM 45.6°F7.6°C 43.4°F6.3°C 56% 2.0 mph SE3.2 kmh SE -- 29.54 in1000.3 mb 0.00 in0.0 mm 0.00 in0.0 mm 3.77 in95.8 mm
06:55 PM 45.6°F7.6°C 43.4°F6.3°C 56% 2.0 mph SE3.2 kmh SE -- 29.54 in1000.3 mb 0.00 in0.0 mm 0.00 in0.0 mm 3.77 in95.8 mm
06:56 PM 45.6°F7.6°C 43.4°F6.3°C 56% 2.0 mph SE3.2 kmh SE -- 29.54 in1000.3 mb 0.00 in0.0 mm 0.00 in0.0 mm 3.77 in95.8 mm
06:57 PM 45.6°F7.6°C 43.3°F6.3°C 56% 2.0 mph ESE3.2 kmh ESE -- 29.54 in1000.3 mb 0.00 in0.0 mm 0.00 in0.0 mm 3.77 in95.8 mm
06:58 PM 45.7°F7.6°C 43.3°F6.3°C 56% 2.0 mph ESE3.2 kmh ESE -- 29.54 in1000.3 mb 0.00 in0.0 mm 0.00 in0.0 mm 3.77 in95.8 mm
06:59 PM 45.7°F7.6°C 43.4°F6.3°C 56% 2.0 mph SE3.2 kmh SE -- 29.54 in1000.3 mb 0.00 in0.0 mm 0.00 in0.0 mm 3.77 in95.8 mm
07:01 PM 45.7°F7.6°C 43.4°F6.3°C 56% 1.0 mph SE1.6 kmh SE -- 29.54 in1000.3 mb 0.00 in0.0 mm 0.00 in0.0 mm 3.77 in95.8 mm
07:02 PM 45.7°F7.6°C 43.3°F6.3°C 56% 1.0 mph SE1.6 kmh SE -- 29.54 in1000.3 mb 0.00 in0.0 mm 0.00 in0.0 mm 3.77 in95.8 mm
07:03 PM 45.7°F7.6°C 43.3°F6.3°C 56% 1.0 mph SE1.6 kmh SE -- 29.54 in1000.3 mb 0.00 in0.0 mm 0.00 in0.0 mm 3.77 in95.8 mm
07:04 PM 45.7°F7.6°C 43.3°F6.3°C 56% 1.0 mph SE1.6 kmh SE -- 29.54 in1000.3 mb 0.00 in0.0 mm 0.00 in0.0 mm 3.77 in95.8 mm
07:05 PM 45.8°F7.7°C 43.3°F6.3°C 56% 1.0 mph SE1.6 kmh SE -- 29.54 in1000.3 mb 0.00 in0.0 mm 0.00 in0.0 mm 3.77 in95.8 mm
07:06 PM 46.0°F7.8°C 43.3°F6.3°C 56% 1.0 mph SE1.6 kmh SE -- 29.54 in1000.3 mb 0.00 in0.0 mm 0.00 in0.0 mm 3.77 in95.8 mm
07:07 PM 45.8°F7.7°C 43.3°F6.3°C 56% 2.0 mph S3.2 kmh S -- 29.54 in1000.3 mb 0.00 in0.0 mm 0.00 in0.0 mm 3.77 in95.8 mm
07:08 PM 45.8°F7.7°C 43.3°F6.3°C 56% 2.0 mph SE3.2 kmh SE -- 29.54 in1000.3 mb 0.00 in0.0 mm 0.00 in0.0 mm 3.77 in95.8 mm
07:09 PM 45.7°F7.6°C 43.3°F6.3°C 56% 2.0 mph SE3.2 kmh SE -- 29.54 in1000.3 mb 0.00 in0.0 mm 0.00 in0.0 mm 3.77 in95.8 mm
07:10 PM 45.6°F7.6°C 43.3°F6.3°C 56% 2.0 mph SE3.2 kmh SE -- 29.54 in1000.3 mb 0.00 in0.0 mm 0.00 in0.0 mm 3.77 in95.8 mm
07:11 PM 45.6°F7.6°C 43.3°F6.3°C 56% 2.0 mph SE3.2 kmh SE -- 29.54 in1000.3 mb 0.00 in0.0 mm 0.00 in0.0 mm 3.77 in95.8 mm
07:12 PM 45.7°F7.6°C 43.3°F6.3°C 56% 2.0 mph SE3.2 kmh SE -- 29.54 in1000.3 mb 0.00 in0.0 mm 0.00 in0.0 mm 3.77 in95.8 mm
07:13 PM 45.7°F7.6°C 43.3°F6.3°C 56% 2.0 mph SE3.2 kmh SE -- 29.54 in1000.3 mb 0.00 in0.0 mm 0.00 in0.0 mm 3.77 in95.8 mm
07:14 PM 45.6°F7.6°C 43.3°F6.3°C 56% 2.0 mph SE3.2 kmh SE -- 29.54 in1000.3 mb 0.00 in0.0 mm 0.00 in0.0 mm 3.77 in95.8 mm
07:15 PM 45.5°F7.5°C 43.3°F6.3°C 56% 2.0 mph ESE3.2 kmh ESE -- 29.54 in1000.3 mb 0.00 in0.0 mm 0.00 in0.0 mm 3.77 in95.8 mm
07:16 PM 45.6°F7.6°C 43.3°F6.3°C 56% 2.0 mph ESE3.2 kmh ESE -- 29.54 in1000.3 mb 0.00 in0.0 mm 0.00 in0.0 mm 3.77 in95.8 mm
07:17 PM 45.7°F7.6°C 43.3°F6.3°C 56% 1.0 mph SE1.6 kmh SE -- 29.54 in1000.3 mb 0.00 in0.0 mm 0.00 in0.0 mm 3.77 in95.8 mm
07:18 PM 45.7°F7.6°C 43.3°F6.3°C 56% 1.0 mph SE1.6 kmh SE -- 29.54 in1000.3 mb 0.00 in0.0 mm 0.00 in0.0 mm 3.77 in95.8 mm
07:19 PM 45.7°F7.6°C 43.3°F6.3°C 56% 1.0 mph SE1.6 kmh SE -- 29.54 in1000.3 mb 0.00 in0.0 mm 0.00 in0.0 mm 3.77 in95.8 mm
07:20 PM 45.6°F7.6°C 43.3°F6.3°C 56% 1.0 mph SE1.6 kmh SE -- 29.54 in1000.3 mb 0.00 in0.0 mm 0.00 in0.0 mm 3.77 in95.8 mm
07:21 PM 45.6°F7.6°C 43.3°F6.3°C 56% 1.0 mph SE1.6 kmh SE -- 29.54 in1000.3 mb 0.00 in0.0 mm 0.00 in0.0 mm 3.77 in95.8 mm
07:22 PM 45.6°F7.6°C 43.3°F6.3°C 56% 1.0 mph SE1.6 kmh SE -- 29.54 in1000.3 mb 0.00 in0.0 mm 0.00 in0.0 mm 3.77 in95.8 mm
07:23 PM 45.7°F7.6°C 43.3°F6.3°C 56% 1.0 mph SSE1.6 kmh SSE -- 29.54 in1000.3 mb 0.00 in0.0 mm 0.00 in0.0 mm 3.77 in95.8 mm
07:24 PM 45.7°F7.6°C 43.3°F6.3°C 56% 1.0 mph SSE1.6 kmh SSE -- 29.54 in1000.3 mb 0.00 in0.0 mm 0.00 in0.0 mm 3.77 in95.8 mm
07:25 PM 45.6°F7.6°C 43.3°F6.3°C 56% 1.0 mph SSE1.6 kmh SSE -- 29.54 in1000.3 mb 0.00 in0.0 mm 0.00 in0.0 mm 3.77 in95.8 mm
07:26 PM 45.7°F7.6°C 43.3°F6.3°C 56% 1.0 mph SSE1.6 kmh SSE -- 29.54 in1000.3 mb 0.01 in0.3 mm 0.60 in15.2 mm 3.78 in96.0 mm
07:27 PM 45.7°F7.6°C 43.3°F6.3°C 56% 1.0 mph SSE1.6 kmh SSE -- 29.54 in1000.3 mb 0.01 in0.3 mm 0.00 in0.0 mm 3.78 in96.0 mm
07:28 PM 45.7°F7.6°C 43.3°F6.3°C 56% 1.0 mph SSE1.6 kmh SSE -- 29.54 in1000.3 mb 0.01 in0.3 mm 0.00 in0.0 mm 3.78 in96.0 mm
07:29 PM 45.5°F7.5°C 43.3°F6.3°C 56% 1.0 mph SE1.6 kmh SE -- 29.54 in1000.3 mb 0.02 in0.5 mm 0.60 in15.2 mm 3.79 in96.3 mm
07:30 PM 45.5°F7.5°C 43.3°F6.3°C 56% 1.0 mph SE1.6 kmh SE -- 29.55 in1000.7 mb 0.02 in0.5 mm 0.00 in0.0 mm 3.79 in96.3 mm
07:31 PM 45.4°F7.4°C 43.3°F6.3°C 56% 1.0 mph SE1.6 kmh SE -- 29.55 in1000.7 mb 0.02 in0.5 mm 0.00 in0.0 mm 3.79 in96.3 mm
07:32 PM 45.4°F7.4°C 43.3°F6.3°C 56% 1.0 mph SE1.6 kmh SE -- 29.55 in1000.7 mb 0.02 in0.5 mm 0.00 in0.0 mm 3.79 in96.3 mm
07:33 PM 45.4°F7.4°C 43.3°F6.3°C 56% Calm Calm -- 29.55 in1000.7 mb 0.02 in0.5 mm 0.00 in0.0 mm 3.79 in96.3 mm
07:34 PM 45.5°F7.5°C 43.3°F6.3°C 56% Calm Calm -- 29.54 in1000.3 mb 0.02 in0.5 mm 0.00 in0.0 mm 3.79 in96.3 mm
07:35 PM 45.5°F7.5°C 43.3°F6.3°C 56% Calm Calm -- 29.55 in1000.7 mb 0.02 in0.5 mm 0.00 in0.0 mm 3.79 in96.3 mm
07:36 PM 45.4°F7.4°C 43.3°F6.3°C 56% 1.0 mph S1.6 kmh S -- 29.55 in1000.7 mb 0.02 in0.5 mm 0.00 in0.0 mm 3.79 in96.3 mm
07:37 PM 45.5°F7.5°C 43.3°F6.3°C 56% 1.0 mph S1.6 kmh S -- 29.55 in1000.7 mb 0.02 in0.5 mm 0.00 in0.0 mm 3.79 in96.3 mm
07:38 PM 45.5°F7.5°C 43.3°F6.3°C 56% 1.0 mph S1.6 kmh S -- 29.55 in1000.7 mb 0.02 in0.5 mm 0.00 in0.0 mm 3.79 in96.3 mm
07:39 PM 45.4°F7.4°C 43.3°F6.3°C 56% 1.0 mph S1.6 kmh S -- 29.54 in1000.3 mb 0.02 in0.5 mm 0.00 in0.0 mm 3.79 in96.3 mm
07:40 PM 45.4°F7.4°C 43.3°F6.3°C 56% 1.0 mph S1.6 kmh S -- 29.55 in1000.7 mb 0.02 in0.5 mm 0.00 in0.0 mm 3.79 in96.3 mm
07:41 PM 45.4°F7.4°C 43.3°F6.3°C 56% 1.0 mph S1.6 kmh S -- 29.54 in1000.3 mb 0.02 in0.5 mm 0.00 in0.0 mm 3.79 in96.3 mm
07:42 PM 45.4°F7.4°C 43.3°F6.3°C 56% 1.0 mph S1.6 kmh S -- 29.54 in1000.3 mb 0.02 in0.5 mm 0.00 in0.0 mm 3.79 in96.3 mm
07:43 PM 45.4°F7.4°C 43.3°F6.3°C 56% 1.0 mph SE1.6 kmh SE -- 29.54 in1000.3 mb 0.02 in0.5 mm 0.00 in0.0 mm 3.79 in96.3 mm
07:44 PM 45.4°F7.4°C 43.3°F6.3°C 56% 1.0 mph SE1.6 kmh SE -- 29.54 in1000.3 mb 0.02 in0.5 mm 0.00 in0.0 mm 3.79 in96.3 mm
07:45 PM 45.5°F7.5°C 43.3°F6.3°C 56% 1.0 mph SE1.6 kmh SE -- 29.54 in1000.3 mb 0.03 in0.8 mm 0.60 in15.2 mm 3.80 in96.5 mm
07:46 PM 45.6°F7.6°C 43.3°F6.3°C 56% 1.0 mph SE1.6 kmh SE -- 29.54 in1000.3 mb 0.03 in0.8 mm 0.00 in0.0 mm 3.80 in96.5 mm
07:47 PM 45.6°F7.6°C 43.3°F6.3°C 56% 1.0 mph SE1.6 kmh SE -- 29.54 in1000.3 mb 0.03 in0.8 mm 0.00 in0.0 mm 3.80 in96.5 mm
07:48 PM 45.8°F7.7°C 43.3°F6.3°C 56% 1.0 mph SE1.6 kmh SE -- 29.54 in1000.3 mb 0.03 in0.8 mm 0.00 in0.0 mm 3.80 in96.5 mm
07:49 PM 45.7°F7.6°C 43.3°F6.3°C 56% 2.0 mph SSE3.2 kmh SSE -- 29.54 in1000.3 mb 0.03 in0.8 mm 0.00 in0.0 mm 3.80 in96.5 mm
07:50 PM 45.7°F7.6°C 43.3°F6.3°C 56% 2.0 mph SSE3.2 kmh SSE -- 29.54 in1000.3 mb 0.03 in0.8 mm 0.00 in0.0 mm 3.80 in96.5 mm
07:51 PM 45.5°F7.5°C 43.3°F6.3°C 56% 2.0 mph SSE3.2 kmh SSE -- 29.54 in1000.3 mb 0.03 in0.8 mm 0.00 in0.0 mm 3.80 in96.5 mm
07:52 PM 45.4°F7.4°C 43.3°F6.3°C 56% 2.0 mph SSE3.2 kmh SSE -- 29.54 in1000.3 mb 0.03 in0.8 mm 0.00 in0.0 mm 3.80 in96.5 mm
07:53 PM 45.3°F7.4°C 43.3°F6.3°C 56% 1.0 mph SSE1.6 kmh SSE -- 29.54 in1000.3 mb 0.03 in0.8 mm 0.00 in0.0 mm 3.80 in96.5 mm
07:54 PM 45.1°F7.3°C 43.3°F6.3°C 56% 1.0 mph SSE1.6 kmh SSE -- 29.54 in1000.3 mb 0.03 in0.8 mm 0.00 in0.0 mm 3.80 in96.5 mm
07:55 PM 45.1°F7.3°C 43.3°F6.3°C 56% 1.0 mph SSE1.6 kmh SSE -- 29.54 in1000.3 mb 0.03 in0.8 mm 0.00 in0.0 mm 3.80 in96.5 mm
07:56 PM 44.9°F7.2°C 43.3°F6.3°C 56% 1.0 mph SSE1.6 kmh SSE -- 29.54 in1000.3 mb 0.03 in0.8 mm 0.00 in0.0 mm 3.80 in96.5 mm
07:57 PM 44.9°F7.2°C 43.3°F6.3°C 56% 1.0 mph SSE1.6 kmh SSE -- 29.54 in1000.3 mb 0.03 in0.8 mm 0.00 in0.0 mm 3.80 in96.5 mm
07:58 PM 44.8°F7.1°C 43.3°F6.3°C 56% 1.0 mph SSE1.6 kmh SSE -- 29.54 in1000.3 mb 0.03 in0.8 mm 0.00 in0.0 mm 3.80 in96.5 mm
07:59 PM 44.8°F7.1°C 43.3°F6.3°C 56% 1.0 mph SSE1.6 kmh SSE -- 29.54 in1000.3 mb 0.03 in0.8 mm 0.00 in0.0 mm 3.80 in96.5 mm
08:01 PM 44.7°F7.1°C 43.3°F6.3°C 56% 1.0 mph SSE1.6 kmh SSE -- 29.54 in1000.3 mb 0.03 in0.8 mm 0.00 in0.0 mm 3.80 in96.5 mm
08:02 PM 44.7°F7.1°C 43.3°F6.3°C 56% 1.0 mph SSE1.6 kmh SSE -- 29.54 in1000.3 mb 0.03 in0.8 mm 0.00 in0.0 mm 3.80 in96.5 mm
08:03 PM 44.7°F7.1°C 43.3°F6.3°C 56% 1.0 mph SE1.6 kmh SE -- 29.54 in1000.3 mb 0.03 in0.8 mm 0.00 in0.0 mm 3.80 in96.5 mm
08:04 PM 44.8°F7.1°C 43.3°F6.3°C 56% 1.0 mph SSE1.6 kmh SSE -- 29.54 in1000.3 mb 0.03 in0.8 mm 0.00 in0.0 mm 3.80 in96.5 mm
08:05 PM 44.8°F7.1°C 43.3°F6.3°C 56% 1.0 mph SSE1.6 kmh SSE -- 29.54 in1000.3 mb 0.03 in0.8 mm 0.00 in0.0 mm 3.80 in96.5 mm
08:06 PM 44.8°F7.1°C 43.3°F6.3°C 56% 1.0 mph SSE1.6 kmh SSE -- 29.54 in1000.3 mb 0.03 in0.8 mm 0.00 in0.0 mm 3.80 in96.5 mm
08:07 PM 44.7°F7.1°C 43.3°F6.3°C 56% 1.0 mph SSE1.6 kmh SSE -- 29.54 in1000.3 mb 0.03 in0.8 mm 0.00 in0.0 mm 3.80 in96.5 mm
08:08 PM 44.7°F7.1°C 43.3°F6.3°C 56% 1.0 mph SSE1.6 kmh SSE -- 29.54 in1000.3 mb 0.03 in0.8 mm 0.00 in0.0 mm 3.80 in96.5 mm
08:09 PM 44.7°F7.1°C 43.2°F6.2°C 56% 1.0 mph SSE1.6 kmh SSE -- 29.54 in1000.3 mb 0.03 in0.8 mm 0.00 in0.0 mm 3.80 in96.5 mm
08:10 PM 44.7°F7.1°C 43.3°F6.3°C 56% 1.0 mph SSE1.6 kmh SSE -- 29.54 in1000.3 mb 0.03 in0.8 mm 0.00 in0.0 mm 3.80 in96.5 mm
08:11 PM 44.6°F7.0°C 43.2°F6.2°C 56% 1.0 mph SSE1.6 kmh SSE -- 29.54 in1000.3 mb 0.03 in0.8 mm 0.00 in0.0 mm 3.80 in96.5 mm
08:12 PM 44.6°F7.0°C 43.3°F6.3°C 56% 1.0 mph SSE1.6 kmh SSE -- 29.54 in1000.3 mb 0.03 in0.8 mm 0.00 in0.0 mm 3.80 in96.5 mm
08:13 PM 44.6°F7.0°C 43.3°F6.3°C 56% 1.0 mph SSE1.6 kmh SSE -- 29.54 in1000.3 mb 0.03 in0.8 mm 0.00 in0.0 mm 3.80 in96.5 mm
08:14 PM 44.6°F7.0°C 43.3°F6.3°C 56% 1.0 mph SSE1.6 kmh SSE -- 29.54 in1000.3 mb 0.03 in0.8 mm 0.00 in0.0 mm 3.80 in96.5 mm
08:15 PM 44.5°F6.9°C 43.3°F6.3°C 56% 1.0 mph SSE1.6 kmh SSE -- 29.54 in1000.3 mb 0.03 in0.8 mm 0.00 in0.0 mm 3.80 in96.5 mm
08:16 PM 44.5°F6.9°C 43.2°F6.2°C 56% 1.0 mph SSE1.6 kmh SSE -- 29.54 in1000.3 mb 0.03 in0.8 mm 0.00 in0.0 mm 3.80 in96.5 mm
08:17 PM